Provisional Data: Marsh Creek near Blanchard, PA


Please select a monitoring station.
Please select start date.
Please select start date.

Toggle Unit: C/F Toggle Unit: C/F
Sample Time Temperature (C) Temperature (F) Specific Conductivity (mS/cm) pH   Turbidity (NTU+) DO (mg/L)
12/11/2021 12:00:00 AM 4.57 40.226 0.097 7.44 1.81 12.37
12/11/2021 12:15:00 AM 4.56 40.208 0.097 7.43 1.8 12.36
12/11/2021 12:30:00 AM 4.57 40.226 0.098 7.42 1.83 12.35
12/11/2021 12:45:00 AM 4.56 40.208 0.098 7.42 1.83 12.35
12/11/2021 1:00:00 AM 4.56 40.208 0.098 7.42 1.78 12.35
12/11/2021 1:15:00 AM 4.56 40.208 0.098 7.42 1.84 12.35
12/11/2021 1:30:00 AM 4.56 40.208 0.098 7.41 1.79 12.35
12/11/2021 1:45:00 AM 4.56 40.208 0.098 7.41 1.82 12.35
12/11/2021 2:00:00 AM 4.56 40.208 0.098 7.41 1.88 12.35
12/11/2021 2:15:00 AM 4.56 40.208 0.098 7.41 1.82 12.34
12/11/2021 2:30:00 AM 4.57 40.226 0.098 7.4 1.81 12.34
12/11/2021 2:45:00 AM 4.57 40.226 0.098 7.4 1.81 12.34
12/11/2021 3:00:00 AM 4.58 40.244 0.098 7.4 1.85 12.33
12/11/2021 3:15:00 AM 4.58 40.244 0.098 7.4 1.79 12.33
12/11/2021 3:30:00 AM 4.59 40.262 0.098 7.4 1.81 12.32
12/11/2021 3:45:00 AM 4.6 40.28 0.098 7.4 1.85 12.32
12/11/2021 4:00:00 AM 4.6 40.28 0.098 7.39 1.84 12.31
12/11/2021 4:15:00 AM 4.6 40.28 0.098 7.39 1.87 12.31
12/11/2021 4:30:00 AM 4.61 40.298 0.098 7.39 1.85 12.3
12/11/2021 4:45:00 AM 4.62 40.316 0.098 7.39 1.86 12.29
12/11/2021 5:00:00 AM 4.62 40.316 0.098 7.39 1.88 12.29
12/11/2021 5:15:00 AM 4.64 40.352 0.098 7.38 1.9 12.27
12/11/2021 5:30:00 AM 4.64 40.352 0.098 7.38 2.79 12.27
12/11/2021 5:45:00 AM 4.65 40.37 0.098 7.38 1.89 12.27
12/11/2021 6:00:00 AM 4.66 40.388 0.098 7.38 1.94 12.26
12/11/2021 6:15:00 AM 4.67 40.406 0.097 7.38 2.01 12.27
12/11/2021 6:30:00 AM 4.68 40.424 0.097 7.38 2 12.25
12/11/2021 6:45:00 AM 4.7 40.46 0.097 7.38 1.94 12.25
12/11/2021 7:00:00 AM 4.7 40.46 0.098 7.37 1.93 12.23
12/11/2021 7:15:00 AM 4.72 40.496 0.098 7.37 2.01 12.23
12/11/2021 7:30:00 AM 4.73 40.514 0.098 7.37 2.01 12.23
12/11/2021 7:45:00 AM 4.74 40.532 0.098 7.37 2.31 12.23
12/11/2021 8:00:00 AM 4.76 40.568 0.099 7.37 2.4 12.25
12/11/2021 8:15:00 AM 4.77 40.586 0.099 7.39 2.72 12.27
12/11/2021 8:30:00 AM 4.79 40.622 0.101 7.39 2.8 12.29
12/11/2021 8:45:00 AM 4.81 40.658 0.101 7.4 2.95 12.32
12/11/2021 9:00:00 AM 4.83 40.694 0.101 7.42 3.38 12.38
12/11/2021 9:15:00 AM 4.85 40.73 0.102 7.44 3.89 12.45
12/11/2021 9:30:00 AM 4.87 40.766 0.102 7.45 4.3 12.51
12/11/2021 9:45:00 AM 4.9 40.82 0.103 7.47 4.58 12.57
12/11/2021 10:00:00 AM 4.92 40.856 0.103 7.48 5.09 12.6
12/11/2021 10:15:00 AM 4.95 40.91 0.103 7.5 5.62 12.69
12/11/2021 10:30:00 AM 4.98 40.964 0.103 7.53 6.27 12.82
12/11/2021 10:45:00 AM 5.01 41.018 0.103 7.55 6.86 12.89
12/11/2021 11:00:00 AM 5.05 41.09 0.103 7.57 6.37 12.97
12/11/2021 11:15:00 AM 5.08 41.144 0.103 7.6 5.41 13.05
12/11/2021 11:30:00 AM 5.11 41.198 0.103 7.63 5.22 13.13
12/11/2021 11:45:00 AM 5.15 41.27 0.102 7.66 4.95 13.21
12/11/2021 12:00:00 PM 5.18 41.324 0.103 7.67 5.31 13.22
12/11/2021 12:15:00 PM 5.21 41.378 0.103 7.68 4.52 13.21
12/11/2021 12:30:00 PM 5.26 41.468 0.103 7.72 4.62 13.3
12/11/2021 12:45:00 PM 5.29 41.522 0.104 7.73 4.75 13.28
12/11/2021 1:00:00 PM 5.34 41.612 0.105 7.74 4.64 13.27
12/11/2021 1:15:00 PM 5.38 41.684 0.107 7.73 4.52 13.24
12/11/2021 1:30:00 PM 5.42 41.756 0.107 7.73 4.59 13.25
12/11/2021 1:45:00 PM 5.46 41.828 0.107 7.75 5.47 13.25
12/11/2021 2:00:00 PM 5.5 41.9 0.106 7.78 5.53 13.27
12/11/2021 2:15:00 PM 5.54 41.972 0.106 7.78 5.77 13.21
12/11/2021 2:30:00 PM 5.58 42.044 0.107 7.77 5.92 13.16
12/11/2021 2:45:00 PM 5.61 42.098 0.107 7.77 6.51 13.08
12/11/2021 3:00:00 PM 5.65 42.17 0.107 7.77 6.48 13.03
12/11/2021 3:15:00 PM 5.68 42.224 0.107 7.76 7.47 12.96
12/11/2021 3:30:00 PM 5.71 42.278 0.108 7.75 7.47 12.93
12/11/2021 3:45:00 PM 5.75 42.35 0.109 7.74 7.86 12.84
12/11/2021 4:00:00 PM 5.76 42.368 0.109 7.71 7.86 12.73
12/11/2021 4:15:00 PM 5.79 42.422 0.109 7.69 7.87 12.63
12/11/2021 4:30:00 PM 5.81 42.458 0.109 7.67 9.32 12.52
12/11/2021 4:45:00 PM 5.83 42.494 0.109 7.65 8.34 12.44
12/11/2021 5:00:00 PM 5.84 42.512 0.109 7.63 7.99 12.36
12/11/2021 5:15:00 PM 5.86 42.548 0.109 7.61 7.84 12.27
12/11/2021 5:30:00 PM 5.88 42.584 0.109 7.6 8.11 12.19
12/11/2021 5:45:00 PM 5.92 42.656 0.108 7.58 8.4 12.12
12/11/2021 6:00:00 PM 5.97 42.746 0.109 7.56 8.79 12.06
12/11/2021 6:15:00 PM 6.03 42.854 0.11 7.54 8.49 12
12/11/2021 6:30:00 PM 6.09 42.962 0.11 7.53 7.9 11.94
12/11/2021 6:45:00 PM 6.13 43.034 0.11 7.52 7.78 11.9
12/11/2021 7:00:00 PM 6.16 43.088 0.11 7.52 7.52 11.86
12/11/2021 7:15:00 PM 6.19 43.142 0.11 7.51 8.01 11.82
12/11/2021 7:30:00 PM 6.21 43.178 0.11 7.51 7.79 11.79
12/11/2021 7:45:00 PM 6.22 43.196 0.11 7.5 7.53 11.78
12/11/2021 8:00:00 PM 6.22 43.196 0.11 7.5 7.95 11.76
12/11/2021 8:15:00 PM 6.21 43.178 0.111 7.5 8.33 11.74
12/11/2021 8:30:00 PM 6.19 43.142 0.111 7.5 9.59 11.73
12/11/2021 8:45:00 PM 6.17 43.106 0.111 7.5 9.55 11.74
12/11/2021 9:00:00 PM 6.14 43.052 0.111 7.5 10.75 11.76
12/11/2021 9:15:00 PM 6.08 42.944 0.111 7.5 10.29 11.76
12/11/2021 9:30:00 PM 6.03 42.854 0.112 7.49 10.05 11.78
12/11/2021 9:45:00 PM 5.97 42.746 0.111 7.49 11.26 11.81
12/11/2021 10:00:00 PM 5.92 42.656 0.111 7.49 9.5 11.82
12/11/2021 10:15:00 PM 5.87 42.566 0.111 7.49 10.32 11.83
12/11/2021 10:30:00 PM 5.82 42.476 0.111 7.48 9.48 11.85
12/11/2021 10:45:00 PM 5.78 42.404 0.111 7.48 8.47 11.87
12/11/2021 11:00:00 PM 5.75 42.35 0.111 7.48 8.52 11.89
12/11/2021 11:15:00 PM 5.71 42.278 0.111 7.48 7.7 11.91
12/11/2021 11:30:00 PM 5.67 42.206 0.111 7.47 7.33 11.93
12/11/2021 11:45:00 PM 5.64 42.152 0.111 7.48 7.5 11.95
12/12/2021 12:00:00 AM 5.61 42.098 0.11 7.48 7.07 11.97
12/12/2021 12:15:00 AM 5.58 42.044 0.11 7.48 7.8 11.98
12/12/2021 12:30:00 AM 5.55 41.99 0.111 7.47 7.3 12
12/12/2021 12:45:00 AM 5.52 41.936 0.11 7.48 8.29 12.01
12/12/2021 1:00:00 AM 5.5 41.9 0.111 7.48 7.69 12.01
12/12/2021 1:15:00 AM 5.47 41.846 0.111 7.48 8.62 12.03
12/12/2021 1:30:00 AM 5.43 41.774 0.111 7.48 8.16 12.04
12/12/2021 1:45:00 AM 5.4 41.72 0.111 7.48 8.19 12.06
12/12/2021 2:00:00 AM 5.39 41.702 0.11 7.48 7.65 12.06
12/12/2021 2:15:00 AM 5.37 41.666 0.11 7.47 7.42 12.08
12/12/2021 2:30:00 AM 5.34 41.612 0.109 7.47 7.73 12.1
12/12/2021 2:45:00 AM 5.32 41.576 0.109 7.47 7.46 12.11
12/12/2021 3:00:00 AM 5.29 41.522 0.109 7.47 6.83 12.12
12/12/2021 3:15:00 AM 5.26 41.468 0.108 7.47 7.05 12.14
12/12/2021 3:30:00 AM 5.25 41.45 0.108 7.47 6.36 12.15
12/12/2021 3:45:00 AM 5.22 41.396 0.108 7.47 6.25 12.17
12/12/2021 4:00:00 AM 5.19 41.342 0.108 7.47 6.17 12.18
12/12/2021 4:15:00 AM 5.16 41.288 0.108 7.46 6.08 12.18
12/12/2021 4:30:00 AM 5.13 41.234 0.108 7.47 5.94 12.21
12/12/2021 4:45:00 AM 5.1 41.18 0.108 7.46 5.99 12.21
12/12/2021 5:00:00 AM 5.08 41.144 0.108 7.46 5.62 12.23
12/12/2021 5:15:00 AM 5.07 41.126 0.108 7.47 6.16 12.23
12/12/2021 5:30:00 AM 5.04 41.072 0.108 7.46 6.03 12.25
12/12/2021 5:45:00 AM 5 41 0.108 7.46 6.52 12.26
12/12/2021 6:00:00 AM 4.98 40.964 0.107 7.46 6.12 12.27
12/12/2021 6:15:00 AM 4.94 40.892 0.107 7.46 6.65 12.28
12/12/2021 6:30:00 AM 4.9 40.82 0.107 7.45 6.74 12.29
12/12/2021 6:45:00 AM 4.85 40.73 0.107 7.45 6.41 12.31
12/12/2021 7:00:00 AM 4.81 40.658 0.107 7.46 6.23 12.33
12/12/2021 7:15:00 AM 4.77 40.586 0.107 7.45 6.31 12.34
12/12/2021 7:30:00 AM 4.73 40.514 0.107 7.45 6.27 12.37
12/12/2021 7:45:00 AM 4.69 40.442 0.107 7.45 5.98 12.42
12/12/2021 8:00:00 AM 4.65 40.37 0.107 7.46 5.82 12.47
12/12/2021 8:15:00 AM 4.62 40.316 0.107 7.48 5.83 12.57
12/12/2021 8:30:00 AM 4.6 40.28 0.107 7.49 5.32 12.69
12/12/2021 8:45:00 AM 4.6 40.28 0.107 7.5 5.36 12.81
12/12/2021 9:00:00 AM 4.6 40.28 0.107 7.53 5.51 12.97
12/12/2021 9:15:00 AM 4.62 40.316 0.107 7.56 5.02 13.14
12/12/2021 9:30:00 AM 4.65 40.37 0.107 7.6 5.14 13.31
12/12/2021 9:45:00 AM 4.69 40.442 0.106 7.64 4.95 13.45
12/12/2021 10:00:00 AM 4.73 40.514 0.106 7.68 4.72 13.61
12/12/2021 10:15:00 AM 4.79 40.622 0.106 7.72 4.56 13.74
12/12/2021 10:30:00 AM 4.84 40.712 0.106 7.78 4.46 13.88
12/12/2021 10:45:00 AM 4.91 40.838 0.106 7.84 4.49 14
12/12/2021 11:00:00 AM 4.98 40.964 0.106 7.9 4.62 14.11
12/12/2021 11:15:00 AM 5.06 41.108 0.105 7.95 4.69 14.2
12/12/2021 11:30:00 AM 5.14 41.252 0.105 8.04 4.12 14.28
12/12/2021 11:45:00 AM 5.22 41.396 0.105 8.1 4.65 14.33
12/12/2021 12:00:00 PM 5.31 41.558 0.105 8.16 4.19 14.38
12/12/2021 12:15:00 PM 5.39 41.702 0.104 8.23 4.31 14.4
12/12/2021 12:30:00 PM 5.47 41.846 0.104 8.3 4.17 14.41
12/12/2021 12:45:00 PM 5.56 42.008 0.104 8.34 3.9 14.44
12/12/2021 1:00:00 PM 5.64 42.152 0.104 8.4 3.95 14.41
12/12/2021 1:15:00 PM 5.7 42.26 0.104 8.45 3.93 14.4
12/12/2021 1:30:00 PM 5.74 42.332 0.104 8.47 4.05 14.39
12/12/2021 1:45:00 PM 5.77 42.386 0.104 8.51 3.76 14.38
12/12/2021 2:00:00 PM 5.79 42.422 0.104 8.54 3.9 14.35
12/12/2021 2:15:00 PM 5.81 42.458 0.104 8.54 3.73 14.32
12/12/2021 2:30:00 PM 5.8 42.44 0.104 8.53 3.81 14.28
12/12/2021 2:45:00 PM 5.78 42.404 0.104 8.53 3.7 14.24
12/12/2021 3:00:00 PM 5.74 42.332 0.103 8.53 3.68 14.21
12/12/2021 3:15:00 PM 5.68 42.224 0.104 8.5 3.78 14.14
12/12/2021 3:30:00 PM 5.64 42.152 0.104 8.45 3.64 14.06
12/12/2021 3:45:00 PM 5.57 42.026 0.104 8.38 3.65 13.97
12/12/2021 4:00:00 PM 5.5 41.9 0.104 8.3 3.61 13.83
12/12/2021 4:15:00 PM 5.42 41.756 0.104 8.2 3.66 13.7
12/12/2021 4:30:00 PM 5.35 41.63 0.105 8.09 3.57 13.57
12/12/2021 4:45:00 PM 5.28 41.504 0.105 8 3.57 13.41
12/12/2021 5:00:00 PM 5.2 41.36 0.105 7.92 3.76 13.28
12/12/2021 5:15:00 PM 5.12 41.216 0.105 7.86 3.61 13.17
12/12/2021 5:30:00 PM 5.04 41.072 0.105 7.81 3.51 13.06
12/12/2021 5:45:00 PM 4.97 40.946 0.105 7.76 3.45 12.98
12/12/2021 6:00:00 PM 4.89 40.802 0.106 7.72 3.81 12.89
12/12/2021 6:15:00 PM 4.83 40.694 0.106 7.68 3.46 12.81
12/12/2021 6:30:00 PM 4.76 40.568 0.106 7.65 3.38 12.75
12/12/2021 6:45:00 PM 4.69 40.442 0.106 7.62 3.41 12.69
12/12/2021 7:00:00 PM 4.63 40.334 0.106 7.6 3.49 12.66
12/12/2021 7:15:00 PM 4.57 40.226 0.106 7.58 3.34 12.63
12/12/2021 7:30:00 PM 4.51 40.118 0.106 7.56 3.42 12.61
12/12/2021 7:45:00 PM 4.45 40.01 0.106 7.55 3.31 12.6
12/12/2021 8:00:00 PM 4.4 39.92 0.106 7.54 3.33 12.59
12/12/2021 8:15:00 PM 4.33 39.794 0.106 7.52 3.35 12.6
12/12/2021 8:30:00 PM 4.28 39.704 0.106 7.51 3.26 12.6
12/12/2021 8:45:00 PM 4.22 39.596 0.106 7.5 3.62 12.59
12/12/2021 9:00:00 PM 4.16 39.488 0.106 7.49 3.3 12.63
12/12/2021 9:15:00 PM 4.09 39.362 0.106 7.49 3.39 12.63
12/12/2021 9:30:00 PM 4.03 39.254 0.106 7.47 3.16 12.65
12/12/2021 9:45:00 PM 3.97 39.146 0.106 7.47 3.33 12.66
12/12/2021 10:00:00 PM 3.91 39.038 0.106 7.46 3.19 12.69
12/12/2021 10:15:00 PM 3.84 38.912 0.106 7.46 3.19 12.7
12/12/2021 10:30:00 PM 3.79 38.822 0.106 7.45 3.31 12.72
12/12/2021 10:45:00 PM 3.73 38.714 0.106 7.45 3.1 12.74
12/12/2021 11:00:00 PM 3.68 38.624 0.106 7.44 3.09 12.76
12/12/2021 11:15:00 PM 3.63 38.534 0.106 7.44 3.13 12.77
12/12/2021 11:30:00 PM 3.58 38.444 0.106 7.44 3.1 12.79
12/12/2021 11:45:00 PM 3.53 38.354 0.106 7.43 3.05 12.81
12/13/2021 12:00:00 AM 3.49 38.282 0.106 7.43 3.03 12.83
12/13/2021 12:15:00 AM 3.44 38.192 0.106 7.43 3.01 12.84
12/13/2021 12:30:00 AM 3.39 38.102 0.106 7.43 2.97 12.86
12/13/2021 12:45:00 AM 3.35 38.03 0.106 7.42 3.06 12.89
12/13/2021 1:00:00 AM 3.29 37.922 0.106 7.42 3.03 12.9
12/13/2021 1:15:00 AM 3.24 37.832 0.106 7.41 2.89 12.92
12/13/2021 1:30:00 AM 3.2 37.76 0.101 7.4 4.49 12.93
12/13/2021 1:45:00 AM 3.15 37.67 0.106 7.41 2.88 12.96
12/13/2021 2:00:00 AM 3.09 37.562 0.106 7.41 3.03 12.99
12/13/2021 2:15:00 AM 3.04 37.472 0.106 7.41 2.93 13.01
12/13/2021 2:30:00 AM 2.99 37.382 0.106 7.41 2.84 13.03
12/13/2021 2:45:00 AM 2.95 37.31 0.106 7.42 2.86 13.05
12/13/2021 3:00:00 AM 2.9 37.22 0.106 7.41 2.86 13.07
12/13/2021 3:15:00 AM 2.87 37.166 0.106 7.41 2.99 13.09
12/13/2021 3:30:00 AM 2.84 37.112 0.106 7.41 2.89 13.11
12/13/2021 3:45:00 AM 2.81 37.058 0.106 7.42 2.81 13.13
12/13/2021 4:00:00 AM 2.79 37.022 0.106 7.42 2.74 13.14
12/13/2021 4:15:00 AM 2.76 36.968 0.106 7.42 2.78 13.17
12/13/2021 4:30:00 AM 2.74 36.932 0.106 7.45 2.89 13.17
12/13/2021 4:45:00 AM 2.71 36.878 0.106 7.41 2.74 13.19
12/13/2021 5:00:00 AM 2.7 36.86 0.101 7.4 4.37 13.2
12/13/2021 5:15:00 AM 2.69 36.842 0.106 7.4 2.93 13.21
12/13/2021 5:30:00 AM 2.67 36.806 0.106 7.4 2.72 13.22
12/13/2021 5:45:00 AM 2.66 36.788 0.106 7.4 2.7 13.23
12/13/2021 6:00:00 AM 2.65 36.77 0.106 7.4 2.72 13.24
12/13/2021 6:15:00 AM 2.64 36.752 0.105 7.4 2.7 13.25
12/13/2021 6:30:00 AM 2.63 36.734 0.105 7.39 2.76 13.25
12/13/2021 6:45:00 AM 2.61 36.698 0.105 7.4 2.68 13.25
12/13/2021 7:00:00 AM 2.6 36.68 0.105 7.39 2.76 13.26
12/13/2021 7:15:00 AM 2.57 36.626 0.105 7.39 2.73 13.27
12/13/2021 7:30:00 AM 2.55 36.59 0.105 7.39 2.64 13.29
12/13/2021 7:45:00 AM 2.52 36.536 0.105 7.39 2.66 13.32
12/13/2021 8:00:00 AM 2.5 36.5 0.105 7.4 2.64 13.39
12/13/2021 8:15:00 AM 2.49 36.482 0.105 7.41 2.63 13.47
12/13/2021 8:30:00 AM 2.49 36.482 0.105 7.43 2.62 13.58
12/13/2021 8:45:00 AM 2.51 36.518 0.105 7.46 2.68 13.73
12/13/2021 9:00:00 AM 2.54 36.572 0.105 7.48 2.51 13.87
12/13/2021 9:15:00 AM 2.59 36.662 0.105 7.52 2.57 14.01
12/13/2021 9:30:00 AM 2.65 36.77 0.105 7.55 2.55 14.17
12/13/2021 9:45:00 AM 2.71 36.878 0.1 7.58 3.99 14.3
12/13/2021 10:00:00 AM 2.79 37.022 0.105 7.63 2.61 14.43
12/13/2021 10:15:00 AM 2.87 37.166 0.105 7.67 2.59 14.55
12/13/2021 10:30:00 AM 2.97 37.346 0.105 7.71 2.55 14.66
12/13/2021 10:45:00 AM 3.08 37.544 0.104 7.76 2.47 14.76
12/13/2021 11:00:00 AM 3.2 37.76 0.104 7.81 2.52 14.84
12/13/2021 11:15:00 AM 3.31 37.958 0.103 7.87 2.58 14.9
12/13/2021 11:30:00 AM 3.46 38.228 0.103 7.91 2.55 14.96
12/13/2021 11:45:00 AM 3.59 38.462 0.102 7.96 2.54 15
12/13/2021 12:00:00 PM 3.71 38.678 0.102 8.02 2.48 15.03
12/13/2021 12:15:00 PM 3.85 38.93 0.101 8.07 2.5 15.05
12/13/2021 12:30:00 PM 3.99 39.182 0.101 8.12 2.46 15.03
12/13/2021 12:45:00 PM 4.12 39.416 0.101 8.18 2.43 15.01
12/13/2021 1:00:00 PM 4.24 39.632 0.1 8.24 2.48 15
12/13/2021 1:15:00 PM 4.36 39.848 0.1 8.28 2.47 14.96
12/13/2021 1:30:00 PM 4.46 40.028 0.1 8.32 2.49 14.92
12/13/2021 1:45:00 PM 4.54 40.172 0.1 8.35 2.46 14.9
12/13/2021 2:00:00 PM 4.59 40.262 0.1 8.4 2.49 14.85
12/13/2021 2:15:00 PM 4.63 40.334 0.1 8.41 2.42 14.81
12/13/2021 2:30:00 PM 4.66 40.388 0.1 8.43 2.44 14.77
12/13/2021 2:45:00 PM 4.68 40.424 0.1 8.42 2.77 14.72
12/13/2021 3:00:00 PM 4.69 40.442 0.1 8.41 2.46 14.66
12/13/2021 3:15:00 PM 4.67 40.406 0.1 8.39 2.45 14.59
12/13/2021 3:30:00 PM 4.65 40.37 0.099 8.36 2.42 14.52
12/13/2021 3:45:00 PM 4.61 40.298 0.099 8.29 2.38 14.42
12/13/2021 4:00:00 PM 4.57 40.226 0.099 8.22 2.61 14.29
12/13/2021 4:15:00 PM 4.52 40.136 0.099 8.13 2.46 14.15
12/13/2021 4:30:00 PM 4.46 40.028 0.1 8.03 2.41 13.98
12/13/2021 4:45:00 PM 4.41 39.938 0.1 7.95 2.52 13.83
12/13/2021 5:00:00 PM 4.36 39.848 0.1 7.88 2.38 13.7
12/13/2021 5:15:00 PM 4.3 39.74 0.1 7.83 2.37 13.56
12/13/2021 5:30:00 PM 4.25 39.65 0.1 7.78 2.43 13.45
12/13/2021 5:45:00 PM 4.2 39.56 0.1 7.73 2.48 13.34
12/13/2021 6:00:00 PM 4.14 39.452 0.1 7.69 2.4 13.26
12/13/2021 6:15:00 PM 4.09 39.362 0.1 7.66 2.39 13.18
12/13/2021 6:30:00 PM 4.03 39.254 0.1 7.62 2.42 13.09
12/13/2021 6:45:00 PM 3.98 39.164 0.1 7.6 2.35 13.03
12/13/2021 7:00:00 PM 3.94 39.092 0.1 7.57 2.39 12.98
12/13/2021 7:15:00 PM 3.9 39.02 0.1 7.56 2.35 12.95
12/13/2021 7:30:00 PM 3.87 38.966 0.1 7.54 2.46 12.91
12/13/2021 7:45:00 PM 3.83 38.894 0.101 7.52 2.44 12.89
12/13/2021 8:00:00 PM 3.79 38.822 0.101 7.51 2.43 12.88
12/13/2021 8:15:00 PM 3.75 38.75 0.1 7.5 2.37 12.87
12/13/2021 8:30:00 PM 3.7 38.66 0.101 7.49 2.46 12.87
12/13/2021 8:45:00 PM 3.66 38.588 0.101 7.48 2.37 12.86
12/13/2021 9:00:00 PM 3.61 38.498 0.101 7.47 2.44 12.87
12/13/2021 9:15:00 PM 3.56 38.408 0.1 7.46 2.39 12.88
12/13/2021 9:30:00 PM 3.52 38.336 0.1 7.46 2.34 12.9
12/13/2021 9:45:00 PM 3.47 38.246 0.1 7.45 2.38 12.9
12/13/2021 10:00:00 PM 3.42 38.156 0.1 7.44 2.45 12.92
12/13/2021 10:15:00 PM 3.37 38.066 0.1 7.44 2.36 12.93
12/13/2021 10:30:00 PM 3.33 37.994 0.1 7.43 2.34 12.95
12/13/2021 10:45:00 PM 3.29 37.922 0.1 7.43 2.36 12.96
12/13/2021 11:00:00 PM 3.25 37.85 0.1 7.42 2.31 12.98
12/13/2021 11:15:00 PM 3.22 37.796 0.1 7.42 2.43 12.99
12/13/2021 11:30:00 PM 3.19 37.742 0.1 7.41 2.4 13
12/13/2021 11:45:00 PM 3.15 37.67 0.1 7.41 2.32 13.01
12/14/2021 12:00:00 AM 3.12 37.616 0.1 7.4 2.33 13.03
12/14/2021 12:15:00 AM 3.09 37.562 0.1 7.4 2.26 13.04
12/14/2021 12:30:00 AM 3.06 37.508 0.1 7.4 2.31 13.05
12/14/2021 12:45:00 AM 3.03 37.454 0.1 7.4 2.29 13.06
12/14/2021 1:00:00 AM 3 37.4 0.1 7.39 2.25 13.09
12/14/2021 1:15:00 AM 2.96 37.328 0.1 7.39 2.3 13.09
12/14/2021 1:30:00 AM 2.93 37.274 0.1 7.39 2.28 13.11
12/14/2021 1:45:00 AM 2.9 37.22 0.095 7.37 3.79 13.13
12/14/2021 2:00:00 AM 2.86 37.148 0.095 7.37 3.67 13.14
12/14/2021 2:15:00 AM 2.82 37.076 0.1 7.38 2.25 13.16
12/14/2021 2:30:00 AM 2.79 37.022 0.1 7.38 2.31 13.18
12/14/2021 2:45:00 AM 2.75 36.95 0.1 7.38 2.25 13.19
12/14/2021 3:00:00 AM 2.72 36.896 0.1 7.38 2.25 13.21
12/14/2021 3:15:00 AM 2.68 36.824 0.099 7.38 2.31 13.23
12/14/2021 3:30:00 AM 2.65 36.77 0.095 7.36 3.9 13.25
12/14/2021 3:45:00 AM 2.61 36.698 0.1 7.37 2.29 13.27
12/14/2021 4:00:00 AM 2.57 36.626 0.099 7.37 2.24 13.27
12/14/2021 4:15:00 AM 2.54 36.572 0.1 7.37 2.18 13.29
12/14/2021 4:30:00 AM 2.5 36.5 0.099 7.37 2.33 13.31
12/14/2021 4:45:00 AM 2.47 36.446 0.099 7.37 2.17 13.32
12/14/2021 5:00:00 AM 2.44 36.392 0.099 7.37 2.24 13.34
12/14/2021 5:15:00 AM 2.41 36.338 0.099 7.37 2.2 13.36
12/14/2021 5:30:00 AM 2.38 36.284 0.094 7.35 3.64 13.35
12/14/2021 5:45:00 AM 2.34 36.212 0.094 7.36 3.77 13.38
12/14/2021 6:00:00 AM 2.32 36.176 0.099 7.37 2.22 13.39
12/14/2021 6:15:00 AM 2.29 36.122 0.095 7.35 3.75 13.4
12/14/2021 6:30:00 AM 2.26 36.068 0.099 7.37 2.24 13.42
12/14/2021 6:45:00 AM 2.24 36.032 0.099 7.37 2.21 13.43
12/14/2021 7:00:00 AM 2.22 35.996 0.099 7.37 2.15 13.44
12/14/2021 7:15:00 AM 2.19 35.942 0.099 7.37 2.22 13.46
12/14/2021 7:30:00 AM 2.17 35.906 0.095 7.35 2.81 13.49
12/14/2021 7:45:00 AM 2.15 35.87 0.094 7.36 3.65 13.52
12/14/2021 8:00:00 AM 2.13 35.834 0.094 7.37 3.6 13.59
12/14/2021 8:15:00 AM 2.12 35.816 0.099 7.4 2.21 13.68
12/14/2021 8:30:00 AM 2.12 35.816 0.098 7.41 2.18 13.8
12/14/2021 8:45:00 AM 2.14 35.852 0.098 7.43 2.14 13.93
12/14/2021 9:00:00 AM 2.17 35.906 0.098 7.46 2.3 14.07
12/14/2021 9:15:00 AM 2.22 35.996 0.093 7.49 3.73 14.23
12/14/2021 9:30:00 AM 2.28 36.104 0.098 7.53 2.16 14.39
12/14/2021 9:45:00 AM 2.35 36.23 0.093 7.56 3.64 14.53
12/14/2021 10:00:00 AM 2.43 36.374 0.098 7.61 2.22 14.65
12/14/2021 10:15:00 AM 2.53 36.554 0.093 7.64 3.65 14.76
12/14/2021 10:30:00 AM 2.63 36.734 0.097 7.7 2.18 14.86
12/14/2021 10:45:00 AM 2.73 36.914 0.097 7.75 2.19 14.97
12/14/2021 11:00:00 AM 2.86 37.148 0.097 7.79 2.21 15.04
12/14/2021 11:15:00 AM 3 37.4 0.093 7.84 2.85 15.11
12/14/2021 11:30:00 AM 3.13 37.634 0.096 7.91 2.26 15.16
12/14/2021 11:45:00 AM 3.27 37.886 0.096 7.96 2.17 15.2
12/14/2021 12:00:00 PM 3.41 38.138 0.096 8.01 2.19 15.22
12/14/2021 12:15:00 PM 3.55 38.39 0.096 8.07 2.19 15.22
12/14/2021 12:30:00 PM 3.69 38.642 0.096 8.12 2.14 15.21
12/14/2021 12:45:00 PM 3.84 38.912 0.096 8.16 2.14 15.19
12/14/2021 1:00:00 PM 3.96 39.128 0.095 8.22 2.18 15.18
12/14/2021 1:15:00 PM 4.09 39.362 0.095 8.27 2.19 15.15
12/14/2021 1:30:00 PM 4.19 39.542 0.095 8.29 2.17 15.11
12/14/2021 1:45:00 PM 4.28 39.704 0.095 8.31 2.21 15.05
12/14/2021 2:00:00 PM 4.35 39.83 0.095 8.33 2.17 15.02
12/14/2021 2:15:00 PM 4.4 39.92 0.095 8.35 2.27 14.98
12/14/2021 2:30:00 PM 4.44 39.992 0.095 8.36 2.37 14.93
12/14/2021 2:45:00 PM 4.46 40.028 0.095 8.37 2.32 14.88
12/14/2021 3:00:00 PM 4.47 40.046 0.095 8.38 2.42 14.84
12/14/2021 3:15:00 PM 4.47 40.046 0.095 8.37 2.44 14.78
12/14/2021 3:30:00 PM 4.45 40.01 0.095 8.34 2.4 14.7
12/14/2021 3:45:00 PM 4.42 39.956 0.095 8.26 2.62 14.6
12/14/2021 4:00:00 PM 4.39 39.902 0.095 8.18 2.44 14.47
12/14/2021 4:15:00 PM 4.34 39.812 0.095 8.1 2.19 14.34
12/14/2021 4:30:00 PM 4.29 39.722 0.095 8.01 2.21 14.18
12/14/2021 4:45:00 PM 4.25 39.65 0.095 7.92 2.4 14.03
12/14/2021 5:00:00 PM 4.2 39.56 0.095 7.85 2.2 13.88
12/14/2021 5:15:00 PM 4.15 39.47 0.095 7.79 2.18 13.75
12/14/2021 5:30:00 PM 4.1 39.38 0.095 7.74 2.21 13.62
12/14/2021 5:45:00 PM 4.04 39.272 0.096 7.69 2.24 13.53
12/14/2021 6:00:00 PM 3.99 39.182 0.095 7.65 2.33 13.43
12/14/2021 6:15:00 PM 3.94 39.092 0.096 7.62 2.4 13.35
12/14/2021 6:30:00 PM 3.89 39.002 0.096 7.59 2.18 13.27
12/14/2021 6:45:00 PM 3.85 38.93 0.096 7.56 2.3 13.21
12/14/2021 7:00:00 PM 3.81 38.858 0.096 7.54 2.23 13.17
12/14/2021 7:15:00 PM 3.78 38.804 0.096 7.52 2.17 13.11
12/14/2021 7:30:00 PM 3.76 38.768 0.096 7.51 2.17 13.09
12/14/2021 7:45:00 PM 3.73 38.714 0.096 7.5 2.22 13.06
12/14/2021 8:00:00 PM 3.7 38.66 0.097 7.48 2.11 13.04
12/14/2021 8:15:00 PM 3.67 38.606 0.097 7.47 2.33 13.03
12/14/2021 8:30:00 PM 3.64 38.552 0.097 7.46 2.21 13.02
12/14/2021 8:45:00 PM 3.61 38.498 0.096 7.45 2.27 13.02
12/14/2021 9:00:00 PM 3.58 38.444 0.097 7.44 2.29 13.02
12/14/2021 9:15:00 PM 3.54 38.372 0.097 7.44 2.27 13.02
12/14/2021 9:30:00 PM 3.5 38.3 0.096 7.43 2.25 13.04
12/14/2021 9:45:00 PM 3.46 38.228 0.097 7.43 2.22 13.04
12/14/2021 10:00:00 PM 3.43 38.174 0.097 7.42 2.22 13.05
12/14/2021 10:15:00 PM 3.39 38.102 0.097 7.4 2.32 13.06
12/14/2021 10:30:00 PM 3.36 38.048 0.097 7.4 2.22 13.06
12/14/2021 10:45:00 PM 3.33 37.994 0.097 7.39 2.18 13.07
12/14/2021 11:00:00 PM 3.31 37.958 0.097 7.39 2.14 13.08
12/14/2021 11:15:00 PM 3.28 37.904 0.096 7.39 2.21 13.09
12/14/2021 11:30:00 PM 3.26 37.868 0.097 7.38 2.2 13.1
12/14/2021 11:45:00 PM 3.24 37.832 0.096 7.38 2.18 13.11
12/15/2021 12:00:00 AM 3.21 37.778 0.097 7.37 2.25 13.12
12/15/2021 12:15:00 AM 3.19 37.742 0.097 7.37 2.15 13.12
12/15/2021 12:30:00 AM 3.15 37.67 0.097 7.37 2.13 13.14
12/15/2021 12:45:00 AM 3.11 37.598 0.097 7.37 2.15 13.15
12/15/2021 1:00:00 AM 3.08 37.544 0.097 7.37 2.12 13.16
12/15/2021 1:15:00 AM 3.04 37.472 0.097 7.36 2.13 13.17
12/15/2021 1:30:00 AM 3.01 37.418 0.097 7.36 2.14 13.19
12/15/2021 1:45:00 AM 2.98 37.364 0.097 7.35 2.14 13.2
12/15/2021 2:00:00 AM 2.94 37.292 0.094 7.34 2.91 13.21
12/15/2021 2:15:00 AM 2.91 37.238 0.097 7.36 2.17 13.23
12/15/2021 2:30:00 AM 2.87 37.166 0.096 7.35 2.05 13.24
12/15/2021 2:45:00 AM 2.83 37.094 0.096 7.35 2.42 13.25
12/15/2021 3:00:00 AM 2.8 37.04 0.096 7.35 2.19 13.27
12/15/2021 3:15:00 AM 2.76 36.968 0.096 7.35 2.24 13.3
12/15/2021 3:30:00 AM 2.72 36.896 0.096 7.34 2.1 13.31
12/15/2021 3:45:00 AM 2.68 36.824 0.096 7.34 2.15 13.32
12/15/2021 4:00:00 AM 2.64 36.752 0.096 7.34 2.25 13.33
12/15/2021 4:15:00 AM 2.6 36.68 0.092 7.32 3.72 13.34
12/15/2021 4:30:00 AM 2.56 36.608 0.094 7.32 2.82 13.36
12/15/2021 4:45:00 AM 2.53 36.554 0.096 7.34 2.39 13.38
12/15/2021 5:00:00 AM 2.49 36.482 0.096 7.34 2.11 13.39
12/15/2021 5:15:00 AM 2.46 36.428 0.096 7.34 2.14 13.4
12/15/2021 5:30:00 AM 2.44 36.392 0.096 7.34 2.12 13.42
12/15/2021 5:45:00 AM 2.4 36.32 0.096 7.34 2.15 13.42
12/15/2021 6:00:00 AM 2.37 36.266 0.096 7.34 2.12 13.45
12/15/2021 6:15:00 AM 2.34 36.212 0.096 7.34 2.11 13.46
12/15/2021 6:30:00 AM 2.31 36.158 0.091 7.32 3.61 13.47
12/15/2021 6:45:00 AM 2.28 36.104 0.096 7.33 2.17 13.48
12/15/2021 7:00:00 AM 2.25 36.05 0.096 7.33 2.1 13.48
12/15/2021 7:15:00 AM 2.22 35.996 0.096 7.33 2.39 13.5
12/15/2021 7:30:00 AM 2.21 35.978 0.096 7.33 2.13 13.52
12/15/2021 7:45:00 AM 2.2 35.96 0.092 7.32 3.62 13.56
12/15/2021 8:00:00 AM 2.2 35.96 0.096 7.35 2.1 13.63
12/15/2021 8:15:00 AM 2.2 35.96 0.096 7.36 2.14 13.74
12/15/2021 8:30:00 AM 2.2 35.96 0.096 7.38 2.09 13.87
12/15/2021 8:45:00 AM 2.24 36.032 0.096 7.43 2.1 14
12/15/2021 9:00:00 AM 2.28 36.104 0.095 7.44 2.09 14.16
12/15/2021 9:15:00 AM 2.32 36.176 0.095 7.48 2.14 14.31
12/15/2021 9:30:00 AM 2.38 36.284 0.095 7.51 2.02 14.48
12/15/2021 9:45:00 AM 2.43 36.374 0.095 7.55 2.14 14.58
12/15/2021 10:00:00 AM 2.47 36.446 0.095 7.59 2.24 14.73
12/15/2021 10:15:00 AM 2.55 36.59 0.095 7.63 2.03 14.86
12/15/2021 10:30:00 AM 2.61 36.698 0.094 7.68 2.08 14.96
12/15/2021 10:45:00 AM 2.68 36.824 0.094 7.73 2.2 15.04
12/15/2021 11:00:00 AM 2.77 36.986 0.09 7.75 2.64 15.11
12/15/2021 11:15:00 AM 2.83 37.094 0.094 7.82 2.05 15.17
12/15/2021 11:30:00 AM 2.92 37.256 0.094 7.86 3.21 15.2
12/15/2021 11:45:00 AM 3.01 37.418 0.093 7.93 2.12 15.24
12/15/2021 12:00:00 PM 3.1 37.58 0.093 7.97 2.12 15.24
12/15/2021 12:15:00 PM 3.22 37.796 0.093 8.04 2.19 15.25
12/15/2021 12:30:00 PM 3.35 38.03 0.093 8.08 2.15 15.26
12/15/2021 12:45:00 PM 3.44 38.192 0.093 8.15 2.14 15.26
12/15/2021 1:00:00 PM 3.54 38.372 0.092 8.21 2.15 15.25
12/15/2021 1:15:00 PM 3.61 38.498 0.092 8.23 2.11 15.2
12/15/2021 1:30:00 PM 3.69 38.642 0.093 8.24 2.12 15.14
12/15/2021 1:45:00 PM 3.76 38.768 0.092 8.25 2.15 15.06
12/15/2021 2:00:00 PM 3.82 38.876 0.092 8.23 2.09 14.95
12/15/2021 2:15:00 PM 3.9 39.02 0.092 8.2 2.11 14.85
12/15/2021 2:30:00 PM 3.96 39.128 0.092 8.2 2.12 14.77
12/15/2021 2:45:00 PM 4.02 39.236 0.092 8.14 2.14 14.66
12/15/2021 3:00:00 PM 4.07 39.326 0.092 8.11 2.07 14.53
12/15/2021 3:15:00 PM 4.11 39.398 0.092 8.04 2.19 14.39
12/15/2021 3:30:00 PM 4.16 39.488 0.092 8 2.17 14.29
12/15/2021 3:45:00 PM 4.2 39.56 0.092 7.96 2.28 14.2
12/15/2021 4:00:00 PM 4.24 39.632 0.092 7.92 2.15 14.09
12/15/2021 4:15:00 PM 4.27 39.686 0.092 7.86 2.15 13.94
12/15/2021 4:30:00 PM 4.29 39.722 0.092 7.8 2.06 13.79
12/15/2021 4:45:00 PM 4.32 39.776 0.093 7.75 2.17 13.66
12/15/2021 5:00:00 PM 4.35 39.83 0.092 7.7 2.08 13.53
12/15/2021 5:15:00 PM 4.38 39.884 0.093 7.67 2.1 13.41
12/15/2021 5:30:00 PM 4.41 39.938 0.093 7.64 2.27 13.31
12/15/2021 5:45:00 PM 4.44 39.992 0.093 7.61 2.13 13.21
12/15/2021 6:00:00 PM 4.47 40.046 0.093 7.58 2.15 13.1
12/15/2021 6:15:00 PM 4.5 40.1 0.093 7.56 2.14 13.02
12/15/2021 6:30:00 PM 4.53 40.154 0.093 7.54 2.1 12.94
12/15/2021 6:45:00 PM 4.55 40.19 0.093 7.52 2.19 12.87
12/15/2021 7:00:00 PM 4.58 40.244 0.093 7.51 2.17 12.81
12/15/2021 7:15:00 PM 4.6 40.28 0.093 7.49 2.09 12.77
12/15/2021 7:30:00 PM 4.62 40.316 0.094 7.48 2.17 12.72
12/15/2021 7:45:00 PM 4.64 40.352 0.094 7.47 2.11 12.68
12/15/2021 8:00:00 PM 4.66 40.388 0.094 7.45 2.18 12.65
12/15/2021 8:15:00 PM 4.67 40.406 0.094 7.45 2.2 12.63
12/15/2021 8:30:00 PM 4.69 40.442 0.094 7.44 2.13 12.6
12/15/2021 8:45:00 PM 4.72 40.496 0.094 7.44 2.2 12.58
12/15/2021 9:00:00 PM 4.74 40.532 0.094 7.42 2.17 12.55
12/15/2021 9:15:00 PM 4.75 40.55 0.094 7.42 2.1 12.54
12/15/2021 9:30:00 PM 4.75 40.55 0.094 7.42 2.65 12.53
12/15/2021 9:45:00 PM 4.75 40.55 0.094 7.41 2.13 12.52
12/15/2021 10:00:00 PM 4.75 40.55 0.094 7.4 2.27 12.51
12/15/2021 10:15:00 PM 4.74 40.532 0.094 7.4 2.15 12.5
12/15/2021 10:30:00 PM 4.73 40.514 0.094 7.4 2.17 12.5
12/15/2021 10:45:00 PM 4.72 40.496 0.094 7.4 2.18 12.49
12/15/2021 11:00:00 PM 4.71 40.478 0.094 7.39 2.18 12.49
12/15/2021 11:15:00 PM 4.71 40.478 0.094 7.39 2.12 12.49
12/15/2021 11:30:00 PM 4.69 40.442 0.094 7.38 2.08 12.48
12/15/2021 11:45:00 PM 4.67 40.406 0.094 7.38 2.13 12.48
12/16/2021 12:00:00 AM 4.67 40.406 0.094 7.38 2.08 12.48
12/16/2021 12:15:00 AM 4.67 40.406 0.094 7.37 2.16 12.47
12/16/2021 12:30:00 AM 4.68 40.424 0.094 7.37 2.06 12.47
12/16/2021 12:45:00 AM 4.68 40.424 0.094 7.37 2.1 12.46
12/16/2021 1:00:00 AM 4.68 40.424 0.094 7.36 2.11 12.46
12/16/2021 1:15:00 AM 4.69 40.442 0.094 7.36 2.12 12.46
12/16/2021 1:30:00 AM 4.7 40.46 0.094 7.36 2.12 12.46
12/16/2021 1:45:00 AM 4.72 40.496 0.094 7.36 2.13 12.46
12/16/2021 2:00:00 AM 4.73 40.514 0.094 7.36 2.14 12.46
12/16/2021 2:15:00 AM 4.75 40.55 0.094 7.35 2.09 12.45
12/16/2021 2:30:00 AM 4.76 40.568 0.094 7.35 2.26 12.44
12/16/2021 2:45:00 AM 4.78 40.604 0.094 7.35 2.12 12.43
12/16/2021 3:00:00 AM 4.79 40.622 0.094 7.35 2.11 12.43
12/16/2021 3:15:00 AM 4.79 40.622 0.094 7.34 2.11 12.42
12/16/2021 3:30:00 AM 4.81 40.658 0.094 7.34 2.09 12.42
12/16/2021 3:45:00 AM 4.82 40.676 0.094 7.34 2.18 12.41
12/16/2021 4:00:00 AM 4.84 40.712 0.094 7.34 2.06 12.4
12/16/2021 4:15:00 AM 4.84 40.712 0.094 7.34 2.19 12.4
12/16/2021 4:30:00 AM 4.85 40.73 0.093 7.34 2.33 12.39
12/16/2021 4:45:00 AM 4.85 40.73 0.094 7.34 2.06 12.39
12/16/2021 5:00:00 AM 4.85 40.73 0.094 7.34 2.06 12.38
12/16/2021 5:15:00 AM 4.85 40.73 0.094 7.34 2.09 12.37
12/16/2021 5:30:00 AM 4.84 40.712 0.094 7.33 2.18 12.37
12/16/2021 5:45:00 AM 4.83 40.694 0.094 7.33 2.08 12.36
12/16/2021 6:00:00 AM 4.83 40.694 0.094 7.33 2.05 12.36
12/16/2021 6:15:00 AM 4.83 40.694 0.094 7.34 2.11 12.36
12/16/2021 6:30:00 AM 4.81 40.658 0.094 7.34 2.09 12.36
12/16/2021 6:45:00 AM 4.8 40.64 0.094 7.34 2.11 12.36
12/16/2021 7:00:00 AM 4.78 40.604 0.094 7.33 2.1 12.36
12/16/2021 7:15:00 AM 4.77 40.586 0.093 7.33 2.06 12.36
12/16/2021 7:30:00 AM 4.75 40.55 0.094 7.33 2.09 12.37
12/16/2021 7:45:00 AM 4.74 40.532 0.094 7.34 2.2 12.4
12/16/2021 8:00:00 AM 4.73 40.514 0.093 7.34 2.07 12.45
12/16/2021 8:15:00 AM 4.74 40.532 0.094 7.36 2.1 12.53
12/16/2021 8:30:00 AM 4.74 40.532 0.093 7.38 2.11 12.68
12/16/2021 8:45:00 AM 4.76 40.568 0.093 7.4 2.09 12.81
12/16/2021 9:00:00 AM 4.78 40.604 0.093 7.43 2.15 12.94
12/16/2021 9:15:00 AM 4.81 40.658 0.093 7.47 2.23 13.12
12/16/2021 9:30:00 AM 4.85 40.73 0.093 7.51 2.13 13.28
12/16/2021 9:45:00 AM 4.9 40.82 0.093 7.55 2.13 13.43
12/16/2021 10:00:00 AM 4.98 40.964 0.093 7.6 2.25 13.6
12/16/2021 10:15:00 AM 5.07 41.126 0.093 7.67 2.1 13.74
12/16/2021 10:30:00 AM 5.18 41.324 0.092 7.74 2.14 13.89
12/16/2021 10:45:00 AM 5.28 41.504 0.092 7.8 2.13 14
12/16/2021 11:00:00 AM 5.38 41.684 0.092 7.87 2.18 14.08
12/16/2021 11:15:00 AM 5.51 41.918 0.091 7.95 2.22 14.18
12/16/2021 11:30:00 AM 5.65 42.17 0.091 8.06 2.14 14.26
12/16/2021 11:45:00 AM 5.76 42.368 0.091 8.16 2.19 14.3
12/16/2021 12:00:00 PM 5.83 42.494 0.091 8.24 2.21 14.32
12/16/2021 12:15:00 PM 5.86 42.548 0.091 8.26 2.19 14.25
12/16/2021 12:30:00 PM 5.94 42.692 0.091 8.29 2.15 14.19
12/16/2021 12:45:00 PM 6.07 42.926 0.09 8.39 2.5 14.19
12/16/2021 1:00:00 PM 6.22 43.196 0.09 8.45 2.18 14.17
12/16/2021 1:15:00 PM 6.37 43.466 0.09 8.52 2.26 14.17
12/16/2021 1:30:00 PM 6.52 43.736 0.09 8.58 2.26 14.15
12/16/2021 1:45:00 PM 6.62 43.916 0.09 8.63 3.02 14.13
12/16/2021 2:00:00 PM 6.71 44.078 0.09 8.66 2.16 14.09
12/16/2021 2:15:00 PM 6.76 44.168 0.09 8.69 2.25 14.07
12/16/2021 2:30:00 PM 6.79 44.222 0.09 8.69 2.17 14.02
12/16/2021 2:45:00 PM 6.79 44.222 0.09 8.69 2.1 13.96
12/16/2021 3:00:00 PM 6.83 44.294 0.09 8.71 2.31 13.9
12/16/2021 3:15:00 PM 6.88 44.384 0.09 8.7 2.19 13.81
12/16/2021 3:30:00 PM 6.94 44.492 0.089 8.65 2.13 13.65
12/16/2021 3:45:00 PM 7.01 44.618 0.089 8.56 2.21 13.44
12/16/2021 4:00:00 PM 7.06 44.708 0.089 8.44 2.12 13.24
12/16/2021 4:15:00 PM 7.09 44.762 0.089 8.35 2.14 13.06
12/16/2021 4:30:00 PM 7.12 44.816 0.089 8.24 2.3 12.88
12/16/2021 4:45:00 PM 7.14 44.852 0.09 8.12 2.13 12.71
12/16/2021 5:00:00 PM 7.15 44.87 0.09 8 2.11 12.53
12/16/2021 5:15:00 PM 7.16 44.888 0.09 7.93 2.14 12.39
12/16/2021 5:30:00 PM 7.16 44.888 0.09 7.85 2.12 12.25
12/16/2021 5:45:00 PM 7.16 44.888 0.091 7.78 2.18 12.12
12/16/2021 6:00:00 PM 7.17 44.906 0.091 7.74 2.08 12.01
12/16/2021 6:15:00 PM 7.18 44.924 0.091 7.7 2.2 11.92
12/16/2021 6:30:00 PM 7.21 44.978 0.091 7.65 2.33 11.83
12/16/2021 6:45:00 PM 7.24 45.032 0.091 7.62 2.19 11.76
12/16/2021 7:00:00 PM 7.26 45.068 0.091 7.6 2.23 11.7
12/16/2021 7:15:00 PM 7.29 45.122 0.092 7.59 2.33 11.64
12/16/2021 7:30:00 PM 7.32 45.176 0.092 7.57 2.18 11.57
12/16/2021 7:45:00 PM 7.39 45.302 0.092 7.55 2.19 11.54
12/16/2021 8:00:00 PM 7.48 45.464 0.092 7.53 2.24 11.5
12/16/2021 8:15:00 PM 7.6 45.68 0.092 7.53 2.18 11.46
12/16/2021 8:30:00 PM 7.66 45.788 0.092 7.51 2.32 11.43
12/16/2021 8:45:00 PM 7.7 45.86 0.092 7.5 2.24 11.4
12/16/2021 9:00:00 PM 7.75 45.95 0.092 7.49 2.26 11.38
12/16/2021 9:15:00 PM 7.82 46.076 0.092 7.49 2.2 11.36
12/16/2021 9:30:00 PM 7.89 46.202 0.092 7.48 2.32 11.33
12/16/2021 9:45:00 PM 7.97 46.346 0.092 7.48 2.25 11.3
12/16/2021 10:00:00 PM 8.05 46.49 0.092 7.47 2.31 11.27
12/16/2021 10:15:00 PM 8.12 46.616 0.093 7.47 2.24 11.25
12/16/2021 10:30:00 PM 8.18 46.724 0.092 7.46 2.14 11.23
12/16/2021 10:45:00 PM 8.26 46.868 0.093 7.46 2.23 11.21
12/16/2021 11:00:00 PM 8.28 46.904 0.093 7.45 2.2 11.19
12/16/2021 11:15:00 PM 8.31 46.958 0.093 7.45 2.13 11.18
12/16/2021 11:30:00 PM 8.36 47.048 0.093 7.44 2.17 11.16
12/16/2021 11:45:00 PM 8.41 47.138 0.093 7.44 2.18 11.14
12/17/2021 12:00:00 AM 8.4 47.12 0.093 7.44 2.27 11.14
12/17/2021 12:15:00 AM 8.37 47.066 0.092 7.44 2.18 11.14
12/17/2021 12:30:00 AM 8.34 47.012 0.092 7.44 2.25 11.14
12/17/2021 12:45:00 AM 8.32 46.976 0.092 7.44 2.15 11.13
12/17/2021 1:00:00 AM 8.3 46.94 0.092 7.44 2.36 11.13
12/17/2021 1:15:00 AM 8.28 46.904 0.092 7.44 2.28 11.13
12/17/2021 1:30:00 AM 8.26 46.868 0.092 7.43 2.12 11.12
12/17/2021 1:45:00 AM 8.22 46.796 0.092 7.43 2.17 11.13
12/17/2021 2:00:00 AM 8.19 46.742 0.092 7.42 2.19 11.14
12/17/2021 2:15:00 AM 8.15 46.67 0.092 7.42 2.31 11.14
12/17/2021 2:30:00 AM 8.11 46.598 0.092 7.42 2.2 11.17
12/17/2021 2:45:00 AM 8.06 46.508 0.092 7.42 2.2 11.17
12/17/2021 3:00:00 AM 8.02 46.436 0.092 7.42 2.25 11.17
12/17/2021 3:15:00 AM 7.97 46.346 0.092 7.42 2.22 11.19
12/17/2021 3:30:00 AM 7.93 46.274 0.092 7.41 2.14 11.19
12/17/2021 3:45:00 AM 7.89 46.202 0.092 7.42 2.4 11.21
12/17/2021 4:00:00 AM 7.85 46.13 0.092 7.4 2.19 11.23
12/17/2021 4:15:00 AM 7.8 46.04 0.091 7.41 2.26 11.24
12/17/2021 4:30:00 AM 7.75 45.95 0.091 7.42 2.28 11.27
12/17/2021 4:45:00 AM 7.71 45.878 0.091 7.42 2.24 11.26
12/17/2021 5:00:00 AM 7.66 45.788 0.091 7.42 2.17 11.27
12/17/2021 5:15:00 AM 7.61 45.698 0.091 7.43 2.32 11.29
12/17/2021 5:30:00 AM 7.55 45.59 0.091 7.43 2.19 11.32
12/17/2021 5:45:00 AM 7.5 45.5 0.091 7.43 2.18 11.34
12/17/2021 6:00:00 AM 7.45 45.41 0.091 7.43 2.28 11.36
12/17/2021 6:15:00 AM 7.4 45.32 0.091 7.43 2.16 11.38
12/17/2021 6:30:00 AM 7.34 45.212 0.091 7.42 2.16 11.39
12/17/2021 6:45:00 AM 7.29 45.122 0.091 7.41 2.24 11.41
12/17/2021 7:00:00 AM 7.23 45.014 0.091 7.42 2.2 11.43
12/17/2021 7:15:00 AM 7.18 44.924 0.091 7.41 2.44 11.46
12/17/2021 7:30:00 AM 7.13 44.834 0.091 7.42 2.3 11.46
12/17/2021 7:45:00 AM 7.07 44.726 0.091 7.42 2.33 11.52
12/17/2021 8:00:00 AM 7.02 44.636 0.091 7.42 2.25 11.57
12/17/2021 8:15:00 AM 6.98 44.564 0.091 7.44 2.28 11.65
12/17/2021 8:30:00 AM 6.93 44.474 0.091 7.45 2.24 11.73
12/17/2021 8:45:00 AM 6.88 44.384 0.091 7.45 2.21 11.83
12/17/2021 9:00:00 AM 6.84 44.312 0.091 7.49 2.3 11.99
12/17/2021 9:15:00 AM 6.83 44.294 0.091 7.52 2.24 12.19
12/17/2021 9:30:00 AM 6.82 44.276 0.091 7.56 2.45 12.39
12/17/2021 9:45:00 AM 6.82 44.276 0.09 7.61 2.43 12.59
12/17/2021 10:00:00 AM 6.81 44.258 0.09 7.66 2.29 12.79
12/17/2021 10:15:00 AM 6.81 44.258 0.09 7.72 2.35 12.98
12/17/2021 10:30:00 AM 6.81 44.258 0.09 7.78 2.24 13.16
12/17/2021 10:45:00 AM 6.82 44.276 0.09 7.86 10.88 13.3
12/17/2021 11:00:00 AM 6.85 44.33 0.09 7.95 2.25 13.46
12/17/2021 11:15:00 AM 6.89 44.402 0.089 8.03 2.17 13.59
12/17/2021 11:30:00 AM 6.93 44.474 0.089 8.13 3.94 13.71
12/17/2021 11:45:00 AM 6.98 44.564 0.089 8.22 2.21 13.77
12/17/2021 12:00:00 PM 7.01 44.618 0.089 8.33 2.34 13.84
12/17/2021 12:15:00 PM 7.05 44.69 0.088 8.43 7.2 13.89
12/17/2021 12:30:00 PM 7.08 44.744 0.088 8.46 2.31 13.91
12/17/2021 12:45:00 PM 7.11 44.798 0.088 8.55 2.4 13.91
12/17/2021 1:00:00 PM 7.17 44.906 0.088 8.64 2.65 13.95
12/17/2021 1:15:00 PM 7.24 45.032 0.088 8.68 7.59 13.95
12/17/2021 1:30:00 PM 7.25 45.05 0.088 8.72 2.33 13.95
12/17/2021 1:45:00 PM 7.25 45.05 0.088 8.78 2.51 13.93
12/17/2021 2:00:00 PM 7.24 45.032 0.088 8.78 7.11 13.89
12/17/2021 2:15:00 PM 7.23 45.014 0.088 8.8 2.34 13.84
12/17/2021 2:30:00 PM 7.24 45.032 0.088 8.83 2.29 13.83
12/17/2021 2:45:00 PM 7.24 45.032 0.087 8.84 5.51 13.8
12/17/2021 3:00:00 PM 7.23 45.014 0.087 8.86 15.31 13.78
12/17/2021 3:15:00 PM 7.21 44.978 0.087 8.86 2.31 13.73
12/17/2021 3:30:00 PM 7.19 44.942 0.087 8.83 12.55 13.65
12/17/2021 3:45:00 PM 7.18 44.924 0.087 8.8 4.64 13.55
12/17/2021 4:00:00 PM 7.16 44.888 0.087 8.75 2.21 13.44
12/17/2021 4:15:00 PM 7.13 44.834 0.087 8.68 2.27 13.31
12/17/2021 4:30:00 PM 7.1 44.78 0.087 8.59 2.24 13.16
12/17/2021 4:45:00 PM 7.06 44.708 0.087 8.43 2.35 12.98
12/17/2021 5:00:00 PM 7.03 44.654 0.087 8.3 2.23 12.81
12/17/2021 5:15:00 PM 7 44.6 0.087 8.17 2.3 12.66
12/17/2021 5:30:00 PM 6.97 44.546 0.088 8.07 2.29 12.53
12/17/2021 5:45:00 PM 6.93 44.474 0.088 7.98 2.3 12.4
12/17/2021 6:00:00 PM 6.89 44.402 0.088 7.89 2.3 12.3
12/17/2021 6:15:00 PM 6.85 44.33 0.088 7.83 2.34 12.2
12/17/2021 6:30:00 PM 6.81 44.258 0.089 7.78 2.24 12.12
12/17/2021 6:45:00 PM 6.76 44.168 0.089 7.73 2.26 12.05
12/17/2021 7:00:00 PM 6.7 44.06 0.089 7.69 2.22 11.99
12/17/2021 7:15:00 PM 6.64 43.952 0.089 7.67 2.28 11.94
12/17/2021 7:30:00 PM 6.6 43.88 0.089 7.63 2.31 11.91
12/17/2021 7:45:00 PM 6.54 43.772 0.089 7.61 2.33 11.88
12/17/2021 8:00:00 PM 6.5 43.7 0.089 7.59 2.23 11.86
12/17/2021 8:15:00 PM 6.46 43.628 0.089 7.58 2.22 11.86
12/17/2021 8:30:00 PM 6.42 43.556 0.089 7.54 2.38 11.85
12/17/2021 8:45:00 PM 6.39 43.502 0.09 7.53 2.31 11.85
12/17/2021 9:00:00 PM 6.35 43.43 0.089 7.51 2.17 11.84
12/17/2021 9:15:00 PM 6.31 43.358 0.09 7.51 2.17 11.85
12/17/2021 9:30:00 PM 6.28 43.304 0.09 7.51 2.25 11.86
12/17/2021 9:45:00 PM 6.25 43.25 0.09 7.49 2.24 11.87
12/17/2021 10:00:00 PM 6.23 43.214 0.09 7.48 2.24 11.86
12/17/2021 10:15:00 PM 6.2 43.16 0.09 7.47 2.3 11.88
12/17/2021 10:30:00 PM 6.18 43.124 0.09 7.46 2.22 11.88
12/17/2021 10:45:00 PM 6.16 43.088 0.09 7.46 2.19 11.89
12/17/2021 11:00:00 PM 6.14 43.052 0.09 7.45 2.15 11.9
12/17/2021 11:15:00 PM 6.12 43.016 0.09 7.45 2.3 11.9
12/17/2021 11:30:00 PM 6.1 42.98 0.09 7.44 2.18 11.91
12/17/2021 11:45:00 PM 6.08 42.944 0.09 7.44 2.42 11.92
12/18/2021 12:00:00 AM 6.06 42.908 0.09 7.43 2.2 11.92
12/18/2021 12:15:00 AM 6.04 42.872 0.09 7.42 2.38 11.94
12/18/2021 12:30:00 AM 6.02 42.836 0.09 7.42 2.24 11.92
12/18/2021 12:45:00 AM 6.01 42.818 0.09 7.42 2.2 11.94
12/18/2021 1:00:00 AM 5.99 42.782 0.09 7.42 2.29 11.95
12/18/2021 1:15:00 AM 5.97 42.746 0.09 7.41 2.22 11.96
12/18/2021 1:30:00 AM 5.96 42.728 0.09 7.41 2.27 11.96
12/18/2021 1:45:00 AM 5.94 42.692 0.09 7.4 2.18 11.96
12/18/2021 2:00:00 AM 5.92 42.656 0.09 7.41 2.39 11.98
12/18/2021 2:15:00 AM 5.91 42.638 0.09 7.4 2.21 11.97
12/18/2021 2:30:00 AM 5.89 42.602 0.09 7.4 2.21 11.99
12/18/2021 2:45:00 AM 5.88 42.584 0.09 7.4 2.23 11.99
12/18/2021 3:00:00 AM 5.87 42.566 0.09 7.39 2.23 11.99
12/18/2021 3:15:00 AM 5.87 42.566 0.089 7.4 2.25 12
12/18/2021 3:30:00 AM 5.86 42.548 0.09 7.39 2.2 11.99
12/18/2021 3:45:00 AM 5.85 42.53 0.09 7.39 2.21 12
12/18/2021 4:00:00 AM 5.85 42.53 0.09 7.39 2.24 11.99
12/18/2021 4:15:00 AM 5.84 42.512 0.089 7.38 2.23 12.01
12/18/2021 4:30:00 AM 5.82 42.476 0.089 7.38 2.19 12.01
12/18/2021 4:45:00 AM 5.82 42.476 0.09 7.38 2.21 12
12/18/2021 5:00:00 AM 5.81 42.458 0.09 7.38 2.19 12.01
12/18/2021 5:15:00 AM 5.8 42.44 0.09 7.38 2.16 12.01
12/18/2021 5:30:00 AM 5.79 42.422 0.089 7.39 2.19 12.01
12/18/2021 5:45:00 AM 5.79 42.422 0.09 7.38 2.13 12.02
12/18/2021 6:00:00 AM 5.78 42.404 0.09 7.38 2.21 12.01
12/18/2021 6:15:00 AM 5.77 42.386 0.089 7.37 2.17 11.98
12/18/2021 6:30:00 AM 5.76 42.368 0.09 7.38 2.16 12
12/18/2021 6:45:00 AM 5.75 42.35 0.09 7.37 2.29 12.02
12/18/2021 7:00:00 AM 5.75 42.35 0.089 7.38 2.2 12.02
12/18/2021 7:15:00 AM 5.74 42.332 0.089 7.38 2.14 12.03
12/18/2021 7:30:00 AM 5.72 42.296 0.089 7.37 2.21 12.02
12/18/2021 7:45:00 AM 5.72 42.296 0.089 7.37 5.44 12.02
12/18/2021 8:00:00 AM 5.7 42.26 0.089 7.38 2.46 12.05
12/18/2021 8:15:00 AM 5.69 42.242 0.089 7.38 2.38 12.07
12/18/2021 8:30:00 AM 5.69 42.242 0.089 7.38 2.21 12.09
12/18/2021 8:45:00 AM 5.67 42.206 0.089 7.39 2.36 12.14
12/18/2021 9:00:00 AM 5.66 42.188 0.089 7.39 2.14 12.23
12/18/2021 9:15:00 AM 5.66 42.188 0.089 7.41 2.17 12.28
12/18/2021 9:30:00 AM 5.65 42.17 0.089 7.44 2.33 12.39
12/18/2021 9:45:00 AM 5.66 42.188 0.089 7.46 2.1 12.47
12/18/2021 10:00:00 AM 5.66 42.188 0.089 7.48 2.23 12.59
12/18/2021 10:15:00 AM 5.66 42.188 0.089 7.49 2.36 12.64
12/18/2021 10:30:00 AM 5.66 42.188 0.089 7.51 2.28 12.7
12/18/2021 10:45:00 AM 5.67 42.206 0.089 7.53 2.36 12.8
12/18/2021 11:00:00 AM 5.67 42.206 0.089 7.55 2.45 12.86
12/18/2021 11:15:00 AM 5.67 42.206 0.089 7.55 2.64 12.86
12/18/2021 11:30:00 AM 5.67 42.206 0.089 7.57 2.71 12.87
12/18/2021 11:45:00 AM 5.67 42.206 0.089 7.57 2.7 12.89
12/18/2021 12:00:00 PM 5.66 42.188 0.089 7.58 2.53 12.85
12/18/2021 12:15:00 PM 5.67 42.206 0.089 7.59 2.81 12.9
12/18/2021 12:30:00 PM 5.68 42.224 0.089 7.6 2.67 12.92
12/18/2021 12:45:00 PM 5.68 42.224 0.09 7.61 2.79 12.89
12/18/2021 1:00:00 PM 5.68 42.224 0.09 7.61 2.7 12.9
12/18/2021 1:15:00 PM 5.69 42.242 0.09 7.62 2.74 12.89
12/18/2021 1:30:00 PM 5.69 42.242 0.09 7.62 2.85 12.87
12/18/2021 1:45:00 PM 5.7 42.26 0.09 7.63 2.7 12.9
12/18/2021 2:00:00 PM 5.71 42.278 0.09 7.63 2.84 12.91
12/18/2021 2:15:00 PM 5.71 42.278 0.09 7.62 2.84 12.85
12/18/2021 2:30:00 PM 5.71 42.278 0.09 7.61 3.24 12.79
12/18/2021 2:45:00 PM 5.72 42.296 0.09 7.62 3.27 12.78
12/18/2021 3:00:00 PM 5.72 42.296 0.09 7.61 3.07 12.73
12/18/2021 3:15:00 PM 5.72 42.296 0.09 7.6 3.43 12.67
12/18/2021 3:30:00 PM 5.73 42.314 0.09 7.58 3.78 12.62
12/18/2021 3:45:00 PM 5.73 42.314 0.091 7.57 3.27 12.57
12/18/2021 4:00:00 PM 5.73 42.314 0.092 7.56 3.85 12.52
12/18/2021 4:15:00 PM 5.73 42.314 0.091 7.56 3.88 12.48
12/18/2021 4:30:00 PM 5.73 42.314 0.092 7.54 14.98 12.42
12/18/2021 4:45:00 PM 5.73 42.314 0.093 7.52 4.18 12.35
12/18/2021 5:00:00 PM 5.73 42.314 0.093 7.51 5.1 12.31
12/18/2021 5:15:00 PM 5.73 42.314 0.094 7.5 4.91 12.27
12/18/2021 5:30:00 PM 5.73 42.314 0.094 7.5 5.49 12.23
12/18/2021 5:45:00 PM 5.73 42.314 0.095 7.48 10.13 12.18
12/18/2021 6:00:00 PM 5.74 42.332 0.096 7.47 6.59 12.15
12/18/2021 6:15:00 PM 5.74 42.332 0.097 7.47 6.39 12.12
12/18/2021 6:30:00 PM 5.74 42.332 0.097 7.47 6.11 12.11
12/18/2021 6:45:00 PM 5.75 42.35 0.097 7.46 7.85 12.08
12/18/2021 7:00:00 PM 5.75 42.35 0.099 7.45 7.87 12.07
12/18/2021 7:15:00 PM 5.75 42.35 0.101 7.45 8.73 12.05
12/18/2021 7:30:00 PM 5.75 42.35 0.1 7.48 9.99 12.03
12/18/2021 7:45:00 PM 5.76 42.368 0.101 7.44 14.47 12.03
12/18/2021 8:00:00 PM 5.77 42.386 0.102 7.44 11.4 12.01
12/18/2021 8:15:00 PM 5.78 42.404 0.103 7.44 12.51 12
12/18/2021 8:30:00 PM 5.78 42.404 0.103 7.44 11.73 11.99
12/18/2021 8:45:00 PM 5.79 42.422 0.103 7.43 17.16 11.98
12/18/2021 9:00:00 PM 5.8 42.44 0.102 7.43 13.88 11.98
12/18/2021 9:15:00 PM 5.8 42.44 0.103 7.43 14.51 11.97
12/18/2021 9:30:00 PM 5.8 42.44 0.102 7.43 14.31 11.97
12/18/2021 9:45:00 PM 5.8 42.44 0.102 7.42 18.71 11.98
12/18/2021 10:00:00 PM 5.81 42.458 0.102 7.42 15.12 11.97
12/18/2021 10:15:00 PM 5.82 42.476 0.102 7.43 14 11.97
12/18/2021 10:30:00 PM 5.83 42.494 0.102 7.42 32.14 11.96
12/18/2021 10:45:00 PM 5.84 42.512 0.102 7.42 12.49 11.97
12/18/2021 11:00:00 PM 5.85 42.53 0.102 7.42 15.62 11.96
12/18/2021 11:15:00 PM 5.85 42.53 0.101 7.41 13.64 11.97
12/18/2021 11:30:00 PM 5.86 42.548 0.1 7.42 13.47 11.97
12/18/2021 11:45:00 PM 5.87 42.566 0.1 7.41 19.3 11.98
12/19/2021 12:00:00 AM 5.88 42.584 0.1 7.42 86.23 11.98
12/19/2021 12:15:00 AM 5.89 42.602 0.101 7.41 15.95 11.97
12/19/2021 12:30:00 AM 5.9 42.62 0.099 7.45 13.88 11.97
12/19/2021 12:45:00 AM 5.91 42.638 0.1 7.41 678.88 11.97
12/19/2021 1:00:00 AM 5.92 42.656 0.1 7.42 14.68 11.97
12/19/2021 1:15:00 AM 5.92 42.656 0.099 7.41 22.89 11.98
12/19/2021 1:30:00 AM 5.92 42.656 0.099 7.41 15.31 11.98
12/19/2021 1:45:00 AM 5.92 42.656 0.099 7.42 19.34 11.99
12/19/2021 2:00:00 AM 5.92 42.656 0.099 7.42 64.48 11.99
12/19/2021 2:15:00 AM 5.92 42.656 0.098 7.41 12.48 12
12/19/2021 2:30:00 AM 5.92 42.656 0.098 7.41 12.73 12
12/19/2021 2:45:00 AM 5.91 42.638 0.098 7.42 12.83 12.01
12/19/2021 3:00:00 AM 5.9 42.62 0.098 7.41 11.68 12.02
12/19/2021 3:15:00 AM 5.88 42.584 0.098 7.41 13.44 12.02
12/19/2021 3:30:00 AM 5.86 42.548 0.098 7.41 13.07 12.03
12/19/2021 3:45:00 AM 5.83 42.494 0.098 7.41 12.79 12.03
12/19/2021 4:00:00 AM 5.8 42.44 0.097 7.41 11.56 12.06
12/19/2021 4:15:00 AM 5.78 42.404 0.098 7.41 11.21 12.06
12/19/2021 4:30:00 AM 5.74 42.332 0.097 7.41 11.02 12.08
12/19/2021 4:45:00 AM 5.7 42.26 0.097 7.42 13.2 12.09
12/19/2021 5:00:00 AM 5.66 42.188 0.097 7.41 9.35 12.1
12/19/2021 5:15:00 AM 5.63 42.134 0.098 7.41 10.73 12.12
12/19/2021 5:30:00 AM 5.59 42.062 0.098 7.41 9.68 12.13
12/19/2021 5:45:00 AM 5.57 42.026 0.098 7.41 9.53 12.14
12/19/2021 6:00:00 AM 5.53 41.954 0.098 7.4 9.35 12.16
12/19/2021 6:15:00 AM 5.49 41.882 0.098 7.41 9.11 12.17
12/19/2021 6:30:00 AM 5.47 41.846 0.098 7.4 8.82 12.18
12/19/2021 6:45:00 AM 5.44 41.792 0.098 7.41 8.87 12.2
12/19/2021 7:00:00 AM 5.41 41.738 0.099 7.4 12.73 12.2
12/19/2021 7:15:00 AM 5.38 41.684 0.098 7.42 7.94 12.24
12/19/2021 7:30:00 AM 5.35 41.63 0.098 7.41 7.68 12.24
12/19/2021 7:45:00 AM 5.33 41.594 0.099 7.41 8.7 12.26
12/19/2021 8:00:00 AM 5.31 41.558 0.099 7.41 7.89 12.27
12/19/2021 8:15:00 AM 5.29 41.522 0.099 7.42 7.51 12.3
12/19/2021 8:30:00 AM 5.27 41.486 0.1 7.41 7.52 12.31
12/19/2021 8:45:00 AM 5.25 41.45 0.1 7.42 7.33 12.33
12/19/2021 9:00:00 AM 5.23 41.414 0.1 7.43 7.94 12.4
12/19/2021 9:15:00 AM 5.22 41.396 0.1 7.44 7.1 12.47
12/19/2021 9:30:00 AM 5.21 41.378 0.1 7.45 7.92 12.52
12/19/2021 9:45:00 AM 5.2 41.36 0.1 7.46 6.97 12.6
12/19/2021 10:00:00 AM 5.19 41.342 0.1 7.48 7.62 12.69
12/19/2021 10:15:00 AM 5.19 41.342 0.1 7.49 7.16 12.75
12/19/2021 10:30:00 AM 5.2 41.36 0.1 7.51 6.88 12.85
12/19/2021 10:45:00 AM 5.21 41.378 0.1 7.53 7.41 12.97
12/19/2021 11:00:00 AM 5.24 41.432 0.1 7.56 6.8 13.07
12/19/2021 11:15:00 AM 5.4 41.72 0.1 7.59 7.24 13.22
12/19/2021 11:30:00 AM 5.43 41.774 0.1 7.62 6.87 13.32
12/19/2021 11:45:00 AM 5.54 41.972 0.099 7.67 6.48 13.45
12/19/2021 12:00:00 PM 5.6 42.08 0.099 7.72 7.07 13.54
12/19/2021 12:15:00 PM 5.68 42.224 0.099 7.75 6.45 13.6
12/19/2021 12:30:00 PM 5.78 42.404 0.099 7.79 6.48 13.65
12/19/2021 12:45:00 PM 5.83 42.494 0.099 7.81 7.66 13.67
12/19/2021 1:00:00 PM 5.88 42.584 0.098 7.83 6.72 13.69
12/19/2021 1:15:00 PM 5.92 42.656 0.098 7.85 6.81 13.67
12/19/2021 1:30:00 PM 5.97 42.746 0.098 7.88 6.38 13.69
12/19/2021 1:45:00 PM 5.97 42.746 0.098 7.9 6.23 13.68
12/19/2021 2:00:00 PM 5.91 42.638 0.098 7.9 5.95 13.65
12/19/2021 2:15:00 PM 5.92 42.656 0.098 7.9 6.29 13.62
12/19/2021 2:30:00 PM 5.84 42.512 0.097 7.89 6.12 13.55
12/19/2021 2:45:00 PM 5.8 42.44 0.098 7.86 6.64 13.51
12/19/2021 3:00:00 PM 5.77 42.386 0.098 7.85 5.71 13.48
12/19/2021 3:15:00 PM 5.71 42.278 0.098 7.84 5.86 13.44
12/19/2021 3:30:00 PM 5.63 42.134 0.098 7.8 5.73 13.38
12/19/2021 3:45:00 PM 5.57 42.026 0.098 7.79 5.76 13.33
12/19/2021 4:00:00 PM 5.5 41.9 0.098 7.76 5.67 13.25
12/19/2021 4:15:00 PM 5.43 41.774 0.098 7.72 6.03 13.13
12/19/2021 4:30:00 PM 5.37 41.666 0.098 7.68 5.97 13.06
12/19/2021 4:45:00 PM 5.31 41.558 0.098 7.65 6.59 12.96
12/19/2021 5:00:00 PM 5.24 41.432 0.098 7.62 5.86 12.89
12/19/2021 5:15:00 PM 5.18 41.324 0.098 7.59 5.81 12.8
12/19/2021 5:30:00 PM 5.11 41.198 0.098 7.56 5.84 12.74
12/19/2021 5:45:00 PM 5.05 41.09 0.098 7.54 6.68 12.69
12/19/2021 6:00:00 PM 4.99 40.982 0.098 7.52 5.97 12.65
12/19/2021 6:15:00 PM 4.92 40.856 0.098 7.5 5.57 12.61
12/19/2021 6:30:00 PM 4.87 40.766 0.098 7.49 5.3 12.6
12/19/2021 6:45:00 PM 4.8 40.64 0.098 7.47 7.49 12.59
12/19/2021 7:00:00 PM 4.74 40.532 0.098 7.47 5.31 12.59
12/19/2021 7:15:00 PM 4.68 40.424 0.096 7.44 6.96 12.58
12/19/2021 7:30:00 PM 4.62 40.316 0.098 7.45 5.47 12.59
12/19/2021 7:45:00 PM 4.57 40.226 0.098 7.44 5.43 12.59
12/19/2021 8:00:00 PM 4.52 40.136 0.098 7.43 6.99 12.6
12/19/2021 8:15:00 PM 4.46 40.028 0.098 7.46 5.1 12.58
12/19/2021 8:30:00 PM 4.41 39.938 0.098 7.42 5.42 12.63
12/19/2021 8:45:00 PM 4.36 39.848 0.093 7.4 8.41 12.63
12/19/2021 9:00:00 PM 4.3 39.74 0.098 7.41 6.1 12.65
12/19/2021 9:15:00 PM 4.25 39.65 0.098 7.41 5.06 12.68
12/19/2021 9:30:00 PM 4.19 39.542 0.097 7.41 7.14 12.7
12/19/2021 9:45:00 PM 4.13 39.434 0.097 7.4 5.51 12.71
12/19/2021 10:00:00 PM 4.08 39.344 0.097 7.4 5.2 12.73
12/19/2021 10:15:00 PM 4.02 39.236 0.097 7.4 5.18 12.76
12/19/2021 10:30:00 PM 3.95 39.11 0.097 7.4 5.41 12.77
12/19/2021 10:45:00 PM 3.89 39.002 0.097 7.39 11.11 12.8
12/19/2021 11:00:00 PM 3.83 38.894 0.097 7.39 5.03 12.82
12/19/2021 11:15:00 PM 3.76 38.768 0.097 7.39 4.73 12.84
12/19/2021 11:30:00 PM 3.7 38.66 0.096 7.39 5.17 12.86
12/19/2021 11:45:00 PM 3.64 38.552 0.097 7.39 4.93 12.9
12/20/2021 12:00:00 AM 3.59 38.462 0.096 7.39 4.78 12.91
12/20/2021 12:15:00 AM 3.53 38.354 0.096 7.39 5.07 12.94
12/20/2021 12:30:00 AM 3.47 38.246 0.096 7.38 5.04 12.97
12/20/2021 12:45:00 AM 3.41 38.138 0.096 7.37 4.48 12.99
12/20/2021 1:00:00 AM 3.36 38.048 0.096 7.37 5.97 13
12/20/2021 1:15:00 AM 3.3 37.94 0.096 7.36 55.87 13.02
12/20/2021 1:30:00 AM 3.25 37.85 0.096 7.36 4.73 13.05
12/20/2021 1:45:00 AM 3.2 37.76 0.096 7.36 4.51 13.07
12/20/2021 2:00:00 AM 3.15 37.67 0.095 7.36 4.52 13.09
12/20/2021 2:15:00 AM 3.1 37.58 0.096 7.37 4.49 13.1
12/20/2021 2:30:00 AM 3.04 37.472 0.095 7.36 4.5 13.13
12/20/2021 2:45:00 AM 2.99 37.382 0.091 7.34 5.19 13.15
12/20/2021 3:00:00 AM 2.94 37.292 0.095 7.35 4.72 13.16
12/20/2021 3:15:00 AM 2.89 37.202 0.095 7.35 4.44 13.18
12/20/2021 3:30:00 AM 2.84 37.112 0.091 7.34 5.62 13.2
12/20/2021 3:45:00 AM 2.79 37.022 0.091 7.34 4.81 13.23
12/20/2021 4:00:00 AM 2.74 36.932 0.095 7.35 4.04 13.25
12/20/2021 4:15:00 AM 2.69 36.842 0.095 7.35 4.41 13.27
12/20/2021 4:30:00 AM 2.64 36.752 0.095 7.36 4.05 13.29
12/20/2021 4:45:00 AM 2.6 36.68 0.095 7.35 3.8 13.31
12/20/2021 5:00:00 AM 2.56 36.608 0.095 7.35 4.05 13.33
12/20/2021 5:15:00 AM 2.51 36.518 0.095 7.35 4.24 13.35
12/20/2021 5:30:00 AM 2.46 36.428 0.094 7.35 4.16 13.38
12/20/2021 5:45:00 AM 2.41 36.338 0.095 7.36 4.39 13.39
12/20/2021 6:00:00 AM 2.36 36.248 0.091 7.34 4.84 13.42
12/20/2021 6:15:00 AM 2.31 36.158 0.095 7.35 4.11 13.42
12/20/2021 6:30:00 AM 2.27 36.086 0.095 7.36 3.66 13.45
12/20/2021 6:45:00 AM 2.22 35.996 0.092 7.34 4.45 13.47
12/20/2021 7:00:00 AM 2.17 35.906 0.095 7.36 3.93 13.49
12/20/2021 7:15:00 AM 2.13 35.834 0.095 7.35 3.98 13.51
12/20/2021 7:30:00 AM 2.1 35.78 0.094 7.36 4.41 13.53
12/20/2021 7:45:00 AM 2.07 35.726 0.094 7.35 4.85 13.56
12/20/2021 8:00:00 AM 2.04 35.672 0.094 7.37 4.12 13.61
12/20/2021 8:15:00 AM 2.01 35.618 0.094 7.37 4.21 13.69
12/20/2021 8:30:00 AM 1.98 35.564 0.094 7.39 3.96 13.78
12/20/2021 8:45:00 AM 1.97 35.546 0.089 7.39 5.37 13.89
12/20/2021 9:00:00 AM 1.96 35.528 0.094 7.42 3.75 13.98
12/20/2021 9:15:00 AM 1.97 35.546 0.093 7.44 3.57 14.08
12/20/2021 9:30:00 AM 2 35.6 0.089 7.46 5.46 14.21
12/20/2021 9:45:00 AM 2.03 35.654 0.088 7.48 5.26 14.3
12/20/2021 10:00:00 AM 2.08 35.744 0.093 7.52 3.77 14.4
12/20/2021 10:15:00 AM 2.12 35.816 0.088 7.53 5.1 14.47
12/20/2021 10:30:00 AM 2.18 35.924 0.092 7.57 3.66 14.56
12/20/2021 10:45:00 AM 2.25 36.05 0.092 7.6 3.46 14.62
12/20/2021 11:00:00 AM 2.34 36.212 0.088 7.6 5.27 14.68
12/20/2021 11:15:00 AM 2.42 36.356 0.092 7.65 3.46 14.72
12/20/2021 11:30:00 AM 2.51 36.518 0.089 7.66 5.21 14.75
12/20/2021 11:45:00 AM 2.59 36.662 0.092 7.69 3.43 14.77
12/20/2021 12:00:00 PM 2.68 36.824 0.092 7.71 3.39 14.79
12/20/2021 12:15:00 PM 2.77 36.986 0.091 7.72 3.39 14.79
12/20/2021 12:30:00 PM 2.85 37.13 0.091 7.74 3.4 14.78
12/20/2021 12:45:00 PM 2.93 37.274 0.091 7.75 3.42 14.76
12/20/2021 1:00:00 PM 2.99 37.382 0.091 7.77 3.54 14.76
12/20/2021 1:15:00 PM 3.05 37.49 0.091 7.77 3.4 14.74
12/20/2021 1:30:00 PM 3.1 37.58 0.091 7.79 3.42 14.72
12/20/2021 1:45:00 PM 3.15 37.67 0.091 7.78 3.45 14.68
12/20/2021 2:00:00 PM 3.2 37.76 0.091 7.79 3.38 14.65
12/20/2021 2:15:00 PM 3.24 37.832 0.091 7.79 3.43 14.61
12/20/2021 2:30:00 PM 3.26 37.868 0.091 7.79 3.42 14.57
12/20/2021 2:45:00 PM 3.28 37.904 0.091 7.79 3.23 14.52
12/20/2021 3:00:00 PM 3.29 37.922 0.09 7.78 3.39 14.48
12/20/2021 3:15:00 PM 3.29 37.922 0.091 7.77 3.23 14.42
12/20/2021 3:30:00 PM 3.27 37.886 0.091 7.75 3.48 14.36
12/20/2021 3:45:00 PM 3.24 37.832 0.091 7.74 3.35 14.27
12/20/2021 4:00:00 PM 3.2 37.76 0.09 7.71 3.51 14.19
12/20/2021 4:15:00 PM 3.18 37.724 0.09 7.69 3.29 14.09
12/20/2021 4:30:00 PM 3.15 37.67 0.091 7.65 3.32 13.99
12/20/2021 4:45:00 PM 3.12 37.616 0.091 7.62 3.46 13.89
12/20/2021 5:00:00 PM 3.09 37.562 0.091 7.59 4.22 13.78
12/20/2021 5:15:00 PM 3.06 37.508 0.091 7.56 3.37 13.69
12/20/2021 5:30:00 PM 3.03 37.454 0.091 7.53 3.65 13.6
12/20/2021 5:45:00 PM 3 37.4 0.091 7.51 3.25 13.52
12/20/2021 6:00:00 PM 2.97 37.346 0.091 7.49 3.35 13.47
12/20/2021 6:15:00 PM 2.94 37.292 0.091 7.51 3.78 13.41
12/20/2021 6:30:00 PM 2.92 37.256 0.091 7.46 3.33 13.38
12/20/2021 6:45:00 PM 2.89 37.202 0.091 7.44 3.42 13.35
12/20/2021 7:00:00 PM 2.87 37.166 0.091 7.43 3.32 13.32
12/20/2021 7:15:00 PM 2.84 37.112 0.091 7.42 3.5 13.31
12/20/2021 7:30:00 PM 2.82 37.076 0.091 7.41 3.49 13.29
12/20/2021 7:45:00 PM 2.79 37.022 0.091 7.4 3.33 13.29
12/20/2021 8:00:00 PM 2.77 36.986 0.091 7.4 3.34 13.28
12/20/2021 8:15:00 PM 2.75 36.95 0.091 7.39 3.67 13.27
12/20/2021 8:30:00 PM 2.72 36.896 0.091 7.39 3.48 13.28
12/20/2021 8:45:00 PM 2.7 36.86 0.09 7.38 3.45 13.28
12/20/2021 9:00:00 PM 2.67 36.806 0.09 7.37 4.03 13.29
12/20/2021 9:15:00 PM 2.65 36.77 0.09 7.37 3.53 13.29
12/20/2021 9:30:00 PM 2.63 36.734 0.091 7.36 3.36 13.3
12/20/2021 9:45:00 PM 2.6 36.68 0.09 7.37 3.26 13.3
12/20/2021 10:00:00 PM 2.57 36.626 0.09 7.37 3.4 13.31
12/20/2021 10:15:00 PM 2.54 36.572 0.09 7.36 3.2 13.32
12/20/2021 10:30:00 PM 2.51 36.518 0.09 7.36 3.69 13.31
12/20/2021 10:45:00 PM 2.49 36.482 0.087 7.34 3.83 13.33
12/20/2021 11:00:00 PM 2.46 36.428 0.09 7.35 3.34 13.34
12/20/2021 11:15:00 PM 2.43 36.374 0.09 7.35 3.43 13.34
12/20/2021 11:30:00 PM 2.4 36.32 0.09 7.35 3.2 13.36
12/20/2021 11:45:00 PM 2.37 36.266 0.086 7.33 4.78 13.37
12/21/2021 12:00:00 AM 2.34 36.212 0.086 7.33 4.67 13.38
12/21/2021 12:15:00 AM 2.31 36.158 0.09 7.35 3.25 13.39
12/21/2021 12:30:00 AM 2.29 36.122 0.09 7.35 3.26 13.39
12/21/2021 12:45:00 AM 2.26 36.068 0.09 7.34 3.24 13.4
12/21/2021 1:00:00 AM 2.22 35.996 0.09 7.34 3.31 13.41
12/21/2021 1:15:00 AM 2.2 35.96 0.089 7.34 3.35 13.43
12/21/2021 1:30:00 AM 2.17 35.906 0.09 7.34 3.2 13.43
12/21/2021 1:45:00 AM 2.14 35.852 0.089 7.34 3.33 13.44
12/21/2021 2:00:00 AM 2.12 35.816 0.085 7.32 4.61 13.45
12/21/2021 2:15:00 AM 2.09 35.762 0.089 7.34 3.2 13.47
12/21/2021 2:30:00 AM 2.06 35.708 0.09 7.32 3.18 13.47
12/21/2021 2:45:00 AM 2.03 35.654 0.089 7.33 3.27 13.49
12/21/2021 3:00:00 AM 2 35.6 0.085 7.31 4.64 13.5
12/21/2021 3:15:00 AM 1.97 35.546 0.089 7.33 3.16 13.51
12/21/2021 3:30:00 AM 1.95 35.51 0.086 7.32 3.64 13.51
12/21/2021 3:45:00 AM 1.92 35.456 0.089 7.33 3.1 13.53
12/21/2021 4:00:00 AM 1.89 35.402 0.089 7.33 3.02 13.54
12/21/2021 4:15:00 AM 1.86 35.348 0.089 7.33 3.16 13.55
12/21/2021 4:30:00 AM 1.84 35.312 0.085 7.31 4.75 13.56
12/21/2021 4:45:00 AM 1.81 35.258 0.085 7.31 4.72 13.57
12/21/2021 5:00:00 AM 1.79 35.222 0.085 7.31 4.72 13.58
12/21/2021 5:15:00 AM 1.76 35.168 0.089 7.33 3.32 13.59
12/21/2021 5:30:00 AM 1.73 35.114 0.089 7.32 3.02 13.6
12/21/2021 5:45:00 AM 1.71 35.078 0.086 7.31 3.7 13.61
12/21/2021 6:00:00 AM 1.68 35.024 0.089 7.32 3.09 13.62
12/21/2021 6:15:00 AM 1.66 34.988 0.085 7.31 3.92 13.63
12/21/2021 6:30:00 AM 1.65 34.97 0.089 7.32 3.02 13.65
12/21/2021 6:45:00 AM 1.63 34.934 0.089 7.32 3.14 13.65
12/21/2021 7:00:00 AM 1.61 34.898 0.084 7.31 5.46 13.67
12/21/2021 7:15:00 AM 1.6 34.88 0.085 7.31 3.77 13.68
12/21/2021 7:30:00 AM 1.58 34.844 0.084 7.31 4.5 13.69
12/21/2021 7:45:00 AM 1.57 34.826 0.084 7.31 4.61 13.71
12/21/2021 8:00:00 AM 1.55 34.79 0.088 7.32 3.2 13.74
12/21/2021 8:15:00 AM 1.55 34.79 0.088 7.33 3.07 13.79
12/21/2021 8:30:00 AM 1.57 34.826 0.084 7.33 4.9 13.87
12/21/2021 8:45:00 AM 1.58 34.844 0.084 7.34 4.49 13.93
12/21/2021 9:00:00 AM 1.6 34.88 0.084 7.36 5.09 14.03
12/21/2021 9:15:00 AM 1.63 34.934 0.084 7.38 4.46 14.14
12/21/2021 9:30:00 AM 1.67 35.006 0.088 7.42 3.59 14.23
12/21/2021 9:45:00 AM 1.72 35.096 0.084 7.42 4.53 14.31
12/21/2021 10:00:00 AM 1.77 35.186 0.088 7.46 3.08 14.4
12/21/2021 10:15:00 AM 1.83 35.294 0.087 7.49 2.98 14.48
12/21/2021 10:30:00 AM 1.9 35.42 0.087 7.52 3.21 14.55
12/21/2021 10:45:00 AM 1.96 35.528 0.087 7.53 3.09 14.61
12/21/2021 11:00:00 AM 2.07 35.726 0.083 7.55 4.74 14.67
12/21/2021 11:15:00 AM 2.16 35.888 0.087 7.59 3.23 14.72
12/21/2021 11:30:00 AM 2.29 36.122 0.087 7.61 2.95 14.75
12/21/2021 11:45:00 AM 2.39 36.302 0.082 7.63 4.88 14.76
12/21/2021 12:00:00 PM 2.49 36.482 0.086 7.67 2.95 14.77
12/21/2021 12:15:00 PM 2.61 36.698 0.086 7.69 3.22 14.78
12/21/2021 12:30:00 PM 2.71 36.878 0.086 7.71 3.83 14.77
12/21/2021 12:45:00 PM 2.83 37.094 0.086 7.73 3.14 14.74
12/21/2021 1:00:00 PM 2.95 37.31 0.086 7.75 8.79 14.72
12/21/2021 1:15:00 PM 3.07 37.526 0.082 7.75 4.18 14.69
12/21/2021 1:30:00 PM 3.18 37.724 0.086 7.79 3.11 14.66
12/21/2021 1:45:00 PM 3.26 37.868 0.085 7.8 3.05 14.61
12/21/2021 2:00:00 PM 3.33 37.994 0.085 7.81 3.11 14.57
12/21/2021 2:15:00 PM 3.38 38.084 0.085 7.81 2.97 14.52
12/21/2021 2:30:00 PM 3.43 38.174 0.086 7.8 4.94 14.47
12/21/2021 2:45:00 PM 3.46 38.228 0.085 7.8 2.96 14.42
12/21/2021 3:00:00 PM 3.48 38.264 0.085 7.8 3.05 14.37
12/21/2021 3:15:00 PM 3.49 38.282 0.085 7.8 3.17 14.32
12/21/2021 3:30:00 PM 3.5 38.3 0.085 7.79 3.18 14.24
12/21/2021 3:45:00 PM 3.51 38.318 0.085 7.76 3.25 14.16
12/21/2021 4:00:00 PM 3.51 38.318 0.085 7.74 3.15 14.08
12/21/2021 4:15:00 PM 3.5 38.3 0.085 7.71 3.04 13.97
12/21/2021 4:30:00 PM 3.48 38.264 0.085 7.67 3.68 13.84
12/21/2021 4:45:00 PM 3.46 38.228 0.086 7.63 3.21 13.73
12/21/2021 5:00:00 PM 3.43 38.174 0.082 7.58 4.83 13.61
12/21/2021 5:15:00 PM 3.4 38.12 0.086 7.56 3.2 13.51
12/21/2021 5:30:00 PM 3.37 38.066 0.086 7.54 3.72 13.42
12/21/2021 5:45:00 PM 3.33 37.994 0.082 7.49 4.63 13.33
12/21/2021 6:00:00 PM 3.3 37.94 0.086 7.48 3.2 13.26
12/21/2021 6:15:00 PM 3.28 37.904 0.086 7.46 3.12 13.2
12/21/2021 6:30:00 PM 3.26 37.868 0.086 7.45 3.43 13.16
12/21/2021 6:45:00 PM 3.24 37.832 0.086 7.42 3.42 13.12
12/21/2021 7:00:00 PM 3.22 37.796 0.086 7.42 4.08 13.09
12/21/2021 7:15:00 PM 3.2 37.76 0.086 7.41 3.31 13.07
12/21/2021 7:30:00 PM 3.19 37.742 0.086 7.4 3.18 13.05
12/21/2021 7:45:00 PM 3.18 37.724 0.086 7.39 3.18 13.03
12/21/2021 8:00:00 PM 3.16 37.688 0.083 7.37 4.46 13.02
12/21/2021 8:15:00 PM 3.14 37.652 0.086 7.38 3.88 13.01
12/21/2021 8:30:00 PM 3.13 37.634 0.086 7.37 3.32 13
12/21/2021 8:45:00 PM 3.11 37.598 0.086 7.37 4.6 13
12/21/2021 9:00:00 PM 3.08 37.544 0.086 7.36 3.65 13.01
12/21/2021 9:15:00 PM 3.05 37.49 0.086 7.36 3.3 13.01
12/21/2021 9:30:00 PM 3.02 37.436 0.086 7.35 3.19 13.02
12/21/2021 9:45:00 PM 3 37.4 0.087 7.35 3.5 13.02
12/21/2021 10:00:00 PM 2.96 37.328 0.086 7.35 3.4 13.03
12/21/2021 10:15:00 PM 2.93 37.274 0.086 7.34 3.16 13.04
12/21/2021 10:30:00 PM 2.9 37.22 0.086 7.34 10.56 13.04
12/21/2021 10:45:00 PM 2.86 37.148 0.086 7.34 3.68 13.05
12/21/2021 11:00:00 PM 2.83 37.094 0.086 7.34 10.05 13.05
12/21/2021 11:15:00 PM 2.8 37.04 0.086 7.33 16.05 13.06
12/21/2021 11:30:00 PM 2.77 36.986 0.086 7.33 3.21 13.06
12/21/2021 11:45:00 PM 2.74 36.932 0.086 7.33 4.85 13.08
12/22/2021 12:00:00 AM 2.71 36.878 0.086 7.33 3.53 13.09
12/22/2021 12:15:00 AM 2.68 36.824 0.086 7.33 3.18 13.1
12/22/2021 12:30:00 AM 2.66 36.788 0.086 7.33 3.4 13.1
12/22/2021 12:45:00 AM 2.63 36.734 0.086 7.32 3.06 13.11
12/22/2021 1:00:00 AM 2.6 36.68 0.086 7.32 3.21 13.11
12/22/2021 1:15:00 AM 2.57 36.626 0.086 7.32 3.17 13.12
12/22/2021 1:30:00 AM 2.54 36.572 0.086 7.32 3.14 13.13
12/22/2021 1:45:00 AM 2.51 36.518 0.086 7.32 2.99 13.14
12/22/2021 2:00:00 AM 2.48 36.464 0.086 7.31 3.41 13.14
12/22/2021 2:15:00 AM 2.45 36.41 0.086 7.32 2.95 13.16
12/22/2021 2:30:00 AM 2.42 36.356 0.086 7.31 3.2 13.17
12/22/2021 2:45:00 AM 2.39 36.302 0.086 7.31 3.04 13.18
12/22/2021 3:00:00 AM 2.36 36.248 0.085 7.31 3.15 13.18
12/22/2021 3:15:00 AM 2.33 36.194 0.086 7.31 3.59 13.2
12/22/2021 3:30:00 AM 2.3 36.14 0.086 7.31 3.1 13.2
12/22/2021 3:45:00 AM 2.27 36.086 0.086 7.31 3.16 13.21
12/22/2021 4:00:00 AM 2.25 36.05 0.086 7.31 3.12 13.22
12/22/2021 4:15:00 AM 2.23 36.014 0.086 7.31 3.26 13.24
12/22/2021 4:30:00 AM 2.23 36.014 0.085 7.31 3.08 13.24
12/22/2021 4:45:00 AM 2.22 35.996 0.086 7.31 5.54 13.25
12/22/2021 5:00:00 AM 2.22 35.996 0.086 7.3 7.4 13.25
12/22/2021 5:15:00 AM 2.22 35.996 0.086 7.3 10.95 13.26
12/22/2021 5:30:00 AM 2.22 35.996 0.085 7.31 3.28 13.26
12/22/2021 5:45:00 AM 2.22 35.996 0.086 7.3 3.51 13.26
12/22/2021 6:00:00 AM 2.23 36.014 0.085 7.3 13.26 13.26
12/22/2021 6:15:00 AM 2.24 36.032 0.085 7.3 3.06 13.27
12/22/2021 6:30:00 AM 2.24 36.032 0.085 7.3 3.39 13.27
12/22/2021 6:45:00 AM 2.25 36.05 0.085 7.3 8.47 13.26
12/22/2021 7:00:00 AM 2.25 36.05 0.086 7.3 2.95 13.27
12/22/2021 7:15:00 AM 2.26 36.068 0.085 7.3 2.91 13.26
12/22/2021 7:30:00 AM 2.26 36.068 0.085 7.3 3.23 13.27
12/22/2021 7:45:00 AM 2.26 36.068 0.085 7.31 3.52 13.27
12/22/2021 8:00:00 AM 2.27 36.086 0.085 7.31 2.89 13.28
12/22/2021 8:15:00 AM 2.28 36.104 0.085 7.31 3.54 13.31
12/22/2021 8:30:00 AM 2.29 36.122 0.081 7.3 4.69 13.36
12/22/2021 8:45:00 AM 2.3 36.14 0.085 7.33 2.95 13.42
12/22/2021 9:00:00 AM 2.31 36.158 0.085 7.34 3.08 13.48
12/22/2021 9:15:00 AM 2.34 36.212 0.085 7.36 3.85 13.58
12/22/2021 9:30:00 AM 2.38 36.284 0.081 7.36 4.45 13.65
12/22/2021 9:45:00 AM 2.42 36.356 0.083 7.37 3.73 13.69
12/22/2021 10:00:00 AM 2.47 36.446 0.084 7.41 3.31 13.77
12/22/2021 10:15:00 AM 2.54 36.572 0.084 7.44 3.36 13.87
12/22/2021 10:30:00 AM 2.58 36.644 0.084 7.46 3.15 13.91
12/22/2021 10:45:00 AM 2.63 36.734 0.084 7.48 4.04 13.96
12/22/2021 11:00:00 AM 2.7 36.86 0.084 7.5 3.26 14
12/22/2021 11:15:00 AM 2.75 36.95 0.084 7.52 3.11 14.03
12/22/2021 11:30:00 AM 2.79 37.022 0.084 7.53 3.12 14.02
12/22/2021 11:45:00 AM 2.85 37.13 0.084 7.55 3.16 14.06
12/22/2021 12:00:00 PM 2.91 37.238 0.084 7.58 3.49 14.11
12/22/2021 12:15:00 PM 2.98 37.364 0.084 7.6 3.94 14.15
12/22/2021 12:30:00 PM 3.01 37.418 0.083 7.62 2.95 14.16
12/22/2021 12:45:00 PM 3.05 37.49 0.083 7.64 3.14 14.18
12/22/2021 1:00:00 PM 3.1 37.58 0.083 7.66 3.11 14.2
12/22/2021 1:15:00 PM 3.17 37.706 0.083 7.68 2.96 14.21
12/22/2021 1:30:00 PM 3.19 37.742 0.083 7.68 3.23 14.17
12/22/2021 1:45:00 PM 3.23 37.814 0.083 7.69 3.52 14.17
12/22/2021 2:00:00 PM 3.25 37.85 0.083 7.74 3.16 14.12
12/22/2021 2:15:00 PM 3.28 37.904 0.083 7.7 3.07 14.11
12/22/2021 2:30:00 PM 3.33 37.994 0.083 7.72 3.28 14.15
12/22/2021 2:45:00 PM 3.33 37.994 0.083 7.72 3.16 14.12
12/22/2021 3:00:00 PM 3.33 37.994 0.083 7.71 3.6 14.07
12/22/2021 3:15:00 PM 3.33 37.994 0.083 7.71 3.42 14.06
12/22/2021 3:30:00 PM 3.34 38.012 0.083 7.71 3.15 14.04
12/22/2021 3:45:00 PM 3.35 38.03 0.082 7.7 3.33 13.98
12/22/2021 4:00:00 PM 3.34 38.012 0.083 7.68 3.3 13.91
12/22/2021 4:15:00 PM 3.33 37.994 0.082 7.66 3.25 13.85
12/22/2021 4:30:00 PM 3.32 37.976 0.083 7.63 3.3 13.76
12/22/2021 4:45:00 PM 3.29 37.922 0.083 7.59 3.06 13.66
12/22/2021 5:00:00 PM 3.25 37.85 0.083 7.57 3.08 13.58
12/22/2021 5:15:00 PM 3.23 37.814 0.083 7.53 3.15 13.49
12/22/2021 5:30:00 PM 3.2 37.76 0.083 7.51 3.58 13.41
12/22/2021 5:45:00 PM 3.18 37.724 0.083 7.49 3.22 13.35
12/22/2021 6:00:00 PM 3.15 37.67 0.083 7.46 3.39 13.29
12/22/2021 6:15:00 PM 3.13 37.634 0.083 7.44 3.32 13.24
12/22/2021 6:30:00 PM 3.1 37.58 0.083 7.43 3.18 13.21
12/22/2021 6:45:00 PM 3.08 37.544 0.084 7.41 3.7 13.18
12/22/2021 7:00:00 PM 3.06 37.508 0.083 7.4 3.4 13.15
12/22/2021 7:15:00 PM 3.04 37.472 0.083 7.39 3.19 13.14
12/22/2021 7:30:00 PM 3.02 37.436 0.083 7.38 3.25 13.14
12/22/2021 7:45:00 PM 2.99 37.382 0.083 7.38 3.58 13.13
12/22/2021 8:00:00 PM 2.96 37.328 0.083 7.37 3.61 13.13
12/22/2021 8:15:00 PM 2.95 37.31 0.083 7.37 3.17 13.13
12/22/2021 8:30:00 PM 2.93 37.274 0.083 7.36 3.55 13.13
12/22/2021 8:45:00 PM 2.92 37.256 0.083 7.36 3.61 13.14
12/22/2021 9:00:00 PM 2.9 37.22 0.084 7.35 3.34 13.14
12/22/2021 9:15:00 PM 2.88 37.184 0.083 7.35 3.63 13.14
12/22/2021 9:30:00 PM 2.86 37.148 0.083 7.34 3.26 13.16
12/22/2021 9:45:00 PM 2.85 37.13 0.081 7.32 3.72 13.16
12/22/2021 10:00:00 PM 2.83 37.094 0.083 7.34 3.18 13.16
12/22/2021 10:15:00 PM 2.82 37.076 0.083 7.33 3.12 13.17
12/22/2021 10:30:00 PM 2.8 37.04 0.083 7.33 3.42 13.17
12/22/2021 10:45:00 PM 2.78 37.004 0.083 7.33 3.47 13.19
12/22/2021 11:00:00 PM 2.76 36.968 0.083 7.32 3.17 13.2
12/22/2021 11:15:00 PM 2.73 36.914 0.083 7.33 3.33 13.2
12/22/2021 11:30:00 PM 2.71 36.878 0.083 7.32 3.13 13.21
12/22/2021 11:45:00 PM 2.69 36.842 0.083 7.32 3.23 13.22
12/23/2021 12:00:00 AM 2.66 36.788 0.083 7.32 3.03 13.22
12/23/2021 12:15:00 AM 2.64 36.752 0.083 7.31 2.94 13.23
12/23/2021 12:30:00 AM 2.61 36.698 0.083 7.31 2.95 13.24
12/23/2021 12:45:00 AM 2.59 36.662 0.083 7.31 3.52 13.25
12/23/2021 1:00:00 AM 2.57 36.626 0.083 7.31 3.38 13.26
12/23/2021 1:15:00 AM 2.54 36.572 0.083 7.31 3.02 13.26
12/23/2021 1:30:00 AM 2.52 36.536 0.083 7.31 3.03 13.28
12/23/2021 1:45:00 AM 2.49 36.482 0.083 7.31 3.11 13.29
12/23/2021 2:00:00 AM 2.46 36.428 0.083 7.3 3.34 13.3
12/23/2021 2:15:00 AM 2.45 36.41 0.083 7.31 3.09 13.31
12/23/2021 2:30:00 AM 2.44 36.392 0.083 7.3 3.19 13.32
12/23/2021 2:45:00 AM 2.42 36.356 0.083 7.3 3.19 13.32
12/23/2021 3:00:00 AM 2.42 36.356 0.083 7.3 3.21 13.34
12/23/2021 3:15:00 AM 2.41 36.338 0.083 7.31 3.45 13.34
12/23/2021 3:30:00 AM 2.4 36.32 0.083 7.3 2.75 13.35
12/23/2021 3:45:00 AM 2.39 36.302 0.083 7.3 3.23 13.36
12/23/2021 4:00:00 AM 2.38 36.284 0.083 7.3 3.24 13.36
12/23/2021 4:15:00 AM 2.37 36.266 0.083 7.3 3.09 13.38
12/23/2021 4:30:00 AM 2.35 36.23 0.083 7.3 3.12 13.38
12/23/2021 4:45:00 AM 2.34 36.212 0.083 7.3 2.7 13.39
12/23/2021 5:00:00 AM 2.33 36.194 0.083 7.3 3.09 13.39
12/23/2021 5:15:00 AM 2.33 36.194 0.083 7.3 3.2 13.41
12/23/2021 5:30:00 AM 2.32 36.176 0.083 7.3 3.34 13.41
12/23/2021 5:45:00 AM 2.31 36.158 0.083 7.3 3.2 13.42
12/23/2021 6:00:00 AM 2.31 36.158 0.083 7.3 3.39 13.42
12/23/2021 6:15:00 AM 2.3 36.14 0.083 7.3 3.07 13.43
12/23/2021 6:30:00 AM 2.3 36.14 0.083 7.3 3.22 13.42
12/23/2021 6:45:00 AM 2.3 36.14 0.083 7.3 2.78 13.45
12/23/2021 7:00:00 AM 2.29 36.122 0.083 7.3 3.17 13.45
12/23/2021 7:15:00 AM 2.27 36.086 0.083 7.3 3.48 13.44
12/23/2021 7:30:00 AM 2.27 36.086 0.079 7.28 4.52 13.46
12/23/2021 7:45:00 AM 2.26 36.068 0.081 7.28 3.6 13.47
12/23/2021 8:00:00 AM 2.26 36.068 0.083 7.31 3.1 13.5
12/23/2021 8:15:00 AM 2.26 36.068 0.083 7.31 3.09 13.55
12/23/2021 8:30:00 AM 2.27 36.086 0.083 7.32 2.85 13.61
12/23/2021 8:45:00 AM 2.28 36.104 0.079 7.32 4.29 13.7
12/23/2021 9:00:00 AM 2.3 36.14 0.083 7.36 3.11 13.81
12/23/2021 9:15:00 AM 2.32 36.176 0.083 7.39 3.04 13.93
12/23/2021 9:30:00 AM 2.34 36.212 0.083 7.41 3.14 14.04
12/23/2021 9:45:00 AM 2.36 36.248 0.083 7.44 2.74 14.14
12/23/2021 10:00:00 AM 2.41 36.338 0.082 7.47 3.74 14.25
12/23/2021 10:15:00 AM 2.43 36.374 0.082 7.5 7.43 14.34
12/23/2021 10:30:00 AM 2.46 36.428 0.082 7.53 3.22 14.41
12/23/2021 10:45:00 AM 2.5 36.5 0.082 7.56 3.75 14.49
12/23/2021 11:00:00 AM 2.57 36.626 0.082 7.59 2.69 14.55
12/23/2021 11:15:00 AM 2.63 36.734 0.082 7.62 2.82 14.61
12/23/2021 11:30:00 AM 2.67 36.806 0.082 7.65 3.11 14.64
12/23/2021 11:45:00 AM 2.78 37.004 0.081 7.68 3.11 14.68
12/23/2021 12:00:00 PM 2.89 37.202 0.081 7.7 5.4 14.7
12/23/2021 12:15:00 PM 2.96 37.328 0.078 7.71 4.53 14.71
12/23/2021 12:30:00 PM 3 37.4 0.081 7.75 2.74 14.71
12/23/2021 12:45:00 PM 3.09 37.562 0.081 7.76 3.15 14.7
12/23/2021 1:00:00 PM 3.13 37.634 0.081 7.77 2.97 14.71
12/23/2021 1:15:00 PM 3.2 37.76 0.081 7.8 2.77 14.7
12/23/2021 1:30:00 PM 3.26 37.868 0.081 7.81 3 14.68
12/23/2021 1:45:00 PM 3.28 37.904 0.081 7.81 2.91 14.64
12/23/2021 2:00:00 PM 3.33 37.994 0.081 7.82 2.63 14.61
12/23/2021 2:15:00 PM 3.39 38.102 0.078 7.82 3.46 14.59
12/23/2021 2:30:00 PM 3.37 38.066 0.081 7.84 2.89 14.55
12/23/2021 2:45:00 PM 3.36 38.048 0.077 7.81 4.38 14.51
12/23/2021 3:00:00 PM 3.36 38.048 0.081 7.84 2.93 14.5
12/23/2021 3:15:00 PM 3.36 38.048 0.081 7.83 2.87 14.48
12/23/2021 3:30:00 PM 3.38 38.084 0.081 7.83 3.15 14.46
12/23/2021 3:45:00 PM 3.36 38.048 0.081 7.82 3.95 14.39
12/23/2021 4:00:00 PM 3.34 38.012 0.081 7.79 3.38 14.3
12/23/2021 4:15:00 PM 3.32 37.976 0.081 7.75 3.58 14.2
12/23/2021 4:30:00 PM 3.3 37.94 0.081 7.71 3.3 14.09
12/23/2021 4:45:00 PM 3.29 37.922 0.081 7.67 3.23 13.96
12/23/2021 5:00:00 PM 3.29 37.922 0.081 7.63 2.96 13.84
12/23/2021 5:15:00 PM 3.29 37.922 0.082 7.59 3.26 13.73
12/23/2021 5:30:00 PM 3.28 37.904 0.082 7.55 3.19 13.62
12/23/2021 5:45:00 PM 3.26 37.868 0.082 7.52 3.07 13.52
12/23/2021 6:00:00 PM 3.24 37.832 0.082 7.49 3.2 13.45
12/23/2021 6:15:00 PM 3.22 37.796 0.082 7.47 3.09 13.38
12/23/2021 6:30:00 PM 3.2 37.76 0.082 7.45 3.14 13.33
12/23/2021 6:45:00 PM 3.2 37.76 0.08 7.41 3.49 13.28
12/23/2021 7:00:00 PM 3.19 37.742 0.082 7.41 9.3 13.24
12/23/2021 7:15:00 PM 3.18 37.724 0.082 7.4 5.09 13.22
12/23/2021 7:30:00 PM 3.18 37.724 0.083 7.38 2.84 13.18
12/23/2021 7:45:00 PM 3.18 37.724 0.082 7.38 2.94 13.16
12/23/2021 8:00:00 PM 3.17 37.706 0.082 7.37 2.78 13.14
12/23/2021 8:15:00 PM 3.17 37.706 0.083 7.36 3.26 13.13
12/23/2021 8:30:00 PM 3.16 37.688 0.083 7.35 2.88 13.12
12/23/2021 8:45:00 PM 3.17 37.706 0.083 7.35 3.45 13.1
12/23/2021 9:00:00 PM 3.17 37.706 0.083 7.34 3.16 13.1
12/23/2021 9:15:00 PM 3.17 37.706 0.083 7.34 2.85 13.09
12/23/2021 9:30:00 PM 3.17 37.706 0.083 7.33 3.97 13.08
12/23/2021 9:45:00 PM 3.17 37.706 0.083 7.33 3.34 13.08
12/23/2021 10:00:00 PM 3.17 37.706 0.083 7.33 3.58 13.07
12/23/2021 10:15:00 PM 3.16 37.688 0.083 7.32 3.63 13.08
12/23/2021 10:30:00 PM 3.16 37.688 0.083 7.32 3.31 13.06
12/23/2021 10:45:00 PM 3.16 37.688 0.083 7.32 3.01 13.07
12/23/2021 11:00:00 PM 3.16 37.688 0.083 7.32 3.08 13.06
12/23/2021 11:15:00 PM 3.14 37.652 0.083 7.32 3.23 13.06
12/23/2021 11:30:00 PM 3.14 37.652 0.083 7.31 2.72 13.06
12/23/2021 11:45:00 PM 3.09 37.562 0.083 7.31 3.55 13.05
12/24/2021 12:00:00 AM 3.02 37.436 0.083 7.31 3.55 13.05
12/24/2021 12:15:00 AM 2.98 37.364 0.083 7.31 3.62 13.06
12/24/2021 12:30:00 AM 3 37.4 0.083 7.31 3.08 13.07
12/24/2021 12:45:00 AM 2.97 37.346 0.083 7.31 4.02 13.08
12/24/2021 1:00:00 AM 2.95 37.31 0.083 7.3 3.78 13.08
12/24/2021 1:15:00 AM 2.93 37.274 0.083 7.3 2.6 13.09
12/24/2021 1:30:00 AM 2.92 37.256 0.083 7.3 3.23 13.1
12/24/2021 1:45:00 AM 2.91 37.238 0.083 7.3 3.66 13.1
12/24/2021 2:00:00 AM 2.89 37.202 0.083 7.31 3.92 13.11
12/24/2021 2:15:00 AM 2.89 37.202 0.082 7.31 3.7 13.13
12/24/2021 2:30:00 AM 2.89 37.202 0.082 7.31 4.49 13.12
12/24/2021 2:45:00 AM 2.89 37.202 0.079 7.28 3.55 13.13
12/24/2021 3:00:00 AM 2.88 37.184 0.079 7.29 4.51 13.13
12/24/2021 3:15:00 AM 2.88 37.184 0.078 7.28 4.4 13.14
12/24/2021 3:30:00 AM 2.89 37.202 0.082 7.3 3.41 13.14
12/24/2021 3:45:00 AM 2.9 37.22 0.079 7.28 4.18 13.14
12/24/2021 4:00:00 AM 2.91 37.238 0.082 7.3 3.58 13.14
12/24/2021 4:15:00 AM 2.91 37.238 0.083 7.3 2.97 13.13
12/24/2021 4:30:00 AM 2.92 37.256 0.083 7.3 4.6 13.13
12/24/2021 4:45:00 AM 2.93 37.274 0.083 7.3 2.84 13.13
12/24/2021 5:00:00 AM 2.93 37.274 0.083 7.3 4.34 13.14
12/24/2021 5:15:00 AM 2.94 37.292 0.083 7.3 3.08 13.12
12/24/2021 5:30:00 AM 2.94 37.292 0.083 7.3 3.04 13.13
12/24/2021 5:45:00 AM 2.95 37.31 0.083 7.3 3.66 13.13
12/24/2021 6:00:00 AM 2.95 37.31 0.083 7.3 5.39 13.12
12/24/2021 6:15:00 AM 2.96 37.328 0.083 7.3 2.84 13.12
12/24/2021 6:30:00 AM 2.97 37.346 0.083 7.3 3.13 13.11
12/24/2021 6:45:00 AM 2.97 37.346 0.083 7.3 3.45 13.12
12/24/2021 7:00:00 AM 2.98 37.364 0.083 7.3 3.33 13.12
12/24/2021 7:15:00 AM 2.98 37.364 0.083 7.3 2.61 13.1
12/24/2021 7:30:00 AM 2.99 37.382 0.083 7.3 2.81 13.11
12/24/2021 7:45:00 AM 3 37.4 0.083 7.3 2.61 13.12
12/24/2021 8:00:00 AM 3.01 37.418 0.08 7.28 3.42 13.14
12/24/2021 8:15:00 AM 3.01 37.418 0.083 7.31 3.5 13.17
12/24/2021 8:30:00 AM 3.03 37.454 0.083 7.32 3.92 13.22
12/24/2021 8:45:00 AM 3.04 37.472 0.083 7.33 2.89 13.29
12/24/2021 9:00:00 AM 3.07 37.526 0.083 7.35 8.92 13.38
12/24/2021 9:15:00 AM 3.09 37.562 0.083 7.37 4.2 13.5
12/24/2021 9:30:00 AM 3.13 37.634 0.083 7.4 3.16 13.62
12/24/2021 9:45:00 AM 3.2 37.76 0.083 7.43 4.8 13.76
12/24/2021 10:00:00 AM 3.26 37.868 0.08 7.45 3.76 13.89
12/24/2021 10:15:00 AM 3.32 37.976 0.082 7.51 3.05 14
12/24/2021 10:30:00 AM 3.39 38.102 0.082 7.54 2.85 14.09
12/24/2021 10:45:00 AM 3.47 38.246 0.082 7.58 3.41 14.18
12/24/2021 11:00:00 AM 3.56 38.408 0.079 7.59 3.35 14.25
12/24/2021 11:15:00 AM 3.63 38.534 0.082 7.65 2.82 14.3
12/24/2021 11:30:00 AM 3.7 38.66 0.081 7.69 2.84 14.34
12/24/2021 11:45:00 AM 3.8 38.84 0.082 7.72 2.63 14.36
12/24/2021 12:00:00 PM 3.88 38.984 0.081 7.76 2.83 14.39
12/24/2021 12:15:00 PM 3.96 39.128 0.081 7.8 3.6 14.39
12/24/2021 12:30:00 PM 4.05 39.29 0.081 7.82 2.48 14.39
12/24/2021 12:45:00 PM 4.11 39.398 0.081 7.84 2.64 14.38
12/24/2021 1:00:00 PM 4.18 39.524 0.081 7.86 2.54 14.36
12/24/2021 1:15:00 PM 4.21 39.578 0.081 7.88 2.68 14.34
12/24/2021 1:30:00 PM 4.24 39.632 0.081 7.9 2.47 14.32
12/24/2021 1:45:00 PM 4.27 39.686 0.081 7.91 2.74 14.32
12/24/2021 2:00:00 PM 4.31 39.758 0.081 7.93 3.4 14.31
12/24/2021 2:15:00 PM 4.34 39.812 0.081 7.94 2.99 14.29
12/24/2021 2:30:00 PM 4.33 39.794 0.081 7.94 2.6 14.25
12/24/2021 2:45:00 PM 4.35 39.83 0.081 7.94 2.92 14.21
12/24/2021 3:00:00 PM 4.37 39.866 0.081 7.95 2.58 14.18
12/24/2021 3:15:00 PM 4.39 39.902 0.081 7.94 2.76 14.14
12/24/2021 3:30:00 PM 4.38 39.884 0.081 7.91 2.55 14.06
12/24/2021 3:45:00 PM 4.36 39.848 0.081 7.87 2.78 13.96
12/24/2021 4:00:00 PM 4.34 39.812 0.081 7.82 3.33 13.85
12/24/2021 4:15:00 PM 4.33 39.794 0.081 7.77 2.54 13.75
12/24/2021 4:30:00 PM 4.31 39.758 0.082 7.72 2.81 13.63
12/24/2021 4:45:00 PM 4.29 39.722 0.082 7.67 4.98 13.49
12/24/2021 5:00:00 PM 4.28 39.704 0.082 7.63 3.27 13.37
12/24/2021 5:15:00 PM 4.28 39.704 0.082 7.59 2.73 13.25
12/24/2021 5:30:00 PM 4.28 39.704 0.082 7.56 3.44 13.14
12/24/2021 5:45:00 PM 4.28 39.704 0.082 7.53 2.9 13.06
12/24/2021 6:00:00 PM 4.28 39.704 0.082 7.5 3.23 12.97
12/24/2021 6:15:00 PM 4.28 39.704 0.082 7.48 2.86 12.9
12/24/2021 6:30:00 PM 4.28 39.704 0.082 7.46 2.93 12.83
12/24/2021 6:45:00 PM 4.28 39.704 0.083 7.44 2.78 12.79
12/24/2021 7:00:00 PM 4.27 39.686 0.083 7.42 2.78 12.74
12/24/2021 7:15:00 PM 4.27 39.686 0.083 7.41 2.82 12.71
12/24/2021 7:30:00 PM 4.27 39.686 0.083 7.4 2.76 12.68
12/24/2021 7:45:00 PM 4.28 39.704 0.083 7.39 2.81 12.65
12/24/2021 8:00:00 PM 4.29 39.722 0.083 7.38 3.25 12.63
12/24/2021 8:15:00 PM 4.29 39.722 0.083 7.37 3.74 12.62
12/24/2021 8:30:00 PM 4.29 39.722 0.083 7.37 2.68 12.59
12/24/2021 8:45:00 PM 4.3 39.74 0.083 7.37 2.67 12.59
12/24/2021 9:00:00 PM 4.31 39.758 0.083 7.36 2.91 12.57
12/24/2021 9:15:00 PM 4.32 39.776 0.084 7.35 4.35 12.57
12/24/2021 9:30:00 PM 4.32 39.776 0.083 7.35 3.14 12.56
12/24/2021 9:45:00 PM 4.33 39.794 0.083 7.34 3.09 12.55
12/24/2021 10:00:00 PM 4.33 39.794 0.083 7.34 3.26 12.56
12/24/2021 10:15:00 PM 4.34 39.812 0.084 7.33 3.34 12.55
12/24/2021 10:30:00 PM 4.34 39.812 0.083 7.34 2.69 12.55
12/24/2021 10:45:00 PM 4.35 39.83 0.083 7.33 5.09 12.54
12/24/2021 11:00:00 PM 4.35 39.83 0.084 7.33 3.26 12.52
12/24/2021 11:15:00 PM 4.36 39.848 0.083 7.33 3.28 12.53
12/24/2021 11:30:00 PM 4.37 39.866 0.083 7.32 3.18 12.52
12/24/2021 11:45:00 PM 4.38 39.884 0.083 7.32 3.21 12.51
12/25/2021 12:00:00 AM 4.39 39.902 0.083 7.32 5.86 12.51
12/25/2021 12:15:00 AM 4.4 39.92 0.083 7.32 3.62 12.51
12/25/2021 12:30:00 AM 4.41 39.938 0.083 7.32 2.78 12.5
12/25/2021 12:45:00 AM 4.42 39.956 0.083 7.31 2.59 12.48
12/25/2021 1:00:00 AM 4.43 39.974 0.083 7.31 3.55 12.49
12/25/2021 1:15:00 AM 4.44 39.992 0.083 7.31 4.22 12.46
12/25/2021 1:30:00 AM 4.45 40.01 0.083 7.31 6 12.47
12/25/2021 1:45:00 AM 4.46 40.028 0.083 7.31 3.04 12.46
12/25/2021 2:00:00 AM 4.47 40.046 0.083 7.31 2.76 12.46
12/25/2021 2:15:00 AM 4.48 40.064 0.083 7.31 4.53 12.44
12/25/2021 2:30:00 AM 4.48 40.064 0.083 7.31 3.96 12.44
12/25/2021 2:45:00 AM 4.49 40.082 0.084 7.31 3.26 12.44
12/25/2021 3:00:00 AM 4.5 40.1 0.083 7.3 2.98 12.43
12/25/2021 3:15:00 AM 4.51 40.118 0.084 7.3 2.97 12.42
12/25/2021 3:30:00 AM 4.52 40.136 0.084 7.3 3.45 12.41
12/25/2021 3:45:00 AM 4.52 40.136 0.084 7.3 4.31 12.41
12/25/2021 4:00:00 AM 4.53 40.154 0.084 7.3 4 12.41
12/25/2021 4:15:00 AM 4.54 40.172 0.084 7.29 2.78 12.4
12/25/2021 4:30:00 AM 4.54 40.172 0.084 7.3 5.53 12.39
12/25/2021 4:45:00 AM 4.55 40.19 0.083 7.3 6.71 12.4
12/25/2021 5:00:00 AM 4.56 40.208 0.084 7.3 5.08 12.39
12/25/2021 5:15:00 AM 4.57 40.226 0.084 7.3 2.9 12.38
12/25/2021 5:30:00 AM 4.57 40.226 0.084 7.3 10.67 12.36
12/25/2021 5:45:00 AM 4.58 40.244 0.084 7.3 3.79 12.35
12/25/2021 6:00:00 AM 4.59 40.262 0.084 7.3 2.84 12.36
12/25/2021 6:15:00 AM 4.6 40.28 0.084 7.29 5.03 12.34
12/25/2021 6:30:00 AM 4.6 40.28 0.084 7.29 2.59 12.33
12/25/2021 6:45:00 AM 4.61 40.298 0.084 7.29 3.13 12.33
12/25/2021 7:00:00 AM 4.61 40.298 0.084 7.29 4.01 12.34
12/25/2021 7:15:00 AM 4.62 40.316 0.084 7.29 3.96 12.34
12/25/2021 7:30:00 AM 4.63 40.334 0.084 7.3 4.56 12.33
12/25/2021 7:45:00 AM 4.63 40.334 0.085 7.29 2.55 12.32
12/25/2021 8:00:00 AM 4.64 40.352 0.085 7.3 2.57 12.34
12/25/2021 8:15:00 AM 4.65 40.37 0.085 7.3 4.04 12.34
12/25/2021 8:30:00 AM 4.65 40.37 0.085 7.3 3.69 12.37
12/25/2021 8:45:00 AM 4.66 40.388 0.086 7.31 2.61 12.39
12/25/2021 9:00:00 AM 4.68 40.424 0.086 7.31 3.31 12.41
12/25/2021 9:15:00 AM 4.69 40.442 0.085 7.32 5.35 12.44
12/25/2021 9:30:00 AM 4.7 40.46 0.085 7.34 3.04 12.5
12/25/2021 9:45:00 AM 4.72 40.496 0.085 7.35 5 12.55
12/25/2021 10:00:00 AM 4.75 40.55 0.085 7.37 9.4 12.63
12/25/2021 10:15:00 AM 4.78 40.604 0.085 7.39 3.96 12.71
12/25/2021 10:30:00 AM 4.81 40.658 0.085 7.42 4.71 12.83
12/25/2021 10:45:00 AM 4.84 40.712 0.085 7.44 3.72 12.92
12/25/2021 11:00:00 AM 4.87 40.766 0.085 7.46 4.51 12.97
12/25/2021 11:15:00 AM 4.9 40.82 0.085 7.48 4.43 13.03
12/25/2021 11:30:00 AM 4.94 40.892 0.085 7.5 4.86 13.09
12/25/2021 11:45:00 AM 4.97 40.946 0.085 7.52 8.91 13.09
12/25/2021 12:00:00 PM 5 41 0.085 7.53 3.22 13.13
12/25/2021 12:15:00 PM 5.05 41.09 0.085 7.57 4.01 13.19
12/25/2021 12:30:00 PM 5.09 41.162 0.085 7.58 13.72 13.22
12/25/2021 12:45:00 PM 5.13 41.234 0.085 7.6 3.47 13.25
12/25/2021 1:00:00 PM 5.18 41.324 0.085 7.63 4.78 13.31
12/25/2021 1:15:00 PM 5.24 41.432 0.085 7.67 3.45 13.37
12/25/2021 1:30:00 PM 5.3 41.54 0.085 7.71 5.1 13.41
12/25/2021 1:45:00 PM 5.37 41.666 0.085 7.74 5.02 13.45
12/25/2021 2:00:00 PM 5.42 41.756 0.086 7.77 4.49 13.48
12/25/2021 2:15:00 PM 5.49 41.882 0.086 7.8 6.22 13.47
12/25/2021 2:30:00 PM 5.53 41.954 0.086 7.81 5.39 13.45
12/25/2021 2:45:00 PM 5.58 42.044 0.086 7.81 4.91 13.39
12/25/2021 3:00:00 PM 5.61 42.098 0.086 7.79 8.29 13.32
12/25/2021 3:15:00 PM 5.65 42.17 0.086 7.78 3.5 13.24
12/25/2021 3:30:00 PM 5.69 42.242 0.085 7.77 3.31 13.21
12/25/2021 3:45:00 PM 5.72 42.296 0.086 7.75 7.33 13.15
12/25/2021 4:00:00 PM 5.75 42.35 0.086 7.75 4.8 13.1
12/25/2021 4:15:00 PM 5.76 42.368 0.085 7.72 5.27 12.98
12/25/2021 4:30:00 PM 5.78 42.404 0.086 7.67 12.08 12.86
12/25/2021 4:45:00 PM 5.8 42.44 0.086 7.64 5.73 12.74
12/25/2021 5:00:00 PM 5.81 42.458 0.086 7.6 3.72 12.62
12/25/2021 5:15:00 PM 5.82 42.476 0.085 7.58 4.74 12.51
12/25/2021 5:30:00 PM 5.83 42.494 0.086 7.55 5.87 12.41
12/25/2021 5:45:00 PM 5.84 42.512 0.086 7.52 4.96 12.32
12/25/2021 6:00:00 PM 5.85 42.53 0.086 7.49 4.46 12.24
12/25/2021 6:15:00 PM 5.84 42.512 0.086 7.47 3.53 12.17
12/25/2021 6:30:00 PM 5.84 42.512 0.086 7.46 8.63 12.12
12/25/2021 6:45:00 PM 5.84 42.512 0.086 7.44 3.54 12.07
12/25/2021 7:00:00 PM 5.84 42.512 0.086 7.42 4.66 12.04
12/25/2021 7:15:00 PM 5.84 42.512 0.086 7.41 9.52 12
12/25/2021 7:30:00 PM 5.84 42.512 0.086 7.4 3.5 11.98
12/25/2021 7:45:00 PM 5.85 42.53 0.086 7.39 4.55 11.97
12/25/2021 8:00:00 PM 5.84 42.512 0.086 7.39 22.67 11.96
12/25/2021 8:15:00 PM 5.84 42.512 0.086 7.38 14.3 11.93
12/25/2021 8:30:00 PM 5.84 42.512 0.086 7.38 5.27 11.94
12/25/2021 8:45:00 PM 5.83 42.494 0.086 7.37 3.38 11.94
12/25/2021 9:00:00 PM 5.83 42.494 0.086 7.37 5.28 11.94
12/25/2021 9:15:00 PM 5.83 42.494 0.086 7.36 3.97 11.93
12/25/2021 9:30:00 PM 5.83 42.494 0.086 7.36 4.31 11.94
12/25/2021 9:45:00 PM 5.83 42.494 0.086 7.36 3.44 11.93
12/25/2021 10:00:00 PM 5.83 42.494 0.086 7.35 4.23 11.93
12/25/2021 10:15:00 PM 5.83 42.494 0.086 7.35 6.49 11.93
12/25/2021 10:30:00 PM 5.83 42.494 0.086 7.35 6.35 11.93
12/25/2021 10:45:00 PM 5.84 42.512 0.087 7.35 8.54 11.93
12/25/2021 11:00:00 PM 5.84 42.512 0.086 7.36 5.85 11.93
12/25/2021 11:15:00 PM 5.85 42.53 0.087 7.35 6.85 11.94
12/25/2021 11:30:00 PM 5.85 42.53 0.087 7.35 11.73 11.94
12/25/2021 11:45:00 PM 5.86 42.548 0.087 7.35 7.13 11.94
12/26/2021 12:00:00 AM 5.86 42.548 0.087 7.35 6.91 11.94
12/26/2021 12:15:00 AM 5.87 42.566 0.087 7.35 4.07 11.94
12/26/2021 12:30:00 AM 5.88 42.584 0.087 7.35 3.06 11.94
12/26/2021 12:45:00 AM 5.88 42.584 0.087 7.35 5.56 11.95
12/26/2021 1:00:00 AM 5.88 42.584 0.087 7.35 4.48 11.95
12/26/2021 1:15:00 AM 5.87 42.566 0.087 7.34 3.4 11.94
12/26/2021 1:30:00 AM 5.84 42.512 0.087 7.35 3.56 11.95
12/26/2021 1:45:00 AM 5.82 42.476 0.087 7.35 7.99 11.96
12/26/2021 2:00:00 AM 5.8 42.44 0.087 7.35 10.02 11.97
12/26/2021 2:15:00 AM 5.78 42.404 0.087 7.35 7.38 11.98
12/26/2021 2:30:00 AM 5.76 42.368 0.087 7.36 3.07 11.99
12/26/2021 2:45:00 AM 5.74 42.332 0.087 7.34 6.16 11.99
12/26/2021 3:00:00 AM 5.73 42.314 0.087 7.33 3.27 11.99
12/26/2021 3:15:00 AM 5.72 42.296 0.087 7.33 6.53 12.01
12/26/2021 3:30:00 AM 5.71 42.278 0.087 7.33 5.19 12.01
12/26/2021 3:45:00 AM 5.7 42.26 0.087 7.34 3.52 12.01
12/26/2021 4:00:00 AM 5.7 42.26 0.087 7.33 9.24 12.03
12/26/2021 4:15:00 AM 5.68 42.224 0.087 7.33 9.75 12.03
12/26/2021 4:30:00 AM 5.67 42.206 0.087 7.33 9.03 12.04
12/26/2021 4:45:00 AM 5.65 42.17 0.088 7.33 8.73 12.05
12/26/2021 5:00:00 AM 5.63 42.134 0.088 7.33 11.15 12.05
12/26/2021 5:15:00 AM 5.61 42.098 0.087 7.33 4.93 12.06
12/26/2021 5:30:00 AM 5.59 42.062 0.088 7.33 5.29 12.06
12/26/2021 5:45:00 AM 5.56 42.008 0.088 7.33 3.09 12.06
12/26/2021 6:00:00 AM 5.53 41.954 0.088 7.33 5.83 12.07
12/26/2021 6:15:00 AM 5.49 41.882 0.087 7.32 4.98 12.09
12/26/2021 6:30:00 AM 5.47 41.846 0.087 7.33 5.6 12.09
12/26/2021 6:45:00 AM 5.43 41.774 0.087 7.33 8.47 12.11
12/26/2021 7:00:00 AM 5.4 41.72 0.087 7.33 6.97 12.13
12/26/2021 7:15:00 AM 5.38 41.684 0.087 7.33 2.83 12.14
12/26/2021 7:30:00 AM 5.35 41.63 0.088 7.32 3.19 12.15
12/26/2021 7:45:00 AM 5.32 41.576 0.088 7.33 3.24 12.18
12/26/2021 8:00:00 AM 5.3 41.54 0.087 7.33 3.43 12.21
12/26/2021 8:15:00 AM 5.27 41.486 0.087 7.35 2.96 12.28
12/26/2021 8:30:00 AM 5.26 41.468 0.087 7.36 6.67 12.37
12/26/2021 8:45:00 AM 5.26 41.468 0.087 7.38 7.15 12.5
12/26/2021 9:00:00 AM 5.27 41.486 0.087 7.41 4.13 12.62
12/26/2021 9:15:00 AM 5.31 41.558 0.087 7.44 4.81 12.78
12/26/2021 9:30:00 AM 5.35 41.63 0.087 7.48 2.76 12.93
12/26/2021 9:45:00 AM 5.38 41.684 0.087 7.51 4.61 13.07
12/26/2021 10:00:00 AM 5.41 41.738 0.087 7.55 9.77 13.19
12/26/2021 10:15:00 AM 5.46 41.828 0.087 7.59 4.12 13.31
12/26/2021 10:30:00 AM 5.51 41.918 0.087 7.64 11.07 13.44
12/26/2021 10:45:00 AM 5.54 41.972 0.087 7.67 9.54 13.48
12/26/2021 11:00:00 AM 5.64 42.152 0.086 7.72 6.7 13.57
12/26/2021 11:15:00 AM 5.74 42.332 0.087 7.76 2.93 13.64
12/26/2021 11:30:00 AM 5.81 42.458 0.086 7.81 2.78 13.69
12/26/2021 11:45:00 AM 5.88 42.584 0.086 7.84 5.22 13.72
12/26/2021 12:00:00 PM 5.96 42.728 0.086 7.89 34.47 13.76
12/26/2021 12:15:00 PM 6.03 42.854 0.086 7.93 6.59 13.78
12/26/2021 12:30:00 PM 6.06 42.908 0.086 7.97 6.52 13.79
12/26/2021 12:45:00 PM 6.09 42.962 0.086 8.02 7.99 13.78
12/26/2021 1:00:00 PM 6.15 43.07 0.085 8.05 5.8 13.76
12/26/2021 1:15:00 PM 6.2 43.16 0.085 8.08 5.91 13.76
12/26/2021 1:30:00 PM 6.26 43.268 0.085 8.1 6.09 13.74
12/26/2021 1:45:00 PM 6.27 43.286 0.086 8.12 13.35 13.74
12/26/2021 2:00:00 PM 6.29 43.322 0.085 8.14 12.38 13.71
12/26/2021 2:15:00 PM 6.34 43.412 0.085 8.15 3.95 13.71
12/26/2021 2:30:00 PM 6.37 43.466 0.085 8.18 4.11 13.67
12/26/2021 2:45:00 PM 6.43 43.574 0.085 8.19 7.09 13.65
12/26/2021 3:00:00 PM 6.51 43.718 0.085 8.18 2.73 13.6
12/26/2021 3:15:00 PM 6.55 43.79 0.085 8.18 8.72 13.51
12/26/2021 3:30:00 PM 6.61 43.898 0.085 8.15 4.29 13.42
12/26/2021 3:45:00 PM 6.62 43.916 0.085 8.11 9.31 13.32
12/26/2021 4:00:00 PM 6.58 43.844 0.085 8.02 4.69 13.14
12/26/2021 4:15:00 PM 6.54 43.772 0.085 7.94 2.69 13
12/26/2021 4:30:00 PM 6.48 43.664 0.085 7.88 4.82 12.9
12/26/2021 4:45:00 PM 6.4 43.52 0.085 7.82 3.09 12.8
12/26/2021 5:00:00 PM 6.31 43.358 0.086 7.76 2.77 12.69
12/26/2021 5:15:00 PM 6.21 43.178 0.086 7.7 3.58 12.58
12/26/2021 5:30:00 PM 6.11 42.998 0.086 7.66 4.05 12.5
12/26/2021 5:45:00 PM 6.02 42.836 0.086 7.62 6.51 12.43
12/26/2021 6:00:00 PM 5.94 42.692 0.086 7.59 3.92 12.36
12/26/2021 6:15:00 PM 5.87 42.566 0.086 7.55 3.21 12.31
12/26/2021 6:30:00 PM 5.79 42.422 0.086 7.53 3.64 12.28
12/26/2021 6:45:00 PM 5.73 42.314 0.087 7.5 4.93 12.25
12/26/2021 7:00:00 PM 5.67 42.206 0.087 7.48 3.21 12.23
12/26/2021 7:15:00 PM 5.61 42.098 0.087 7.47 7.46 12.21
12/26/2021 7:30:00 PM 5.55 41.99 0.087 7.45 27.53 12.2
12/26/2021 7:45:00 PM 5.5 41.9 0.087 7.45 4.12 12.2
12/26/2021 8:00:00 PM 5.44 41.792 0.087 7.44 4.2 12.2
12/26/2021 8:15:00 PM 5.38 41.684 0.087 7.43 2.61 12.2
12/26/2021 8:30:00 PM 5.32 41.576 0.087 7.42 2.58 12.22
12/26/2021 8:45:00 PM 5.26 41.468 0.087 7.4 2.69 12.23
12/26/2021 9:00:00 PM 5.19 41.342 0.087 7.4 2.81 12.24
12/26/2021 9:15:00 PM 5.12 41.216 0.087 7.4 4.36 12.25
12/26/2021 9:30:00 PM 5.05 41.09 0.087 7.38 3.73 12.26
12/26/2021 9:45:00 PM 4.98 40.964 0.087 7.38 3.42 12.28
12/26/2021 10:00:00 PM 4.91 40.838 0.087 7.37 2.66 12.32
12/26/2021 10:15:00 PM 4.85 40.73 0.087 7.37 2.53 12.33
12/26/2021 10:30:00 PM 4.78 40.604 0.087 7.37 6.73 12.36
12/26/2021 10:45:00 PM 4.71 40.478 0.087 7.36 12.89 12.39
12/26/2021 11:00:00 PM 4.65 40.37 0.087 7.36 2.54 12.41
12/26/2021 11:15:00 PM 4.58 40.244 0.087 7.36 3.14 12.44
12/26/2021 11:30:00 PM 4.53 40.154 0.087 7.36 4.95 12.45
12/26/2021 11:45:00 PM 4.47 40.046 0.087 7.36 5.53 12.47
12/27/2021 12:00:00 AM 4.41 39.938 0.087 7.35 15.26 12.49
12/27/2021 12:15:00 AM 4.35 39.83 0.087 7.35 4.03 12.52
12/27/2021 12:30:00 AM 4.29 39.722 0.087 7.35 2.71 12.54
12/27/2021 12:45:00 AM 4.24 39.632 0.087 7.35 3.87 12.56
12/27/2021 1:00:00 AM 4.18 39.524 0.087 7.35 3.23 12.59
12/27/2021 1:15:00 AM 4.13 39.434 0.087 7.34 6.59 12.6
12/27/2021 1:30:00 AM 4.08 39.344 0.087 7.35 3.2 12.63
12/27/2021 1:45:00 AM 4.03 39.254 0.087 7.34 3.7 12.64
12/27/2021 2:00:00 AM 3.99 39.182 0.087 7.34 7.43 12.66
12/27/2021 2:15:00 AM 3.94 39.092 0.087 7.34 2.54 12.68
12/27/2021 2:30:00 AM 3.89 39.002 0.087 7.34 6.98 12.69
12/27/2021 2:45:00 AM 3.85 38.93 0.087 7.33 4.65 12.71
12/27/2021 3:00:00 AM 3.8 38.84 0.087 7.33 9.36 12.73
12/27/2021 3:15:00 AM 3.77 38.786 0.088 7.33 5.51 12.74
12/27/2021 3:30:00 AM 3.74 38.732 0.087 7.33 4.7 12.77
12/27/2021 3:45:00 AM 3.7 38.66 0.088 7.33 5.55 12.78
12/27/2021 4:00:00 AM 3.67 38.606 0.087 7.33 11.87 12.79
12/27/2021 4:15:00 AM 3.65 38.57 0.087 7.33 2.7 12.8
12/27/2021 4:30:00 AM 3.62 38.516 0.087 7.33 5.41 12.83
12/27/2021 4:45:00 AM 3.59 38.462 0.087 7.32 2.59 12.83
12/27/2021 5:00:00 AM 3.57 38.426 0.088 7.32 6.47 12.84
12/27/2021 5:15:00 AM 3.54 38.372 0.087 7.32 4.06 12.85
12/27/2021 5:30:00 AM 3.52 38.336 0.087 7.32 2.59 12.87
12/27/2021 5:45:00 AM 3.5 38.3 0.087 7.32 2.44 12.87
12/27/2021 6:00:00 AM 3.48 38.264 0.087 7.32 2.52 12.87
12/27/2021 6:15:00 AM 3.46 38.228 0.088 7.32 2.5 12.88
12/27/2021 6:30:00 AM 3.44 38.192 0.087 7.32 7.46 12.89
12/27/2021 6:45:00 AM 3.43 38.174 0.088 7.32 4.51 12.9
12/27/2021 7:00:00 AM 3.41 38.138 0.088 7.32 4.14 12.89
12/27/2021 7:15:00 AM 3.4 38.12 0.088 7.32 2.45 12.91
12/27/2021 7:30:00 AM 3.38 38.084 0.088 7.32 5.86 12.91
12/27/2021 7:45:00 AM 3.36 38.048 0.088 7.32 2.37 12.9
12/27/2021 8:00:00 AM 3.35 38.03 0.088 7.32 2.99 12.92
12/27/2021 8:15:00 AM 3.34 38.012 0.088 7.32 4.73 12.94
12/27/2021 8:30:00 AM 3.34 38.012 0.088 7.32 3.65 12.97
12/27/2021 8:45:00 AM 3.33 37.994 0.088 7.33 4.48 12.99
12/27/2021 9:00:00 AM 3.33 37.994 0.088 7.33 2.92 13
12/27/2021 9:15:00 AM 3.33 37.994 0.088 7.34 5.84 13.02
12/27/2021 9:30:00 AM 3.32 37.976 0.088 7.34 2.55 13.05
12/27/2021 9:45:00 AM 3.16 37.688 0.088 7.35 8.07 13.14
12/27/2021 10:00:00 AM 3.11 37.598 0.087 7.37 8.26 13.25
12/27/2021 10:15:00 AM 3.14 37.652 0.088 7.39 8.63 13.33
12/27/2021 10:30:00 AM 3.07 37.526 0.087 7.41 7.09 13.41
12/27/2021 10:45:00 AM 3.01 37.418 0.085 7.41 4.03 13.55
12/27/2021 11:00:00 AM 3.02 37.436 0.085 7.45 3.84 13.71
12/27/2021 11:15:00 AM 3.02 37.436 0.087 7.49 3.31 13.81
12/27/2021 11:30:00 AM 3.04 37.472 0.086 7.53 3.94 13.95
12/27/2021 11:45:00 AM 3.05 37.49 0.086 7.57 15.48 14.07
12/27/2021 12:00:00 PM 3.06 37.508 0.086 7.59 2.52 14.15
12/27/2021 12:15:00 PM 3.07 37.526 0.086 7.62 2.64 14.2
12/27/2021 12:30:00 PM 3.12 37.616 0.086 7.64 5.07 14.25
12/27/2021 12:45:00 PM 3.17 37.706 0.086 7.67 3.89 14.29
12/27/2021 1:00:00 PM 3.2 37.76 0.086 7.69 4.87 14.3
12/27/2021 1:15:00 PM 3.22 37.796 0.086 7.69 5.56 14.27
12/27/2021 1:30:00 PM 3.25 37.85 0.085 7.7 2.38 14.23
12/27/2021 1:45:00 PM 3.28 37.904 0.086 7.74 4.63 14.22
12/27/2021 2:00:00 PM 3.31 37.958 0.085 7.77 2.37 14.2
12/27/2021 2:15:00 PM 3.33 37.994 0.085 7.8 5.67 14.15
12/27/2021 2:30:00 PM 3.36 38.048 0.085 7.8 11.88 14.1
12/27/2021 2:45:00 PM 3.38 38.084 0.085 7.8 2.43 14.06
12/27/2021 3:00:00 PM 3.41 38.138 0.085 7.8 7.45 14.02
12/27/2021 3:15:00 PM 3.42 38.156 0.085 7.78 4.45 13.94
12/27/2021 3:30:00 PM 3.42 38.156 0.085 7.79 2.38 13.88
12/27/2021 3:45:00 PM 3.43 38.174 0.083 7.78 4.89 13.8
12/27/2021 4:00:00 PM 3.43 38.174 0.085 7.64 2.72 13.71
12/27/2021 4:15:00 PM 3.43 38.174 0.086 7.6 2.49 13.63
12/27/2021 4:30:00 PM 3.42 38.156 0.086 7.57 5.4 13.54
12/27/2021 4:45:00 PM 3.42 38.156 0.086 7.54 2.87 13.44
12/27/2021 5:00:00 PM 3.41 38.138 0.086 7.52 3.92 13.37
12/27/2021 5:15:00 PM 3.42 38.156 0.086 7.5 3.28 13.31
12/27/2021 5:30:00 PM 3.42 38.156 0.086 7.5 2.45 13.21
12/27/2021 5:45:00 PM 3.42 38.156 0.086 7.47 2.34 13.18
12/27/2021 6:00:00 PM 3.43 38.174 0.086 7.47 2.45 13.1
12/27/2021 6:15:00 PM 3.43 38.174 0.087 7.45 6.48 13.06
12/27/2021 6:30:00 PM 3.44 38.192 0.087 7.43 5.47 13.01
12/27/2021 6:45:00 PM 3.45 38.21 0.087 7.42 2.53 12.98
12/27/2021 7:00:00 PM 3.46 38.228 0.087 7.42 2.52 12.95
12/27/2021 7:15:00 PM 3.46 38.228 0.087 7.41 3.19 12.92
12/27/2021 7:30:00 PM 3.47 38.246 0.087 7.43 2.48 12.92
12/27/2021 7:45:00 PM 3.47 38.246 0.087 7.44 3.78 12.9
12/27/2021 8:00:00 PM 3.48 38.264 0.087 7.41 3.63 12.88
12/27/2021 8:15:00 PM 3.49 38.282 0.088 7.4 4.49 12.86
12/27/2021 8:30:00 PM 3.49 38.282 0.088 7.38 2.65 12.85
12/27/2021 8:45:00 PM 3.49 38.282 0.089 7.39 2.76 12.85
12/27/2021 9:00:00 PM 3.5 38.3 0.089 7.38 4.26 12.83
12/27/2021 9:15:00 PM 3.5 38.3 0.09 7.38 2.81 12.83
12/27/2021 9:30:00 PM 3.5 38.3 0.09 7.38 2.95 12.82
12/27/2021 9:45:00 PM 3.5 38.3 0.09 7.38 2.87 12.82
12/27/2021 10:00:00 PM 3.51 38.318 0.087 7.35 4.85 12.81
12/27/2021 10:15:00 PM 3.51 38.318 0.091 7.36 8.6 12.8
12/27/2021 10:30:00 PM 3.51 38.318 0.092 7.38 3.1 12.81
12/27/2021 10:45:00 PM 3.52 38.336 0.092 7.38 5.15 12.79
12/27/2021 11:00:00 PM 3.53 38.354 0.093 7.37 5.23 12.8
12/27/2021 11:15:00 PM 3.53 38.354 0.093 7.38 7.35 12.79
12/27/2021 11:30:00 PM 3.54 38.372 0.093 7.37 3.56 12.78
12/27/2021 11:45:00 PM 3.54 38.372 0.093 7.37 3.65 12.8
12/28/2021 12:00:00 AM 3.55 38.39 0.094 7.36 3.64 12.77
12/28/2021 12:15:00 AM 3.56 38.408 0.095 7.36 4.82 12.78
12/28/2021 12:30:00 AM 3.57 38.426 0.095 7.36 3.79 12.78
12/28/2021 12:45:00 AM 3.57 38.426 0.096 7.36 3.39 12.79
12/28/2021 1:00:00 AM 3.58 38.444 0.097 7.36 6.09 12.78
12/28/2021 1:15:00 AM 3.59 38.462 0.097 7.36 3.36 12.77
12/28/2021 1:30:00 AM 3.6 38.48 0.098 7.36 4.36 12.77
12/28/2021 1:45:00 AM 3.61 38.498 0.098 7.35 3.58 12.75
12/28/2021 2:00:00 AM 3.62 38.516 0.099 7.36 4.85 12.76
12/28/2021 2:15:00 AM 3.63 38.534 0.099 7.35 3.45 12.76
12/28/2021 2:30:00 AM 3.64 38.552 0.1 7.35 3.65 12.77
12/28/2021 2:45:00 AM 3.64 38.552 0.1 7.35 3.78 12.77
12/28/2021 3:00:00 AM 3.62 38.516 0.101 7.35 3.69 12.75
12/28/2021 3:15:00 AM 3.61 38.498 0.101 7.35 3.94 12.76
12/28/2021 3:30:00 AM 3.6 38.48 0.098 7.34 4.07 12.76
12/28/2021 3:45:00 AM 3.59 38.462 0.101 7.34 3.71 12.77
12/28/2021 4:00:00 AM 3.59 38.462 0.101 7.34 3.86 12.76
12/28/2021 4:15:00 AM 3.58 38.444 0.101 7.34 3.57 12.78
12/28/2021 4:30:00 AM 3.58 38.444 0.101 7.35 3.86 12.77
12/28/2021 4:45:00 AM 3.57 38.426 0.101 7.35 4.53 12.77
12/28/2021 5:00:00 AM 3.57 38.426 0.1 7.35 6.02 12.78
12/28/2021 5:15:00 AM 3.56 38.408 0.101 7.34 4.28 12.78
12/28/2021 5:30:00 AM 3.55 38.39 0.1 7.34 3.81 12.79
12/28/2021 5:45:00 AM 3.53 38.354 0.1 7.35 3.56 12.79
12/28/2021 6:00:00 AM 3.5 38.3 0.099 7.34 4.84 12.79
12/28/2021 6:15:00 AM 3.48 38.264 0.099 7.34 3.74 12.8
12/28/2021 6:30:00 AM 3.46 38.228 0.099 7.35 3.44 12.82
12/28/2021 6:45:00 AM 3.44 38.192 0.098 7.34 3.28 12.82
12/28/2021 7:00:00 AM 3.41 38.138 0.099 7.33 3.61 12.81
12/28/2021 7:15:00 AM 3.39 38.102 0.098 7.34 3.48 12.83
12/28/2021 7:30:00 AM 3.36 38.048 0.098 7.35 3.3 12.83
12/28/2021 7:45:00 AM 3.34 38.012 0.098 7.35 3.12 12.85
12/28/2021 8:00:00 AM 3.31 37.958 0.097 7.34 3.14 12.92
12/28/2021 8:15:00 AM 3.29 37.922 0.097 7.35 3.11 12.96
12/28/2021 8:30:00 AM 3.28 37.904 0.097 7.37 3.35 13.03
12/28/2021 8:45:00 AM 3.28 37.904 0.097 7.38 3.12 13.15
12/28/2021 9:00:00 AM 3.3 37.94 0.097 7.4 3.08 13.27
12/28/2021 9:15:00 AM 3.33 37.994 0.097 7.43 3.29 13.39
12/28/2021 9:30:00 AM 3.37 38.066 0.097 7.45 3.03 13.51
12/28/2021 9:45:00 AM 3.42 38.156 0.097 7.48 2.93 13.65
12/28/2021 10:00:00 AM 3.48 38.264 0.097 7.52 9.78 13.79
12/28/2021 10:15:00 AM 3.54 38.372 0.097 7.54 2.97 13.89
12/28/2021 10:30:00 AM 3.63 38.534 0.097 7.57 11.66 13.98
12/28/2021 10:45:00 AM 3.74 38.732 0.097 7.61 3.68 14.03
12/28/2021 11:00:00 AM 3.77 38.786 0.097 7.64 3.7 14.12
12/28/2021 11:15:00 AM 3.86 38.948 0.097 7.67 7.35 14.17
12/28/2021 11:30:00 AM 3.93 39.074 0.097 7.71 4.61 14.21
12/28/2021 11:45:00 AM 4 39.2 0.097 7.75 2.9 14.23
12/28/2021 12:00:00 PM 4.06 39.308 0.096 7.77 3.37 14.25
12/28/2021 12:15:00 PM 4.13 39.434 0.096 7.8 4.46 14.26
12/28/2021 12:30:00 PM 4.19 39.542 0.097 7.82 3.18 14.24
12/28/2021 12:45:00 PM 4.22 39.596 0.097 7.82 3.11 14.19
12/28/2021 1:00:00 PM 4.23 39.614 0.096 7.81 3.13 14.12
12/28/2021 1:15:00 PM 4.24 39.632 0.097 7.8 3.09 14.07
12/28/2021 1:30:00 PM 4.23 39.614 0.097 7.79 9.84 14.01
12/28/2021 1:45:00 PM 4.23 39.614 0.097 7.78 4.26 13.98
12/28/2021 2:00:00 PM 4.23 39.614 0.097 7.78 2.93 13.95
12/28/2021 2:15:00 PM 4.25 39.65 0.097 7.78 3.03 13.9
12/28/2021 2:30:00 PM 4.27 39.686 0.097 7.78 3.01 13.87
12/28/2021 2:45:00 PM 4.3 39.74 0.097 7.77 3.07 13.8
12/28/2021 3:00:00 PM 4.33 39.794 0.097 7.74 2.97 13.72
12/28/2021 3:15:00 PM 4.36 39.848 0.097 7.71 3.63 13.6
12/28/2021 3:30:00 PM 4.38 39.884 0.097 7.68 3.32 13.51
12/28/2021 3:45:00 PM 4.4 39.92 0.098 7.65 2.96 13.39
12/28/2021 4:00:00 PM 4.42 39.956 0.098 7.62 3.4 13.31
12/28/2021 4:15:00 PM 4.42 39.956 0.099 7.59 4.9 13.21
12/28/2021 4:30:00 PM 4.42 39.956 0.098 7.57 3.05 13.12
12/28/2021 4:45:00 PM 4.42 39.956 0.099 7.54 2.97 13.02
12/28/2021 5:00:00 PM 4.41 39.938 0.099 7.52 3.01 12.94
12/28/2021 5:15:00 PM 4.41 39.938 0.099 7.5 3 12.89
12/28/2021 5:30:00 PM 4.41 39.938 0.099 7.48 3.01 12.82
12/28/2021 5:45:00 PM 4.41 39.938 0.099 7.46 2.97 12.76
12/28/2021 6:00:00 PM 4.42 39.956 0.099 7.45 3.33 12.71
12/28/2021 6:15:00 PM 4.42 39.956 0.099 7.44 4.01 12.68
12/28/2021 6:30:00 PM 4.43 39.974 0.099 7.43 4.28 12.63
12/28/2021 6:45:00 PM 4.44 39.992 0.099 7.42 3.21 12.6
12/28/2021 7:00:00 PM 4.45 40.01 0.099 7.41 4.27 12.57
12/28/2021 7:15:00 PM 4.46 40.028 0.099 7.4 3.42 12.53
12/28/2021 7:30:00 PM 4.45 40.01 0.099 7.4 6.57 12.53
12/28/2021 7:45:00 PM 4.46 40.028 0.099 7.39 4.29 12.51
12/28/2021 8:00:00 PM 4.45 40.01 0.1 7.38 4.07 12.5
12/28/2021 8:15:00 PM 4.41 39.938 0.099 7.38 4.5 12.5
12/28/2021 8:30:00 PM 4.39 39.902 0.1 7.37 4.16 12.49
12/28/2021 8:45:00 PM 4.36 39.848 0.1 7.37 5.82 12.48
12/28/2021 9:00:00 PM 4.36 39.848 0.1 7.37 5.47 12.48
12/28/2021 9:15:00 PM 4.35 39.83 0.101 7.37 7.05 12.49
12/28/2021 9:30:00 PM 4.34 39.812 0.103 7.37 11.39 12.49
12/28/2021 9:45:00 PM 4.31 39.758 0.106 7.37 15.21 12.49
12/28/2021 10:00:00 PM 4.28 39.704 0.107 7.37 25.98 12.5
12/28/2021 10:15:00 PM 4.24 39.632 0.105 7.37 28.39 12.52
12/28/2021 10:30:00 PM 4.21 39.578 0.105 7.36 42.77 12.55
12/28/2021 10:45:00 PM 4.15 39.47 0.105 7.36 81.29 12.56
12/28/2021 11:00:00 PM 4.08 39.344 0.107 7.35 304.43 12.6
12/28/2021 11:15:00 PM 4 39.2 0.108 7.35 176.76 12.59
12/28/2021 11:30:00 PM 3.95 39.11 0.108 7.34 180.14 12.56
12/28/2021 11:45:00 PM 3.96 39.128 0.113 7.33 137.71 12.56
12/29/2021 12:00:00 AM 3.98 39.164 0.116 7.33 131.1 12.57
12/29/2021 12:15:00 AM 4.03 39.254 0.118 7.3 118.4 12.54
12/29/2021 12:30:00 AM 4.07 39.326 0.116 7.3 118.9 12.54
12/29/2021 12:45:00 AM 4.11 39.398 0.11 7.32 99.62 12.56
12/29/2021 1:00:00 AM 4.15 39.47 0.105 7.32 93.41 12.56
12/29/2021 1:15:00 AM 4.21 39.578 0.103 7.32 81.72 12.54
12/29/2021 1:30:00 AM 4.25 39.65 0.103 7.32 63.45 12.53
12/29/2021 1:45:00 AM 4.3 39.74 0.106 7.34 64.24 12.53
12/29/2021 2:00:00 AM 4.33 39.794 0.108 7.36 74.16 12.52
12/29/2021 2:15:00 AM 4.37 39.866 0.108 7.38 84.62 12.5
12/29/2021 2:30:00 AM 4.4 39.92 0.107 7.38 93.32 12.48
12/29/2021 2:45:00 AM 4.43 39.974 0.106 7.38 94.88 12.49
12/29/2021 3:00:00 AM 4.46 40.028 0.104 7.38 96.87 12.48
12/29/2021 3:15:00 AM 4.48 40.064 0.102 7.37 96.45 12.48
12/29/2021 3:30:00 AM 4.5 40.1 0.1 7.36 96.44 12.49
12/29/2021 3:45:00 AM 4.53 40.154 0.099 7.36 91.66 12.48
12/29/2021 4:00:00 AM 4.55 40.19 0.097 7.37 84.85 12.49
12/29/2021 4:15:00 AM 4.57 40.226 0.096 7.38 84.46 12.48
12/29/2021 4:30:00 AM 4.6 40.28 0.094 7.37 82.27 12.48
12/29/2021 4:45:00 AM 4.63 40.334 0.094 7.36 81.7 12.47
12/29/2021 5:00:00 AM 4.66 40.388 0.095 7.37 76.25 12.46
12/29/2021 5:15:00 AM 4.69 40.442 0.095 7.38 71.23 12.45
12/29/2021 5:30:00 AM 4.72 40.496 0.097 7.4 66.4 12.45
12/29/2021 5:45:00 AM 4.74 40.532 0.098 7.4 73.85 12.45
12/29/2021 6:00:00 AM 4.76 40.568 0.099 7.39 57.72 12.44
12/29/2021 6:15:00 AM 4.79 40.622 0.101 7.4 55.36 12.43
12/29/2021 6:30:00 AM 4.81 40.658 0.103 7.41 51.89 12.42
12/29/2021 6:45:00 AM 4.84 40.712 0.104 7.41 55.24 12.41
12/29/2021 7:00:00 AM 4.86 40.748 0.105 7.41 59.57 12.4
12/29/2021 7:15:00 AM 4.87 40.766 0.105 7.41 57.57 12.39
12/29/2021 7:30:00 AM 4.89 40.802 0.105 7.42 55.57 12.39
12/29/2021 7:45:00 AM 4.91 40.838 0.105 7.41 52.43 12.38
12/29/2021 8:00:00 AM 4.93 40.874 0.105 7.42 51.47 12.38
12/29/2021 8:15:00 AM 4.95 40.91 0.105 7.42 48.28 12.37
12/29/2021 8:30:00 AM 4.98 40.964 0.105 7.41 46.84 12.37
12/29/2021 8:45:00 AM 5 41 0.105 7.41 45.9 12.37
12/29/2021 9:00:00 AM 5.03 41.054 0.105 7.42 458.31 12.36
12/29/2021 9:15:00 AM 5.05 41.09 0.106 7.42 47.74 12.36
12/29/2021 9:30:00 AM 5.08 41.144 0.105 7.42 50.15 12.37
12/29/2021 9:45:00 AM 5.11 41.198 0.104 7.42 52.02 12.37
12/29/2021 10:00:00 AM 5.14 41.252 0.103 7.41 46.32 12.36
12/29/2021 10:15:00 AM 5.17 41.306 0.102 7.4 48.99 12.37
12/29/2021 10:30:00 AM 5.21 41.378 0.101 7.4 166.46 12.37
12/29/2021 10:45:00 AM 5.24 41.432 0.099 7.39 52.62 12.37
12/29/2021 11:00:00 AM 5.28 41.504 0.098 7.39 48.64 12.38
12/29/2021 11:15:00 AM 5.33 41.594 0.098 7.39 552.56 12.39
12/29/2021 11:30:00 AM 5.37 41.666 0.097 7.39 46.6 12.4
12/29/2021 11:45:00 AM 5.43 41.774 0.097 7.39 39.97 12.4
12/29/2021 12:00:00 PM 5.47 41.846 0.096 7.39 599.33 12.41
12/29/2021 12:15:00 PM 5.52 41.936 0.096 7.41 86.87 12.4
12/29/2021 12:30:00 PM 5.58 42.044 0.096 7.4 34.9 12.4
12/29/2021 12:45:00 PM 5.64 42.152 0.095 7.39 63.9 12.4
12/29/2021 1:00:00 PM 5.69 42.242 0.095 7.38 32.27 12.41
12/29/2021 1:15:00 PM 5.75 42.35 0.095 7.38 551.26 12.4
12/29/2021 1:30:00 PM 5.81 42.458 0.094 7.39 570.47 12.4
12/29/2021 1:45:00 PM 5.88 42.584 0.094 7.4 28.51 12.4
12/29/2021 2:00:00 PM 5.94 42.692 0.093 7.4 194.75 12.39
12/29/2021 2:15:00 PM 5.99 42.782 0.093 7.41 26.37 12.38
12/29/2021 2:30:00 PM 6.05 42.89 0.093 7.4 25.67 12.37
12/29/2021 2:45:00 PM 6.09 42.962 0.093 7.4 161.04 12.34
12/29/2021 3:00:00 PM 6.14 43.052 0.093 7.4 21.63 12.33
12/29/2021 3:15:00 PM 6.17 43.106 0.092 7.4 24.84 12.3
12/29/2021 3:30:00 PM 6.21 43.178 0.093 7.4 22.45 12.28
12/29/2021 3:45:00 PM 6.26 43.268 0.092 7.4 21.27 12.26
12/29/2021 4:00:00 PM 6.29 43.322 0.092 7.39 18.34 12.24
12/29/2021 4:15:00 PM 6.31 43.358 0.092 7.39 18.47 12.21
12/29/2021 4:30:00 PM 6.34 43.412 0.092 7.38 18.71 12.17
12/29/2021 4:45:00 PM 6.35 43.43 0.092 7.38 18.63 12.14
12/29/2021 5:00:00 PM 6.37 43.466 0.092 7.38 18.11 12.1
12/29/2021 5:15:00 PM 6.38 43.484 0.092 7.37 17.74 12.07
12/29/2021 5:30:00 PM 6.39 43.502 0.091 7.36 22.17 12.04
12/29/2021 5:45:00 PM 6.39 43.502 0.092 7.36 282.82 12.02
12/29/2021 6:00:00 PM 6.4 43.52 0.092 7.35 16.07 12
12/29/2021 6:15:00 PM 6.4 43.52 0.091 7.34 15.96 11.99
12/29/2021 6:30:00 PM 6.4 43.52 0.091 7.34 15.68 11.98
12/29/2021 6:45:00 PM 6.41 43.538 0.091 7.34 15.39 11.97
12/29/2021 7:00:00 PM 6.42 43.556 0.091 7.34 16.02 11.97
12/29/2021 7:15:00 PM 6.42 43.556 0.09 7.34 15.93 11.96
12/29/2021 7:30:00 PM 6.43 43.574 0.091 7.34 14.71 11.95
12/29/2021 7:45:00 PM 6.44 43.592 0.091 7.33 15.21 11.95
12/29/2021 8:00:00 PM 6.45 43.61 0.091 7.33 14.91 11.95
12/29/2021 8:15:00 PM 6.47 43.646 0.09 7.32 13.97 11.94
12/29/2021 8:30:00 PM 6.48 43.664 0.09 7.32 13.73 11.94
12/29/2021 8:45:00 PM 6.49 43.682 0.09 7.32 13.69 11.93
12/29/2021 9:00:00 PM 6.49 43.682 0.09 7.32 13.8 11.93
12/29/2021 9:15:00 PM 6.51 43.718 0.09 7.32 13.3 11.93
12/29/2021 9:30:00 PM 6.52 43.736 0.09 7.33 13.12 11.92
12/29/2021 9:45:00 PM 6.53 43.754 0.09 7.33 12.75 11.92
12/29/2021 10:00:00 PM 6.55 43.79 0.09 7.33 13.14 11.92
12/29/2021 10:15:00 PM 6.56 43.808 0.09 7.33 13.76 11.91
12/29/2021 10:30:00 PM 6.57 43.826 0.09 7.33 13.35 11.91
12/29/2021 10:45:00 PM 6.59 43.862 0.089 7.33 12.37 11.91
12/29/2021 11:00:00 PM 6.6 43.88 0.089 7.34 12.23 11.91
12/29/2021 11:15:00 PM 6.62 43.916 0.089 7.32 12.71 11.9
12/29/2021 11:30:00 PM 6.63 43.934 0.089 7.32 12.06 11.9
12/29/2021 11:45:00 PM 6.65 43.97 0.089 7.32 11.93 11.9
12/30/2021 12:00:00 AM 6.67 44.006 0.089 7.32 12.14 11.9
12/30/2021 12:15:00 AM 6.68 44.024 0.089 7.32 11.78 11.89
12/30/2021 12:30:00 AM 6.69 44.042 0.089 7.32 12.08 11.88
12/30/2021 12:45:00 AM 6.7 44.06 0.089 7.32 11.42 11.89
12/30/2021 1:00:00 AM 6.71 44.078 0.088 7.32 12.17 11.87
12/30/2021 1:15:00 AM 6.73 44.114 0.088 7.32 11.6 11.88
12/30/2021 1:30:00 AM 6.74 44.132 0.088 7.32 11.13 11.87
12/30/2021 1:45:00 AM 6.75 44.15 0.088 7.32 11.2 11.86
12/30/2021 2:00:00 AM 6.76 44.168 0.088 7.32 11.58 11.85
12/30/2021 2:15:00 AM 6.77 44.186 0.088 7.32 11.09 11.85
12/30/2021 2:30:00 AM 6.78 44.204 0.088 7.32 11.13 11.85
12/30/2021 2:45:00 AM 6.79 44.222 0.088 7.32 11.22 11.84
12/30/2021 3:00:00 AM 6.8 44.24 0.087 7.32 11.51 11.84
12/30/2021 3:15:00 AM 6.81 44.258 0.087 7.32 11.54 11.84
12/30/2021 3:30:00 AM 6.82 44.276 0.088 7.32 11.1 11.84
12/30/2021 3:45:00 AM 6.83 44.294 0.087 7.32 10.94 11.83
12/30/2021 4:00:00 AM 6.84 44.312 0.087 7.32 11.13 11.83
12/30/2021 4:15:00 AM 6.85 44.33 0.087 7.32 10.69 11.83
12/30/2021 4:30:00 AM 6.86 44.348 0.087 7.32 10.98 11.82
12/30/2021 4:45:00 AM 6.87 44.366 0.087 7.32 10.82 11.82
12/30/2021 5:00:00 AM 6.88 44.384 0.087 7.32 10.54 11.81
12/30/2021 5:15:00 AM 6.89 44.402 0.087 7.32 10.96 11.81
12/30/2021 5:30:00 AM 6.9 44.42 0.087 7.32 10.62 11.81
12/30/2021 5:45:00 AM 6.91 44.438 0.087 7.31 11.26 11.81
12/30/2021 6:00:00 AM 6.92 44.456 0.087 7.32 10.49 11.81
12/30/2021 6:15:00 AM 6.93 44.474 0.086 7.32 10.23 11.81
12/30/2021 6:30:00 AM 6.93 44.474 0.086 7.31 10.87 11.8
12/30/2021 6:45:00 AM 6.94 44.492 0.087 7.32 10.77 11.8
12/30/2021 7:00:00 AM 6.95 44.51 0.087 7.31 10.44 11.8
12/30/2021 7:15:00 AM 6.96 44.528 0.086 7.32 10.13 11.79
12/30/2021 7:30:00 AM 6.97 44.546 0.086 7.31 10.5 11.79
12/30/2021 7:45:00 AM 6.97 44.546 0.086 7.31 24.9 11.79
12/30/2021 8:00:00 AM 6.99 44.582 0.086 7.31 9.7 11.79
12/30/2021 8:15:00 AM 6.99 44.582 0.086 7.31 9.75 11.79
12/30/2021 8:30:00 AM 7.01 44.618 0.086 7.31 9.45 11.79
12/30/2021 8:45:00 AM 7.02 44.636 0.086 7.31 9 11.8
12/30/2021 9:00:00 AM 7.03 44.654 0.086 7.32 15.7 11.82
12/30/2021 9:15:00 AM 7.05 44.69 0.085 7.32 8.96 11.83
12/30/2021 9:30:00 AM 7.06 44.708 0.086 7.32 8.6 11.85
12/30/2021 9:45:00 AM 7.08 44.744 0.085 7.32 8.85 11.87
12/30/2021 10:00:00 AM 7.1 44.78 0.085 7.34 8.84 11.89
12/30/2021 10:15:00 AM 7.13 44.834 0.085 7.35 8.2 11.94
12/30/2021 10:30:00 AM 7.16 44.888 0.085 7.36 8.34 11.98
12/30/2021 10:45:00 AM 7.21 44.978 0.085 7.37 8.08 12.05
12/30/2021 11:00:00 AM 7.25 45.05 0.085 7.38 8.05 12.08
12/30/2021 11:15:00 AM 7.29 45.122 0.085 7.4 8.1 12.12
12/30/2021 11:30:00 AM 7.34 45.212 0.085 7.42 8.29 12.16
12/30/2021 11:45:00 AM 7.37 45.266 0.085 7.42 8.04 12.16
12/30/2021 12:00:00 PM 7.4 45.32 0.085 7.43 8.27 12.16
12/30/2021 12:15:00 PM 7.44 45.392 0.085 7.43 8.02 12.16
12/30/2021 12:30:00 PM 7.47 45.446 0.085 7.44 8.52 12.15
12/30/2021 12:45:00 PM 7.52 45.536 0.085 7.45 8.16 12.17
12/30/2021 1:00:00 PM 7.56 45.608 0.085 7.46 8.3 12.16
12/30/2021 1:15:00 PM 7.62 45.716 0.084 7.47 8.4 12.18
12/30/2021 1:30:00 PM 7.66 45.788 0.085 7.47 8.27 12.16
12/30/2021 1:45:00 PM 7.7 45.86 0.085 7.47 8.22 12.16
12/30/2021 2:00:00 PM 7.74 45.932 0.084 7.48 8.07 12.14
12/30/2021 2:15:00 PM 7.77 45.986 0.084 7.49 8.72 12.13
12/30/2021 2:30:00 PM 7.8 46.04 0.085 7.49 8.45 12.1
12/30/2021 2:45:00 PM 7.82 46.076 0.084 7.49 9.14 12.07
12/30/2021 3:00:00 PM 7.85 46.13 0.084 7.48 8.24 12.04
12/30/2021 3:15:00 PM 7.87 46.166 0.084 7.47 7.45 12
12/30/2021 3:30:00 PM 7.9 46.22 0.084 7.47 8.25 11.95
12/30/2021 3:45:00 PM 7.91 46.238 0.084 7.45 8.83 11.89
12/30/2021 4:00:00 PM 7.93 46.274 0.084 7.45 8.45 11.86
12/30/2021 4:15:00 PM 7.95 46.31 0.084 7.44 8.33 11.81
12/30/2021 4:30:00 PM 7.96 46.328 0.084 7.43 8.37 11.79
12/30/2021 4:45:00 PM 7.97 46.346 0.084 7.42 8.67 11.74
12/30/2021 5:00:00 PM 7.98 46.364 0.084 7.41 8.58 11.7
12/30/2021 5:15:00 PM 7.99 46.382 0.084 7.39 8.76 11.65
12/30/2021 5:30:00 PM 8 46.4 0.084 7.39 9.02 11.6
12/30/2021 5:45:00 PM 8.01 46.418 0.084 7.38 8.75 11.58
12/30/2021 6:00:00 PM 8.02 46.436 0.084 7.37 8.94 11.54
12/30/2021 6:15:00 PM 8.03 46.454 0.084 7.36 9.18 11.53
12/30/2021 6:30:00 PM 8.03 46.454 0.084 7.35 9.12 11.5
12/30/2021 6:45:00 PM 8.04 46.472 0.084 7.35 8.56 11.5
12/30/2021 7:00:00 PM 8.05 46.49 0.084 7.35 8.8 11.47
12/30/2021 7:15:00 PM 8.05 46.49 0.084 7.34 8.74 11.48
12/30/2021 7:30:00 PM 8.05 46.49 0.084 7.34 8.8 11.46
12/30/2021 7:45:00 PM 8.05 46.49 0.084 7.34 8.48 11.46
12/30/2021 8:00:00 PM 8.05 46.49 0.084 7.33 8.95 11.46
12/30/2021 8:15:00 PM 8.04 46.472 0.084 7.33 12.26 11.47
12/30/2021 8:30:00 PM 8.04 46.472 0.084 7.33 8.63 11.46
12/30/2021 8:45:00 PM 8.04 46.472 0.084 7.33 8.98 11.45
12/30/2021 9:00:00 PM 8.04 46.472 0.084 7.32 9.31 11.45
12/30/2021 9:15:00 PM 8.05 46.49 0.084 7.34 8.4 11.45
12/30/2021 9:30:00 PM 8.05 46.49 0.084 7.34 8.61 11.46
12/30/2021 9:45:00 PM 8.06 46.508 0.084 7.32 8.89 11.46
12/30/2021 10:00:00 PM 8.06 46.508 0.084 7.32 8.58 11.46
12/30/2021 10:15:00 PM 8.07 46.526 0.084 7.32 8.53 11.45
12/30/2021 10:30:00 PM 8.07 46.526 0.084 7.32 8.21 11.46
12/30/2021 10:45:00 PM 8.08 46.544 0.084 7.32 8.31 11.44
12/30/2021 11:00:00 PM 8.08 46.544 0.084 7.32 7.92 11.46
12/30/2021 11:15:00 PM 8.09 46.562 0.084 7.32 7.98 11.45
12/30/2021 11:30:00 PM 8.09 46.562 0.084 7.33 8.51 11.44
12/30/2021 11:45:00 PM 8.09 46.562 0.084 7.39 8.12 11.45
12/31/2021 12:00:00 AM 8.09 46.562 0.084 7.41 7.71 11.44
12/31/2021 12:15:00 AM 8.1 46.58 0.084 7.42 8 11.45
12/31/2021 12:30:00 AM 8.1 46.58 0.084 7.39 7.92 11.44
12/31/2021 12:45:00 AM 8.1 46.58 0.084 7.39 7.74 11.43
12/31/2021 1:00:00 AM 8.1 46.58 0.084 7.39 7.67 11.45
12/31/2021 1:15:00 AM 8.1 46.58 0.084 7.4 7.58 11.45
12/31/2021 1:30:00 AM 8.1 46.58 0.084 7.39 7.73 11.43
12/31/2021 1:45:00 AM 8.1 46.58 0.084 7.36 7.81 11.45
12/31/2021 2:00:00 AM 8.1 46.58 0.084 7.36 7.58 11.45
12/31/2021 2:15:00 AM 8.1 46.58 0.084 7.34 7.57 11.44
12/31/2021 2:30:00 AM 8.1 46.58 0.084 7.37 7.71 11.44
12/31/2021 2:45:00 AM 8.1 46.58 0.084 7.41 7.92 11.44
12/31/2021 3:00:00 AM 8.1 46.58 0.084 7.33 7.45 11.45
12/31/2021 3:15:00 AM 8.09 46.562 0.084 7.37 7.91 11.45
12/31/2021 3:30:00 AM 8.09 46.562 0.084 7.32 7.86 11.46
12/31/2021 3:45:00 AM 8.09 46.562 0.084 7.36 7.69 11.45
12/31/2021 4:00:00 AM 8.08 46.544 0.084 7.34 7.63 11.46
12/31/2021 4:15:00 AM 8.08 46.544 0.084 7.33 7.58 11.44
12/31/2021 4:30:00 AM 8.07 46.526 0.084 7.4 7.86 11.46
12/31/2021 4:45:00 AM 8.07 46.526 0.084 7.43 8.2 11.44
12/31/2021 5:00:00 AM 8.06 46.508 0.084 7.34 7.51 11.44
12/31/2021 5:15:00 AM 8.06 46.508 0.084 7.34 7.16 11.46
12/31/2021 5:30:00 AM 8.05 46.49 0.084 7.35 7.44 11.46
12/31/2021 5:45:00 AM 8.04 46.472 0.083 7.34 7.7 11.45
12/31/2021 6:00:00 AM 8.04 46.472 0.084 7.34 7.51 11.46
12/31/2021 6:15:00 AM 8.03 46.454 0.084 7.33 8.14 11.45
12/31/2021 6:30:00 AM 8.02 46.436 0.084 7.34 7.68 11.45
12/31/2021 6:45:00 AM 8.01 46.418 0.083 7.34 7.61 11.46
12/31/2021 7:00:00 AM 8 46.4 0.083 7.37 7.64 11.48
12/31/2021 7:15:00 AM 7.99 46.382 0.083 7.34 7.43 11.46
12/31/2021 7:30:00 AM 7.97 46.346 0.083 7.42 6.95 11.46
12/31/2021 7:45:00 AM 7.96 46.328 0.083 7.38 7.79 11.48
12/31/2021 8:00:00 AM 7.95 46.31 0.083 7.37 7.42 11.5
12/31/2021 8:15:00 AM 7.95 46.31 0.083 7.35 6.94 11.5
12/31/2021 8:30:00 AM 7.95 46.31 0.083 7.38 6.7 11.53
12/31/2021 8:45:00 AM 7.95 46.31 0.083 7.41 6.43 11.59
12/31/2021 9:00:00 AM 7.95 46.31 0.083 7.38 6.72 11.63
12/31/2021 9:15:00 AM 7.96 46.328 0.083 7.37 6.6 11.69
12/31/2021 9:30:00 AM 7.97 46.346 0.083 7.46 6.35 11.73
12/31/2021 9:45:00 AM 7.98 46.364 0.083 7.46 6.46 11.8
12/31/2021 10:00:00 AM 8.01 46.418 0.083 7.44 5.99 11.88
12/31/2021 10:15:00 AM 8.03 46.454 0.082 7.44 6.38 11.94
12/31/2021 10:30:00 AM 8.06 46.508 0.083 7.54 6.29 12.01
12/31/2021 10:45:00 AM 8.1 46.58 0.082 7.54 6.19 12.06
12/31/2021 11:00:00 AM 8.14 46.652 0.082 7.57 6.47 12.12
12/31/2021 11:15:00 AM 8.19 46.742 0.082 7.51 6.14 12.16
12/31/2021 11:30:00 AM 8.24 46.832 0.082 7.53 5.98 12.19
12/31/2021 11:45:00 AM 8.3 46.94 0.082 7.54 6 12.24
12/31/2021 12:00:00 PM 8.36 47.048 0.082 7.62 6.31 12.25
12/31/2021 12:15:00 PM 8.38 47.084 0.082 7.64 5.9 12.26
12/31/2021 12:30:00 PM 8.42 47.156 0.082 7.66 5.74 12.26
12/31/2021 12:45:00 PM 8.49 47.282 0.082 7.67 5.87 12.25
12/31/2021 1:00:00 PM 8.55 47.39 0.082 7.69 5.85 12.24
12/31/2021 1:15:00 PM 8.61 47.498 0.082 7.7 5.73 12.2
12/31/2021 1:30:00 PM 8.68 47.624 0.082 7.7 6.16 12.16
12/31/2021 1:45:00 PM 8.73 47.714 0.082 7.74 6 12.11
12/31/2021 2:00:00 PM 8.78 47.804 0.082 7.7 6.12 12.07
12/31/2021 2:15:00 PM 8.82 47.876 0.082 7.68 5.91 12
12/31/2021 2:30:00 PM 8.84 47.912 0.082 7.68 5.91 11.92
12/31/2021 2:45:00 PM 8.87 47.966 0.082 7.66 6.47 11.86
12/31/2021 3:00:00 PM 8.89 48.002 0.081 7.66 6.02 11.79
12/31/2021 3:15:00 PM 8.91 48.038 0.081 7.64 6.39 11.74
12/31/2021 3:30:00 PM 8.93 48.074 0.082 7.64 6.94 11.72
12/31/2021 3:45:00 PM 8.95 48.11 0.081 7.65 6.02 11.7
12/31/2021 4:00:00 PM 8.96 48.128 0.082 7.64 6.17 11.65
12/31/2021 4:15:00 PM 8.97 48.146 0.081 7.62 6.53 11.63
12/31/2021 4:30:00 PM 8.98 48.164 0.081 7.61 6.37 11.57
12/31/2021 4:45:00 PM 8.98 48.164 0.082 7.59 6.2 11.51
12/31/2021 5:00:00 PM 8.98 48.164 0.082 7.57 6.24 11.45
12/31/2021 5:15:00 PM 8.97 48.146 0.082 7.57 6.47 11.4
12/31/2021 5:30:00 PM 8.97 48.146 0.082 7.55 6.78 11.36
12/31/2021 5:45:00 PM 8.96 48.128 0.082 7.54 7.07 11.31
12/31/2021 6:00:00 PM 8.95 48.11 0.082 7.48 11.38 11.28
12/31/2021 6:15:00 PM 8.95 48.11 0.082 7.51 6.36 11.25
12/31/2021 6:30:00 PM 8.94 48.092 0.082 7.51 6.81 11.24
12/31/2021 6:45:00 PM 8.93 48.074 0.082 7.48 6.75 11.23
12/31/2021 7:00:00 PM 8.92 48.056 0.082 7.46 6.58 11.21
12/31/2021 7:15:00 PM 8.91 48.038 0.082 7.48 6.94 11.2
12/31/2021 7:30:00 PM 8.9 48.02 0.082 7.48 6.71 11.19
12/31/2021 7:45:00 PM 8.89 48.002 0.082 7.47 6.63 11.19
12/31/2021 8:00:00 PM 8.87 47.966 0.082 7.47 6.81 11.19
12/31/2021 8:15:00 PM 8.84 47.912 0.082 7.45 6.69 11.19
12/31/2021 8:30:00 PM 8.81 47.858 0.082 7.44 6.61 11.18
12/31/2021 8:45:00 PM 8.79 47.822 0.082 7.46 6.43 11.19
12/31/2021 9:00:00 PM 8.76 47.768 0.082 7.46 6.71 11.2
12/31/2021 9:15:00 PM 8.73 47.714 0.082 7.44 6.49 11.21
12/31/2021 9:30:00 PM 8.7 47.66 0.082 7.44 6.08 11.21
12/31/2021 9:45:00 PM 8.66 47.588 0.082 7.4 6.63 11.21
12/31/2021 10:00:00 PM 8.63 47.534 0.082 7.47 5.99 11.22
12/31/2021 10:15:00 PM 8.59 47.462 0.082 7.43 6.29 11.22
12/31/2021 10:30:00 PM 8.57 47.426 0.082 7.46 6.13 11.24
12/31/2021 10:45:00 PM 8.55 47.39 0.082 7.43 6.49 11.24
12/31/2021 11:00:00 PM 8.53 47.354 0.082 7.4 6.28 11.25
12/31/2021 11:15:00 PM 8.51 47.318 0.082 7.39 6.06 11.25
12/31/2021 11:30:00 PM 8.5 47.3 0.082 7.45 6.39 11.25
12/31/2021 11:45:00 PM 8.49 47.282 0.082 7.45 6.53 11.26
1/1/2022 12:00:00 AM 8.47 47.246 0.082 7.41 6.21 11.27
1/1/2022 12:15:00 AM 8.47 47.246 0.082 7.4 6.21 11.27
1/1/2022 12:30:00 AM 8.46 47.228 0.082 7.42 6.12 11.28
1/1/2022 12:45:00 AM 8.45 47.21 0.082 7.41 5.85 11.27
1/1/2022 1:00:00 AM 8.44 47.192 0.082 7.43 5.78 11.28
1/1/2022 1:15:00 AM 8.43 47.174 0.082 7.44 6.06 11.28
1/1/2022 1:30:00 AM 8.42 47.156 0.082 7.43 5.98 11.29
1/1/2022 1:45:00 AM 8.41 47.138 0.082 7.44 6.16 11.29
1/1/2022 2:00:00 AM 8.4 47.12 0.082 7.44 6.06 11.3
1/1/2022 2:15:00 AM 8.39 47.102 0.082 7.45 5.71 11.29
1/1/2022 2:30:00 AM 8.38 47.084 0.082 7.42 5.7 11.29
1/1/2022 2:45:00 AM 8.38 47.084 0.082 7.42 5.95 11.3
1/1/2022 3:00:00 AM 8.37 47.066 0.082 7.42 6.28 11.3
1/1/2022 3:15:00 AM 8.36 47.048 0.082 7.42 6.07 11.29
1/1/2022 3:30:00 AM 8.36 47.048 0.082 7.44 6.22 11.3
1/1/2022 3:45:00 AM 8.36 47.048 0.082 7.41 6 11.3
1/1/2022 4:00:00 AM 8.35 47.03 0.082 7.42 5.76 11.3
1/1/2022 4:15:00 AM 8.35 47.03 0.082 7.43 5.63 11.3
1/1/2022 4:30:00 AM 8.34 47.012 0.082 7.41 6.21 11.31
1/1/2022 4:45:00 AM 8.34 47.012 0.082 7.42 6.13 11.31
1/1/2022 5:00:00 AM 8.34 47.012 0.082 7.43 5.79 11.3
1/1/2022 5:15:00 AM 8.33 46.994 0.082 7.42 5.89 11.3
1/1/2022 5:30:00 AM 8.33 46.994 0.082 7.41 5.86 11.3
1/1/2022 5:45:00 AM 8.33 46.994 0.082 7.42 5.7 11.31
1/1/2022 6:00:00 AM 8.32 46.976 0.082 7.44 94.6 11.3
1/1/2022 6:15:00 AM 8.31 46.958 0.082 7.42 5.89 11.31
1/1/2022 6:30:00 AM 8.31 46.958 0.082 7.4 5.76 11.31
1/1/2022 6:45:00 AM 8.3 46.94 0.082 7.44 5.82 11.32
1/1/2022 7:00:00 AM 8.3 46.94 0.082 7.41 6 11.3
1/1/2022 7:15:00 AM 8.3 46.94 0.082 7.42 5.92 11.31
1/1/2022 7:30:00 AM 8.3 46.94 0.082 7.41 5.68 11.3
1/1/2022 7:45:00 AM 8.29 46.922 0.082 7.41 5.91 11.31
1/1/2022 8:00:00 AM 8.29 46.922 0.082 7.41 6 11.31
1/1/2022 8:15:00 AM 8.29 46.922 0.081 7.4 5.88 11.33
1/1/2022 8:30:00 AM 8.3 46.94 0.082 7.4 5.56 11.33
1/1/2022 8:45:00 AM 8.3 46.94 0.082 7.38 5.38 11.36
1/1/2022 9:00:00 AM 8.3 46.94 0.082 7.4 5.42 11.38
1/1/2022 9:15:00 AM 8.31 46.958 0.082 7.45 5.46 11.42
1/1/2022 9:30:00 AM 8.32 46.976 0.082 7.44 5.23 11.45
1/1/2022 9:45:00 AM 8.33 46.994 0.082 7.44 5.03 11.49
1/1/2022 10:00:00 AM 8.34 47.012 0.081 7.44 4.79 11.54
1/1/2022 10:15:00 AM 8.36 47.048 0.082 7.46 5.08 11.59
1/1/2022 10:30:00 AM 8.38 47.084 0.081 7.44 4.75 11.62
1/1/2022 10:45:00 AM 8.4 47.12 0.081 7.5 5.27 11.66
1/1/2022 11:00:00 AM 8.42 47.156 0.081 7.51 4.77 11.69
1/1/2022 11:15:00 AM 8.44 47.192 0.081 7.51 4.9 11.71
1/1/2022 11:30:00 AM 8.46 47.228 0.081 7.49 4.68 11.75
1/1/2022 11:45:00 AM 8.49 47.282 0.081 7.51 4.85 11.78
1/1/2022 12:00:00 PM 8.52 47.336 0.081 7.53 5.58 11.81
1/1/2022 12:15:00 PM 8.55 47.39 0.081 7.53 4.68 11.83
1/1/2022 12:30:00 PM 8.58 47.444 0.081 7.55 4.76 11.85
1/1/2022 12:45:00 PM 8.63 47.534 0.081 7.56 4.7 11.91
1/1/2022 1:00:00 PM 8.67 47.606 0.081 7.61 5.03 11.92
1/1/2022 1:15:00 PM 8.72 47.696 0.081 7.6 4.95 11.95
1/1/2022 1:30:00 PM 8.77 47.786 0.081 7.6 4.76 11.97
1/1/2022 1:45:00 PM 8.82 47.876 0.081 7.63 5.33 11.99
1/1/2022 2:00:00 PM 8.85 47.93 0.081 7.62 4.62 11.96
1/1/2022 2:15:00 PM 8.89 48.002 0.081 7.63 4.82 11.95
1/1/2022 2:30:00 PM 8.92 48.056 0.081 7.62 5.01 11.92
1/1/2022 2:45:00 PM 8.95 48.11 0.081 7.62 5.02 11.87
1/1/2022 3:00:00 PM 8.97 48.146 0.08 7.62 5.37 11.81
1/1/2022 3:15:00 PM 8.99 48.182 0.081 7.62 5.12 11.75
1/1/2022 3:30:00 PM 9.01 48.218 0.081 7.58 4.86 11.67
1/1/2022 3:45:00 PM 9.02 48.236 0.081 7.58 4.86 11.59
1/1/2022 4:00:00 PM 9.03 48.254 0.081 7.53 5.18 11.52
1/1/2022 4:15:00 PM 9.04 48.272 0.081 7.56 5.16 11.45
1/1/2022 4:30:00 PM 9.06 48.308 0.081 7.53 4.92 11.4
1/1/2022 4:45:00 PM 9.07 48.326 0.081 7.52 5.54 11.33
1/1/2022 5:00:00 PM 9.08 48.344 0.081 7.49 6.01 11.28
1/1/2022 5:15:00 PM 9.09 48.362 0.081 7.49 5.3 11.22
1/1/2022 5:30:00 PM 9.09 48.362 0.081 7.47 5.35 11.17
1/1/2022 5:45:00 PM 9.1 48.38 0.082 7.41 5.66 11.14
1/1/2022 6:00:00 PM 9.1 48.38 0.082 7.56 6.04 11.12
1/1/2022 6:15:00 PM 9.11 48.398 0.081 7.45 5.69 11.11
1/1/2022 6:30:00 PM 9.11 48.398 0.082 7.49 6.37 11.08
1/1/2022 6:45:00 PM 9.12 48.416 0.082 7.46 5.97 11.07
1/1/2022 7:00:00 PM 9.13 48.434 0.082 7.43 6.92 11.06
1/1/2022 7:15:00 PM 9.13 48.434 0.082 7.37 7.26 11.04
1/1/2022 7:30:00 PM 9.13 48.434 0.083 7.51 7.47 11.04
1/1/2022 7:45:00 PM 9.13 48.434 0.084 7.53 7.65 11.03
1/1/2022 8:00:00 PM 9.12 48.416 0.085 7.44 9.34 11.02
1/1/2022 8:15:00 PM 9.12 48.416 0.086 7.45 10.16 11.02
1/1/2022 8:30:00 PM 9.11 48.398 0.086 7.43 10.34 11.01
1/1/2022 8:45:00 PM 9.11 48.398 0.086 7.56 11.28 11
1/1/2022 9:00:00 PM 9.11 48.398 0.087 7.56 11.16 11
1/1/2022 9:15:00 PM 9.12 48.416 0.087 7.56 11.26 10.99
1/1/2022 9:30:00 PM 9.12 48.416 0.088 7.56 10.11 10.98
1/1/2022 9:45:00 PM 9.12 48.416 0.09 7.58 11.39 10.97
1/1/2022 10:00:00 PM 9.14 48.452 0.089 7.56 37.8 10.96
1/1/2022 10:15:00 PM 9.14 48.452 0.09 7.58 15.44 10.96
1/1/2022 10:30:00 PM 9.15 48.47 0.089 7.58 11.46 10.97
1/1/2022 10:45:00 PM 9.16 48.488 0.088 7.58 12.19 10.96
1/1/2022 11:00:00 PM 9.16 48.488 0.088 7.59 11.63 10.96
1/1/2022 11:15:00 PM 9.16 48.488 0.088 7.59 11.82 10.94
1/1/2022 11:30:00 PM 9.18 48.524 0.087 7.59 10.82 10.96
1/1/2022 11:45:00 PM 9.18 48.524 0.087 7.59 10.52 10.95
1/2/2022 12:00:00 AM 9.19 48.542 0.087 7.57 11.1 10.95
1/2/2022 12:15:00 AM 9.2 48.56 0.087 7.58 10.78 10.96
1/2/2022 12:30:00 AM 9.2 48.56 0.087 7.58 10.45 10.95
1/2/2022 12:45:00 AM 9.21 48.578 0.086 7.59 10.75 10.96
1/2/2022 1:00:00 AM 9.21 48.578 0.087 7.6 10.22 10.95
1/2/2022 1:15:00 AM 9.22 48.596 0.087 7.6 10.2 10.95
1/2/2022 1:30:00 AM 9.22 48.596 0.087 7.61 10.27 10.96
1/2/2022 1:45:00 AM 9.22 48.596 0.086 7.6 10.48 10.95
1/2/2022 2:00:00 AM 9.22 48.596 0.087 7.59 10.8 10.96
1/2/2022 2:15:00 AM 9.22 48.596 0.087 7.6 10.42 10.95
1/2/2022 2:30:00 AM 9.23 48.614 0.087 7.58 10.77 10.94
1/2/2022 2:45:00 AM 9.22 48.596 0.087 7.59 10.67 10.95
1/2/2022 3:00:00 AM 9.22 48.596 0.087 7.58 9.86 10.94
1/2/2022 3:15:00 AM 9.22 48.596 0.087 7.58 9.93 10.96
1/2/2022 3:30:00 AM 9.23 48.614 0.087 7.57 10.57 10.95
1/2/2022 3:45:00 AM 9.22 48.596 0.088 7.57 9.76 10.95
1/2/2022 4:00:00 AM 9.22 48.596 0.088 7.59 10.29 10.94
1/2/2022 4:15:00 AM 9.21 48.578 0.088 7.6 10.2 10.94
1/2/2022 4:30:00 AM 9.2 48.56 0.089 7.61 10.39 10.94
1/2/2022 4:45:00 AM 9.18 48.524 0.089 7.6 10.03 10.94
1/2/2022 5:00:00 AM 9.16 48.488 0.09 7.61 10.27 10.94
1/2/2022 5:15:00 AM 9.14 48.452 0.09 7.61 10.61 10.95
1/2/2022 5:30:00 AM 9.13 48.434 0.09 7.61 10.43 10.96
1/2/2022 5:45:00 AM 9.1 48.38 0.091 7.62 13.47 10.95
1/2/2022 6:00:00 AM 9.08 48.344 0.091 7.62 10.47 10.95
1/2/2022 6:15:00 AM 9.06 48.308 0.091 7.62 9.87 10.96
1/2/2022 6:30:00 AM 9.04 48.272 0.092 7.62 10.72 10.96
1/2/2022 6:45:00 AM 9.01 48.218 0.092 7.61 11 10.97
1/2/2022 7:00:00 AM 9 48.2 0.091 7.61 10.49 10.98
1/2/2022 7:15:00 AM 8.97 48.146 0.092 7.62 10.12 10.98
1/2/2022 7:30:00 AM 8.96 48.128 0.091 7.63 10.07 10.99
1/2/2022 7:45:00 AM 8.94 48.092 0.091 7.62 10.03 11
1/2/2022 8:00:00 AM 8.92 48.056 0.091 7.61 9.78 11.01
1/2/2022 8:15:00 AM 8.9 48.02 0.092 7.63 9.65 11.03
1/2/2022 8:30:00 AM 8.88 47.984 0.091 7.61 9.41 11.04
1/2/2022 8:45:00 AM 8.87 47.966 0.091 7.62 9.71 11.07
1/2/2022 9:00:00 AM 8.87 47.966 0.091 7.63 8.94 11.12
1/2/2022 9:15:00 AM 8.87 47.966 0.091 7.65 9.37 11.17
1/2/2022 9:30:00 AM 8.86 47.948 0.091 7.64 8.89 11.21
1/2/2022 9:45:00 AM 8.86 47.948 0.09 7.66 115.57 11.27
1/2/2022 10:00:00 AM 8.87 47.966 0.09 7.67 8.68 11.32
1/2/2022 10:15:00 AM 8.87 47.966 0.09 7.65 8.46 11.36
1/2/2022 10:30:00 AM 8.87 47.966 0.09 7.65 8.3 11.38
1/2/2022 10:45:00 AM 8.87 47.966 0.09 7.67 8.77 11.42
1/2/2022 11:00:00 AM 8.88 47.984 0.09 7.68 8.18 11.45
1/2/2022 11:15:00 AM 8.88 47.984 0.09 7.68 8.41 11.47
1/2/2022 11:30:00 AM 8.89 48.002 0.09 7.67 8.55 11.49
1/2/2022 11:45:00 AM 8.9 48.02 0.09 7.68 8.11 11.52
1/2/2022 12:00:00 PM 8.9 48.02 0.09 7.67 8.27 11.54
1/2/2022 12:15:00 PM 8.9 48.02 0.091 7.68 8.37 11.55
1/2/2022 12:30:00 PM 8.91 48.038 0.09 7.7 8.23 11.56
1/2/2022 12:45:00 PM 8.91 48.038 0.09 7.7 8.42 11.57
1/2/2022 1:00:00 PM 8.91 48.038 0.091 7.71 8.41 11.58
1/2/2022 1:15:00 PM 8.91 48.038 0.09 7.71 8.34 11.57
1/2/2022 1:30:00 PM 8.91 48.038 0.09 7.71 8.46 11.59
1/2/2022 1:45:00 PM 8.9 48.02 0.09 7.7 8.54 11.58
1/2/2022 2:00:00 PM 8.88 47.984 0.09 7.71 8.35 11.55
1/2/2022 2:15:00 PM 8.86 47.948 0.09 7.71 8.32 11.52
1/2/2022 2:30:00 PM 8.83 47.894 0.09 7.69 8.48 11.5
1/2/2022 2:45:00 PM 8.8 47.84 0.09 7.7 8.7 11.45
1/2/2022 3:00:00 PM 8.78 47.804 0.091 7.67 8.37 11.41
1/2/2022 3:15:00 PM 8.75 47.75 0.091 7.68 8.64 11.39
1/2/2022 3:30:00 PM 8.72 47.696 0.091 7.66 8.18 11.37
1/2/2022 3:45:00 PM 8.7 47.66 0.091 7.67 8.29 11.36
1/2/2022 4:00:00 PM 8.68 47.624 0.09 7.66 8.43 11.36
1/2/2022 4:15:00 PM 8.64 47.552 0.091 7.64 8.26 11.36
1/2/2022 4:30:00 PM 8.6 47.48 0.091 7.65 8.17 11.35
1/2/2022 4:45:00 PM 8.56 47.408 0.091 7.64 8.85 11.35
1/2/2022 5:00:00 PM 8.52 47.336 0.091 7.64 8.3 11.34
1/2/2022 5:15:00 PM 8.48 47.264 0.091 7.63 8.16 11.34
1/2/2022 5:30:00 PM 8.43 47.174 0.091 7.63 8.29 11.33
1/2/2022 5:45:00 PM 8.39 47.102 0.091 7.61 8.26 11.32
1/2/2022 6:00:00 PM 8.35 47.03 0.091 7.6 8.27 11.33
1/2/2022 6:15:00 PM 8.3 46.94 0.091 7.61 8.16 11.33
1/2/2022 6:30:00 PM 8.26 46.868 0.09 7.59 8.02 11.34
1/2/2022 6:45:00 PM 8.21 46.778 0.091 7.6 8.79 11.35
1/2/2022 7:00:00 PM 8.16 46.688 0.091 7.59 7.8 11.37
1/2/2022 7:15:00 PM 8.13 46.634 0.09 7.59 7.84 11.37
1/2/2022 7:30:00 PM 8.08 46.544 0.09 7.57 8.17 11.4
1/2/2022 7:45:00 PM 8.04 46.472 0.09 7.58 7.89 11.41
1/2/2022 8:00:00 PM 7.99 46.382 0.09 7.55 7.66 11.41
1/2/2022 8:15:00 PM 7.95 46.31 0.09 7.5 8.32 11.44
1/2/2022 8:30:00 PM 7.9 46.22 0.09 7.38 7.49 11.43
1/2/2022 8:45:00 PM 7.86 46.148 0.09 7.55 7.65 11.46
1/2/2022 9:00:00 PM 7.81 46.058 0.09 7.36 7.57 11.49
1/2/2022 9:15:00 PM 7.76 45.968 0.089 7.36 7.29 11.49
1/2/2022 9:30:00 PM 7.72 45.896 0.09 7.36 7.26 11.5
1/2/2022 9:45:00 PM 7.68 45.824 0.089 7.35 7 11.53
1/2/2022 10:00:00 PM 7.63 45.734 0.09 7.35 6.83 11.55
1/2/2022 10:15:00 PM 7.58 45.644 0.09 7.34 6.83 11.55
1/2/2022 10:30:00 PM 7.53 45.554 0.09 7.35 6.82 11.57
1/2/2022 10:45:00 PM 7.48 45.464 0.09 7.34 6.98 11.59
1/2/2022 11:00:00 PM 7.42 45.356 0.09 7.34 7.09 11.61
1/2/2022 11:15:00 PM 7.36 45.248 0.09 7.36 7.04 11.63
1/2/2022 11:30:00 PM 7.3 45.14 0.09 7.33 6.89 11.65
1/2/2022 11:45:00 PM 7.25 45.05 0.09 7.34 6.74 11.66
1/3/2022 12:00:00 AM 7.19 44.942 0.09 7.34 6.66 11.69
1/3/2022 12:15:00 AM 7.14 44.852 0.09 7.33 7.12 11.7
1/3/2022 12:30:00 AM 7.08 44.744 0.09 7.33 6.68 11.72
1/3/2022 12:45:00 AM 7.04 44.672 0.09 7.33 6.4 11.74
1/3/2022 1:00:00 AM 6.99 44.582 0.09 7.33 6.35 11.76
1/3/2022 1:15:00 AM 6.94 44.492 0.09 7.33 6.28 11.78
1/3/2022 1:30:00 AM 6.88 44.384 0.09 7.33 5.96 11.8
1/3/2022 1:45:00 AM 6.83 44.294 0.09 7.33 6.2 11.81
1/3/2022 2:00:00 AM 6.79 44.222 0.089 7.35 6.38 11.84
1/3/2022 2:15:00 AM 6.74 44.132 0.089 7.34 6.17 11.85
1/3/2022 2:30:00 AM 6.68 44.024 0.089 7.33 5.86 11.87
1/3/2022 2:45:00 AM 6.63 43.934 0.089 7.33 6.73 11.88
1/3/2022 3:00:00 AM 6.58 43.844 0.089 7.33 5.66 11.9
1/3/2022 3:15:00 AM 6.52 43.736 0.089 7.33 5.98 11.93
1/3/2022 3:30:00 AM 6.47 43.646 0.089 7.34 5.84 11.94
1/3/2022 3:45:00 AM 6.42 43.556 0.089 7.33 6.02 11.96
1/3/2022 4:00:00 AM 6.36 43.448 0.089 7.33 6.13 11.97
1/3/2022 4:15:00 AM 6.32 43.376 0.089 7.34 13.08 11.99
1/3/2022 4:30:00 AM 6.27 43.286 0.089 7.33 5.94 12.01
1/3/2022 4:45:00 AM 6.22 43.196 0.089 7.34 6.01 12.03
1/3/2022 5:00:00 AM 6.15 43.07 0.089 7.33 6.1 12.06
1/3/2022 5:15:00 AM 6.1 42.98 0.089 7.33 5.7 12.07
1/3/2022 5:30:00 AM 6.03 42.854 0.089 7.33 5.6 12.08
1/3/2022 5:45:00 AM 5.98 42.764 0.088 7.31 5.77 12.1
1/3/2022 6:00:00 AM 5.94 42.692 0.089 7.31 5.93 12.11
1/3/2022 6:15:00 AM 5.89 42.602 0.088 7.31 5.9 12.13
1/3/2022 6:30:00 AM 5.85 42.53 0.088 7.31 6.7 12.15
1/3/2022 6:45:00 AM 5.78 42.404 0.088 7.31 5.43 12.17
1/3/2022 7:00:00 AM 5.72 42.296 0.089 7.31 5.31 12.18
1/3/2022 7:15:00 AM 5.66 42.188 0.088 7.28 5.96 12.2
1/3/2022 7:30:00 AM 5.6 42.08 0.088 7.28 5.21 12.24
1/3/2022 7:45:00 AM 5.54 41.972 0.088 7.29 5.71 12.25
1/3/2022 8:00:00 AM 5.47 41.846 0.088 7.29 5.81 12.26
1/3/2022 8:15:00 AM 5.41 41.738 0.088 7.29 5.32 12.29
1/3/2022 8:30:00 AM 5.35 41.63 0.088 7.29 5.51 12.34
1/3/2022 8:45:00 AM 5.29 41.522 0.088 7.3 5.33 12.39
1/3/2022 9:00:00 AM 5.23 41.414 0.088 7.3 5.01 12.43
1/3/2022 9:15:00 AM 5.18 41.324 0.088 7.31 5.09 12.49
1/3/2022 9:30:00 AM 5.14 41.252 0.087 7.32 5.41 12.56
1/3/2022 9:45:00 AM 5.09 41.162 0.088 7.32 4.93 12.63
1/3/2022 10:00:00 AM 5.06 41.108 0.088 7.34 4.95 12.73
1/3/2022 10:15:00 AM 5.02 41.036 0.087 7.35 4.77 12.81
1/3/2022 10:30:00 AM 4.99 40.982 0.087 7.37 4.82 12.9
1/3/2022 10:45:00 AM 4.97 40.946 0.088 7.38 5.01 12.96
1/3/2022 11:00:00 AM 4.96 40.928 0.087 7.4 4.83 13.04
1/3/2022 11:15:00 AM 4.96 40.928 0.087 7.41 4.96 13.09
1/3/2022 11:30:00 AM 4.95 40.91 0.087 7.43 4.84 13.15
1/3/2022 11:45:00 AM 4.93 40.874 0.087 7.44 4.62 13.19
1/3/2022 12:00:00 PM 4.92 40.856 0.087 7.45 4.72 13.24
1/3/2022 12:15:00 PM 4.92 40.856 0.086 7.46 5.07 13.28
1/3/2022 12:30:00 PM 4.93 40.874 0.087 7.47 4.67 13.3
1/3/2022 12:45:00 PM 4.96 40.928 0.086 7.48 4.69 13.32
1/3/2022 1:00:00 PM 4.98 40.964 0.086 7.49 4.68 13.33
1/3/2022 1:15:00 PM 4.98 40.964 0.086 7.5 4.92 13.35
1/3/2022 1:30:00 PM 4.99 40.982 0.086 7.5 4.67 13.35
1/3/2022 1:45:00 PM 5 41 0.086 7.51 5.37 13.37
1/3/2022 2:00:00 PM 5 41 0.086 7.52 4.56 13.39
1/3/2022 2:15:00 PM 5.01 41.018 0.086 7.52 4.79 13.38
1/3/2022 2:30:00 PM 5.03 41.054 0.087 7.52 4.5 13.36
1/3/2022 2:45:00 PM 5.03 41.054 0.087 7.52 5.02 13.35
1/3/2022 3:00:00 PM 5.01 41.018 0.087 7.52 4.75 13.33
1/3/2022 3:15:00 PM 4.98 40.964 0.087 7.51 4.73 13.3
1/3/2022 3:30:00 PM 4.96 40.928 0.086 7.5 4.79 13.26
1/3/2022 3:45:00 PM 4.9 40.82 0.087 7.49 5.08 13.22
1/3/2022 4:00:00 PM 4.84 40.712 0.086 7.48 4.71 13.18
1/3/2022 4:15:00 PM 4.76 40.568 0.086 7.47 4.79 13.13
1/3/2022 4:30:00 PM 4.69 40.442 0.086 7.45 4.6 13.08
1/3/2022 4:45:00 PM 4.62 40.316 0.087 7.43 4.6 13.03
1/3/2022 5:00:00 PM 4.56 40.208 0.086 7.41 4.67 12.98
1/3/2022 5:15:00 PM 4.51 40.118 0.086 7.4 4.88 12.93
1/3/2022 5:30:00 PM 4.46 40.028 0.086 7.39 4.71 12.89
1/3/2022 5:45:00 PM 4.42 39.956 0.086 7.37 4.78 12.85
1/3/2022 6:00:00 PM 4.37 39.866 0.086 7.36 4.82 12.84
1/3/2022 6:15:00 PM 4.33 39.794 0.086 7.35 5.44 12.82
1/3/2022 6:30:00 PM 4.28 39.704 0.086 7.34 5.07 12.81
1/3/2022 6:45:00 PM 4.23 39.614 0.086 7.33 5.27 12.81
1/3/2022 7:00:00 PM 4.18 39.524 0.086 7.33 4.51 12.82
1/3/2022 7:15:00 PM 4.13 39.434 0.086 7.32 4.67 12.82
1/3/2022 7:30:00 PM 4.08 39.344 0.086 7.32 4.71 12.82
1/3/2022 7:45:00 PM 4.04 39.272 0.086 7.31 4.64 12.83
1/3/2022 8:00:00 PM 3.99 39.182 0.086 7.31 4.44 12.85
1/3/2022 8:15:00 PM 3.95 39.11 0.086 7.31 4.59 12.85
1/3/2022 8:30:00 PM 3.9 39.02 0.084 7.29 5.13 12.87
1/3/2022 8:45:00 PM 3.86 38.948 0.086 7.3 4.62 12.89
1/3/2022 9:00:00 PM 3.81 38.858 0.086 7.3 4.69 12.9
1/3/2022 9:15:00 PM 3.76 38.768 0.086 7.3 4.77 12.93
1/3/2022 9:30:00 PM 3.71 38.678 0.086 7.29 5.09 12.95
1/3/2022 9:45:00 PM 3.67 38.606 0.086 7.29 4.66 12.96
1/3/2022 10:00:00 PM 3.62 38.516 0.086 7.29 4.36 12.99
1/3/2022 10:15:00 PM 3.57 38.426 0.082 7.26 5.49 13
1/3/2022 10:30:00 PM 3.52 38.336 0.086 7.29 6.13 13.03
1/3/2022 10:45:00 PM 3.47 38.246 0.086 7.28 4.28 13.05
1/3/2022 11:00:00 PM 3.42 38.156 0.085 7.29 4.85 13.06
1/3/2022 11:15:00 PM 3.38 38.084 0.086 7.28 4.4 13.08
1/3/2022 11:30:00 PM 3.33 37.994 0.086 7.28 4.56 13.1
1/3/2022 11:45:00 PM 3.29 37.922 0.086 7.28 4.37 13.12
1/4/2022 12:00:00 AM 3.24 37.832 0.086 7.28 4.72 13.14
1/4/2022 12:15:00 AM 3.19 37.742 0.085 7.28 4.57 13.16
1/4/2022 12:30:00 AM 3.14 37.652 0.086 7.28 4.36 13.18
1/4/2022 12:45:00 AM 3.1 37.58 0.086 7.28 4.55 13.2
1/4/2022 1:00:00 AM 3.05 37.49 0.085 7.28 4.68 13.21
1/4/2022 1:15:00 AM 3 37.4 0.086 7.28 4.26 13.23
1/4/2022 1:30:00 AM 2.96 37.328 0.086 7.28 4.25 13.25
1/4/2022 1:45:00 AM 2.92 37.256 0.086 7.28 4.21 13.27
1/4/2022 2:00:00 AM 2.89 37.202 0.086 7.28 4.15 13.28
1/4/2022 2:15:00 AM 2.87 37.166 0.086 7.28 4.18 13.3
1/4/2022 2:30:00 AM 2.84 37.112 0.086 7.28 4.33 13.31
1/4/2022 2:45:00 AM 2.81 37.058 0.085 7.28 4.29 13.34
1/4/2022 3:00:00 AM 2.78 37.004 0.085 7.28 4.76 13.34
1/4/2022 3:15:00 AM 2.76 36.968 0.085 7.28 4.57 13.35
1/4/2022 3:30:00 AM 2.72 36.896 0.085 7.28 4.26 13.37
1/4/2022 3:45:00 AM 2.69 36.842 0.085 7.28 4.38 13.38
1/4/2022 4:00:00 AM 2.64 36.752 0.085 7.27 4.19 13.39
1/4/2022 4:15:00 AM 2.61 36.698 0.085 7.28 4.18 13.41
1/4/2022 4:30:00 AM 2.57 36.626 0.085 7.28 4.21 13.42
1/4/2022 4:45:00 AM 2.54 36.572 0.082 7.25 4.79 13.43
1/4/2022 5:00:00 AM 2.5 36.5 0.085 7.27 4.59 13.45
1/4/2022 5:15:00 AM 2.46 36.428 0.085 7.27 4.24 13.46
1/4/2022 5:30:00 AM 2.42 36.356 0.082 7.25 4.86 13.47
1/4/2022 5:45:00 AM 2.39 36.302 0.085 7.27 4.22 13.49
1/4/2022 6:00:00 AM 2.36 36.248 0.085 7.27 4.24 13.49
1/4/2022 6:15:00 AM 2.32 36.176 0.085 7.27 4.18 13.51
1/4/2022 6:30:00 AM 2.29 36.122 0.085 7.27 4.36 13.52
1/4/2022 6:45:00 AM 2.26 36.068 0.086 7.27 4.03 13.53
1/4/2022 7:00:00 AM 2.23 36.014 0.083 7.25 4.56 13.55
1/4/2022 7:15:00 AM 2.2 35.96 0.086 7.26 4.31 13.56
1/4/2022 7:30:00 AM 2.17 35.906 0.085 7.27 3.94 13.56
1/4/2022 7:45:00 AM 2.14 35.852 0.085 7.27 4.03 13.58
1/4/2022 8:00:00 AM 2.12 35.816 0.085 7.27 4.28 13.62
1/4/2022 8:15:00 AM 2.1 35.78 0.084 7.27 4.25 13.65
1/4/2022 8:30:00 AM 2.09 35.762 0.085 7.28 4.27 13.7
1/4/2022 8:45:00 AM 2.09 35.762 0.085 7.29 4.05 13.76
1/4/2022 9:00:00 AM 2.1 35.78 0.084 7.3 4.18 13.81
1/4/2022 9:15:00 AM 2.11 35.798 0.082 7.29 4.23 13.88
1/4/2022 9:30:00